<?xml version="1.0" encoding="UTF-8" standalone="no" ?>
<gpx xmlns="http://www.topografix.com/GPX/1/1" xmlns:xsi="http://www.w3.org/2001/XMLSchema-instance" xsi:schemaLocation="http://www.topografix.com/GPX/1/1 http://www.topografix.com/GPX/1/1/gpx.xsd" version="1.1" creator="VisuGPX - https://www.visugpx.com">
  <metadata>
    <name>Autour de Vizzavona</name>
    <desc><![CDATA[Départ du col de Vizzavona vers les bergeries des Pozzi et le rocher la Madonuccia. Descente vers la gare de Vizzavona et remontée vers la cascade des Anglais. Retour par les ruines de l'ancien fort.]]></desc>
  </metadata>
  <trk>
    <name><![CDATA[20180612193538-jfnAP]]></name>
    <trkseg>
      <trkpt lat="42.11215" lon="9.11293">
        <ele>1168</ele>
        <time>2018-06-11T11:55:05.000Z</time>
      </trkpt>
      <trkpt lat="42.11215" lon="9.1129">
        <ele>1168</ele>
        <time>2018-06-11T11:55:08.000Z</time>
      </trkpt>
      <trkpt lat="42.11213" lon="9.11285">
        <ele>1168</ele>
        <time>2018-06-11T11:55:13.000Z</time>
      </trkpt>
      <trkpt lat="42.11212" lon="9.1128">
        <ele>1168</ele>
        <time>2018-06-11T11:55:17.000Z</time>
      </trkpt>
      <trkpt lat="42.11212" lon="9.11274">
        <ele>1168</ele>
        <time>2018-06-11T11:55:22.000Z</time>
      </trkpt>
      <trkpt lat="42.11213" lon="9.11269">
        <ele>1168</ele>
        <time>2018-06-11T11:55:28.000Z</time>
      </trkpt>
      <trkpt lat="42.11213" lon="9.11264">
        <ele>1168</ele>
        <time>2018-06-11T11:55:32.000Z</time>
      </trkpt>
      <trkpt lat="42.11212" lon="9.11258">
        <ele>1168</ele>
        <time>2018-06-11T11:55:36.000Z</time>
      </trkpt>
      <trkpt lat="42.1121" lon="9.11254">
        <ele>1168</ele>
        <time>2018-06-11T11:55:39.000Z</time>
      </trkpt>
      <trkpt lat="42.11208" lon="9.1125">
        <ele>1165</ele>
        <time>2018-06-11T11:55:43.000Z</time>
      </trkpt>
      <trkpt lat="42.11204" lon="9.11247">
        <ele>1165</ele>
        <time>2018-06-11T11:55:48.000Z</time>
      </trkpt>
      <trkpt lat="42.112" lon="9.11245">
        <ele>1165</ele>
        <time>2018-06-11T11:55:52.000Z</time>
      </trkpt>
      <trkpt lat="42.11196" lon="9.11244">
        <ele>1165</ele>
        <time>2018-06-11T11:55:55.000Z</time>
      </trkpt>
      <trkpt lat="42.11191" lon="9.11242">
        <ele>1165</ele>
        <time>2018-06-11T11:55:59.000Z</time>
      </trkpt>
      <trkpt lat="42.11187" lon="9.1124">
        <ele>1165</ele>
        <time>2018-06-11T11:56:03.000Z</time>
      </trkpt>
      <trkpt lat="42.11185" lon="9.11237">
        <ele>1165</ele>
        <time>2018-06-11T11:56:06.000Z</time>
      </trkpt>
      <trkpt lat="42.11183" lon="9.11233">
        <ele>1165</ele>
        <time>2018-06-11T11:56:10.000Z</time>
      </trkpt>
      <trkpt lat="42.11179" lon="9.1123">
        <ele>1164</ele>
        <time>2018-06-11T11:56:15.000Z</time>
      </trkpt>
      <trkpt lat="42.11176" lon="9.11227">
        <ele>1164</ele>
        <time>2018-06-11T11:56:20.000Z</time>
      </trkpt>
      <trkpt lat="42.11172" lon="9.11224">
        <ele>1164</ele>
        <time>2018-06-11T11:56:25.000Z</time>
      </trkpt>
      <trkpt lat="42.11168" lon="9.11223">
        <ele>1164</ele>
        <time>2018-06-11T11:56:30.000Z</time>
      </trkpt>
      <trkpt lat="42.11164" lon="9.11225">
        <ele>1162</ele>
        <time>2018-06-11T11:56:36.000Z</time>
      </trkpt>
      <trkpt lat="42.11161" lon="9.11227">
        <ele>1163</ele>
        <time>2018-06-11T11:56:40.000Z</time>
      </trkpt>
      <trkpt lat="42.11159" lon="9.11232">
        <ele>1163</ele>
        <time>2018-06-11T11:56:45.000Z</time>
      </trkpt>
      <trkpt lat="42.11157" lon="9.11237">
        <ele>1164</ele>
        <time>2018-06-11T11:56:49.000Z</time>
      </trkpt>
      <trkpt lat="42.11155" lon="9.11242">
        <ele>1164</ele>
        <time>2018-06-11T11:56:52.000Z</time>
      </trkpt>
      <trkpt lat="42.11152" lon="9.11247">
        <ele>1164</ele>
        <time>2018-06-11T11:56:56.000Z</time>
      </trkpt>
      <trkpt lat="42.1115" lon="9.11251">
        <ele>1171</ele>
        <time>2018-06-11T11:56:59.000Z</time>
      </trkpt>
      <trkpt lat="42.11147" lon="9.11254">
        <ele>1172</ele>
        <time>2018-06-11T11:57:03.000Z</time>
      </trkpt>
      <trkpt lat="42.11144" lon="9.11259">
        <ele>1173</ele>
        <time>2018-06-11T11:57:07.000Z</time>
      </trkpt>
      <trkpt lat="42.11141" lon="9.11263">
        <ele>1174</ele>
        <time>2018-06-11T11:57:11.000Z</time>
      </trkpt>
      <trkpt lat="42.11138" lon="9.11264">
        <ele>1175</ele>
        <time>2018-06-11T11:57:15.000Z</time>
      </trkpt>
      <trkpt lat="42.11134" lon="9.11266">
        <ele>1175</ele>
        <time>2018-06-11T11:57:19.000Z</time>
      </trkpt>
      <trkpt lat="42.1113" lon="9.11268">
        <ele>1176</ele>
        <time>2018-06-11T11:57:24.000Z</time>
      </trkpt>
      <trkpt lat="42.11127" lon="9.1127">
        <ele>1176</ele>
        <time>2018-06-11T11:57:28.000Z</time>
      </trkpt>
      <trkpt lat="42.11117" lon="9.11277">
        <ele>1177</ele>
        <time>2018-06-11T11:57:39.000Z</time>
      </trkpt>
      <trkpt lat="42.11108" lon="9.11284">
        <ele>1179</ele>
        <time>2018-06-11T11:57:51.000Z</time>
      </trkpt>
      <trkpt lat="42.11103" lon="9.11297">
        <ele>1180</ele>
        <time>2018-06-11T11:58:07.000Z</time>
      </trkpt>
      <trkpt lat="42.11092" lon="9.11305">
        <ele>1182</ele>
        <time>2018-06-11T11:58:16.000Z</time>
      </trkpt>
      <trkpt lat="42.11083" lon="9.11315">
        <ele>1187</ele>
        <time>2018-06-11T11:58:28.000Z</time>
      </trkpt>
      <trkpt lat="42.1108" lon="9.11329">
        <ele>1191</ele>
        <time>2018-06-11T11:58:49.000Z</time>
      </trkpt>
      <trkpt lat="42.11074" lon="9.1134">
        <ele>1193</ele>
        <time>2018-06-11T11:59:02.000Z</time>
      </trkpt>
      <trkpt lat="42.11064" lon="9.11346">
        <ele>1193</ele>
        <time>2018-06-11T11:59:14.000Z</time>
      </trkpt>
      <trkpt lat="42.11054" lon="9.11353">
        <ele>1193</ele>
        <time>2018-06-11T11:59:25.000Z</time>
      </trkpt>
      <trkpt lat="42.11043" lon="9.11356">
        <ele>1193</ele>
        <time>2018-06-11T11:59:34.000Z</time>
      </trkpt>
      <trkpt lat="42.11036" lon="9.11367">
        <ele>1194</ele>
        <time>2018-06-11T11:59:47.000Z</time>
      </trkpt>
      <trkpt lat="42.11032" lon="9.1137">
        <ele>1194</ele>
        <time>2018-06-11T11:59:52.000Z</time>
      </trkpt>
      <trkpt lat="42.11021" lon="9.11375">
        <ele>1194</ele>
        <time>2018-06-11T12:00:02.000Z</time>
      </trkpt>
      <trkpt lat="42.1101" lon="9.11379">
        <ele>1194</ele>
        <time>2018-06-11T12:00:10.000Z</time>
      </trkpt>
      <trkpt lat="42.11004" lon="9.11392">
        <ele>1195</ele>
        <time>2018-06-11T12:00:24.000Z</time>
      </trkpt>
      <trkpt lat="42.10999" lon="9.11405">
        <ele>1194</ele>
        <time>2018-06-11T12:00:30.000Z</time>
      </trkpt>
      <trkpt lat="42.1099" lon="9.11414">
        <ele>1195</ele>
        <time>2018-06-11T12:00:39.000Z</time>
      </trkpt>
      <trkpt lat="42.10981" lon="9.11421">
        <ele>1200</ele>
        <time>2018-06-11T12:00:52.000Z</time>
      </trkpt>
      <trkpt lat="42.10971" lon="9.11427">
        <ele>1201</ele>
        <time>2018-06-11T12:01:03.000Z</time>
      </trkpt>
      <trkpt lat="42.10964" lon="9.11439">
        <ele>1201</ele>
        <time>2018-06-11T12:01:12.000Z</time>
      </trkpt>
      <trkpt lat="42.10955" lon="9.11447">
        <ele>1202</ele>
        <time>2018-06-11T12:01:23.000Z</time>
      </trkpt>
      <trkpt lat="42.10945" lon="9.11451">
        <ele>1202</ele>
        <time>2018-06-11T12:01:32.000Z</time>
      </trkpt>
      <trkpt lat="42.1094" lon="9.11451">
        <ele>1202</ele>
        <time>2018-06-11T12:01:36.000Z</time>
      </trkpt>
      <trkpt lat="42.10937" lon="9.11454">
        <ele>1203</ele>
        <time>2018-06-11T12:01:40.000Z</time>
      </trkpt>
      <trkpt lat="42.10933" lon="9.11455">
        <ele>1203</ele>
        <time>2018-06-11T12:01:44.000Z</time>
      </trkpt>
      <trkpt lat="42.10929" lon="9.11457">
        <ele>1203</ele>
        <time>2018-06-11T12:01:48.000Z</time>
      </trkpt>
      <trkpt lat="42.10925" lon="9.1146">
        <ele>1204</ele>
        <time>2018-06-11T12:01:52.000Z</time>
      </trkpt>
      <trkpt lat="42.10923" lon="9.11464">
        <ele>1205</ele>
        <time>2018-06-11T12:01:56.000Z</time>
      </trkpt>
      <trkpt lat="42.10919" lon="9.11467">
        <ele>1206</ele>
        <time>2018-06-11T12:02:01.000Z</time>
      </trkpt>
      <trkpt lat="42.10916" lon="9.11471">
        <ele>1206</ele>
        <time>2018-06-11T12:02:05.000Z</time>
      </trkpt>
      <trkpt lat="42.10912" lon="9.11474">
        <ele>1207</ele>
        <time>2018-06-11T12:02:09.000Z</time>
      </trkpt>
      <trkpt lat="42.10909" lon="9.11477">
        <ele>1208</ele>
        <time>2018-06-11T12:02:13.000Z</time>
      </trkpt>
      <trkpt lat="42.10906" lon="9.1148">
        <ele>1208</ele>
        <time>2018-06-11T12:02:18.000Z</time>
      </trkpt>
      <trkpt lat="42.10902" lon="9.11482">
        <ele>1208</ele>
        <time>2018-06-11T12:02:23.000Z</time>
      </trkpt>
      <trkpt lat="42.10898" lon="9.1148">
        <ele>1207</ele>
        <time>2018-06-11T12:02:28.000Z</time>
      </trkpt>
      <trkpt lat="42.10895" lon="9.11478">
        <ele>1206</ele>
        <time>2018-06-11T12:02:51.000Z</time>
      </trkpt>
      <trkpt lat="42.10899" lon="9.1148">
        <ele>1207</ele>
        <time>2018-06-11T12:03:02.000Z</time>
      </trkpt>
      <trkpt lat="42.10903" lon="9.11483">
        <ele>1209</ele>
        <time>2018-06-11T12:03:10.000Z</time>
      </trkpt>
      <trkpt lat="42.10906" lon="9.11488">
        <ele>1211</ele>
        <time>2018-06-11T12:03:16.000Z</time>
      </trkpt>
      <trkpt lat="42.10908" lon="9.11491">
        <ele>1212</ele>
        <time>2018-06-11T12:03:22.000Z</time>
      </trkpt>
      <trkpt lat="42.10909" lon="9.11497">
        <ele>1214</ele>
        <time>2018-06-11T12:03:30.000Z</time>
      </trkpt>
      <trkpt lat="42.1091" lon="9.11502">
        <ele>1222</ele>
        <time>2018-06-11T12:03:34.000Z</time>
      </trkpt>
      <trkpt lat="42.10906" lon="9.11517">
        <ele>1226</ele>
        <time>2018-06-11T12:03:49.000Z</time>
      </trkpt>
      <trkpt lat="42.10901" lon="9.11522">
        <ele>1228</ele>
        <time>2018-06-11T12:04:01.000Z</time>
      </trkpt>
      <trkpt lat="42.10899" lon="9.11526">
        <ele>1229</ele>
        <time>2018-06-11T12:04:05.000Z</time>
      </trkpt>
      <trkpt lat="42.10896" lon="9.11529">
        <ele>1230</ele>
        <time>2018-06-11T12:04:09.000Z</time>
      </trkpt>
      <trkpt lat="42.10887" lon="9.11532">
        <ele>1231</ele>
        <time>2018-06-11T12:04:18.000Z</time>
      </trkpt>
      <trkpt lat="42.10884" lon="9.11534">
        <ele>1231</ele>
        <time>2018-06-11T12:04:23.000Z</time>
      </trkpt>
      <trkpt lat="42.10892" lon="9.11539">
        <ele>1231</ele>
        <time>2018-06-11T12:04:51.000Z</time>
      </trkpt>
      <trkpt lat="42.10895" lon="9.11542">
        <ele>1232</ele>
        <time>2018-06-11T12:04:56.000Z</time>
      </trkpt>
      <trkpt lat="42.10898" lon="9.11546">
        <ele>1232</ele>
        <time>2018-06-11T12:05:02.000Z</time>
      </trkpt>
      <trkpt lat="42.10895" lon="9.11557">
        <ele>1234</ele>
        <time>2018-06-11T12:05:12.000Z</time>
      </trkpt>
      <trkpt lat="42.10887" lon="9.11568">
        <ele>1236</ele>
        <time>2018-06-11T12:05:27.000Z</time>
      </trkpt>
      <trkpt lat="42.10878" lon="9.11573">
        <ele>1237</ele>
        <time>2018-06-11T12:05:41.000Z</time>
      </trkpt>
      <trkpt lat="42.10885" lon="9.1158">
        <ele>1237</ele>
        <time>2018-06-11T12:06:19.000Z</time>
      </trkpt>
      <trkpt lat="42.10887" lon="9.11594">
        <ele>1254</ele>
        <time>2018-06-11T12:06:35.000Z</time>
      </trkpt>
      <trkpt lat="42.10888" lon="9.11602">
        <ele>1255</ele>
        <time>2018-06-11T12:06:51.000Z</time>
      </trkpt>
      <trkpt lat="42.10889" lon="9.1161">
        <ele>1256</ele>
        <time>2018-06-11T12:07:01.000Z</time>
      </trkpt>
      <trkpt lat="42.10891" lon="9.11614">
        <ele>1256</ele>
        <time>2018-06-11T12:07:08.000Z</time>
      </trkpt>
      <trkpt lat="42.1089" lon="9.11624">
        <ele>1258</ele>
        <time>2018-06-11T12:07:19.000Z</time>
      </trkpt>
      <trkpt lat="42.10882" lon="9.11634">
        <ele>1261</ele>
        <time>2018-06-11T12:07:30.000Z</time>
      </trkpt>
      <trkpt lat="42.10871" lon="9.11634">
        <ele>1262</ele>
        <time>2018-06-11T12:07:56.000Z</time>
      </trkpt>
      <trkpt lat="42.10866" lon="9.11634">
        <ele>1263</ele>
        <time>2018-06-11T12:08:06.000Z</time>
      </trkpt>
      <trkpt lat="42.1086" lon="9.11632">
        <ele>1263</ele>
        <time>2018-06-11T12:08:13.000Z</time>
      </trkpt>
      <trkpt lat="42.10857" lon="9.11633">
        <ele>1264</ele>
        <time>2018-06-11T12:08:19.000Z</time>
      </trkpt>
      <trkpt lat="42.1085" lon="9.11628">
        <ele>1264</ele>
        <time>2018-06-11T12:08:37.000Z</time>
      </trkpt>
      <trkpt lat="42.10846" lon="9.11629">
        <ele>1264</ele>
        <time>2018-06-11T12:08:47.000Z</time>
      </trkpt>
      <trkpt lat="42.10842" lon="9.11627">
        <ele>1264</ele>
        <time>2018-06-11T12:08:52.000Z</time>
      </trkpt>
      <trkpt lat="42.10838" lon="9.11626">
        <ele>1264</ele>
        <time>2018-06-11T12:09:02.000Z</time>
      </trkpt>
      <trkpt lat="42.10841" lon="9.11625">
        <ele>1264</ele>
        <time>2018-06-11T12:09:18.000Z</time>
      </trkpt>
      <trkpt lat="42.10841" lon="9.1163">
        <ele>1265</ele>
        <time>2018-06-11T12:09:28.000Z</time>
      </trkpt>
      <trkpt lat="42.10843" lon="9.11638">
        <ele>1267</ele>
        <time>2018-06-11T12:09:37.000Z</time>
      </trkpt>
      <trkpt lat="42.10844" lon="9.11643">
        <ele>1269</ele>
        <time>2018-06-11T12:09:47.000Z</time>
      </trkpt>
      <trkpt lat="42.10847" lon="9.1165">
        <ele>1271</ele>
        <time>2018-06-11T12:09:54.000Z</time>
      </trkpt>
      <trkpt lat="42.10848" lon="9.11654">
        <ele>1272</ele>
        <time>2018-06-11T12:09:59.000Z</time>
      </trkpt>
      <trkpt lat="42.10848" lon="9.11665">
        <ele>1275</ele>
        <time>2018-06-11T12:10:12.000Z</time>
      </trkpt>
      <trkpt lat="42.10838" lon="9.11663">
        <ele>1280</ele>
        <time>2018-06-11T12:10:33.000Z</time>
      </trkpt>
      <trkpt lat="42.10827" lon="9.11661">
        <ele>1285</ele>
        <time>2018-06-11T12:10:52.000Z</time>
      </trkpt>
      <trkpt lat="42.10817" lon="9.11663">
        <ele>1284</ele>
        <time>2018-06-11T12:11:36.000Z</time>
      </trkpt>
      <trkpt lat="42.10808" lon="9.11662">
        <ele>1285</ele>
        <time>2018-06-11T12:11:50.000Z</time>
      </trkpt>
      <trkpt lat="42.10804" lon="9.11662">
        <ele>1285</ele>
        <time>2018-06-11T12:11:58.000Z</time>
      </trkpt>
      <trkpt lat="42.10801" lon="9.1166">
        <ele>1285</ele>
        <time>2018-06-11T12:12:05.000Z</time>
      </trkpt>
      <trkpt lat="42.10792" lon="9.11657">
        <ele>1286</ele>
        <time>2018-06-11T12:12:18.000Z</time>
      </trkpt>
      <trkpt lat="42.10782" lon="9.11658">
        <ele>1289</ele>
        <time>2018-06-11T12:12:37.000Z</time>
      </trkpt>
      <trkpt lat="42.10771" lon="9.11654">
        <ele>1292</ele>
        <time>2018-06-11T12:12:55.000Z</time>
      </trkpt>
      <trkpt lat="42.1076" lon="9.11648">
        <ele>1294</ele>
        <time>2018-06-11T12:13:12.000Z</time>
      </trkpt>
      <trkpt lat="42.10749" lon="9.11644">
        <ele>1302</ele>
        <time>2018-06-11T12:13:27.000Z</time>
      </trkpt>
      <trkpt lat="42.10739" lon="9.11646">
        <ele>1302</ele>
        <time>2018-06-11T12:13:43.000Z</time>
      </trkpt>
      <trkpt lat="42.10729" lon="9.11653">
        <ele>1303</ele>
        <time>2018-06-11T12:14:01.000Z</time>
      </trkpt>
      <trkpt lat="42.10718" lon="9.11653">
        <ele>1303</ele>
        <time>2018-06-11T12:14:21.000Z</time>
      </trkpt>
      <trkpt lat="42.10712" lon="9.11655">
        <ele>1304</ele>
        <time>2018-06-11T12:14:30.000Z</time>
      </trkpt>
      <trkpt lat="42.10709" lon="9.11658">
        <ele>1305</ele>
        <time>2018-06-11T12:14:36.000Z</time>
      </trkpt>
      <trkpt lat="42.10705" lon="9.11659">
        <ele>1305</ele>
        <time>2018-06-11T12:14:44.000Z</time>
      </trkpt>
      <trkpt lat="42.10701" lon="9.11661">
        <ele>1307</ele>
        <time>2018-06-11T12:14:58.000Z</time>
      </trkpt>
      <trkpt lat="42.10692" lon="9.11669">
        <ele>1331</ele>
        <time>2018-06-11T12:15:21.000Z</time>
      </trkpt>
      <trkpt lat="42.10687" lon="9.11671">
        <ele>1331</ele>
        <time>2018-06-11T12:15:29.000Z</time>
      </trkpt>
      <trkpt lat="42.10676" lon="9.11669">
        <ele>1330</ele>
        <time>2018-06-11T12:15:42.000Z</time>
      </trkpt>
      <trkpt lat="42.10671" lon="9.11667">
        <ele>1322</ele>
        <time>2018-06-11T12:15:49.000Z</time>
      </trkpt>
      <trkpt lat="42.10667" lon="9.11666">
        <ele>1326</ele>
        <time>2018-06-11T12:16:05.000Z</time>
      </trkpt>
      <trkpt lat="42.10664" lon="9.11662">
        <ele>1323</ele>
        <time>2018-06-11T12:16:13.000Z</time>
      </trkpt>
      <trkpt lat="42.10654" lon="9.11664">
        <ele>1320</ele>
        <time>2018-06-11T12:16:43.000Z</time>
      </trkpt>
      <trkpt lat="42.10643" lon="9.11667">
        <ele>1337</ele>
        <time>2018-06-11T12:16:55.000Z</time>
      </trkpt>
      <trkpt lat="42.10638" lon="9.11666">
        <ele>1316</ele>
        <time>2018-06-11T12:17:01.000Z</time>
      </trkpt>
      <trkpt lat="42.10629" lon="9.11674">
        <ele>1339</ele>
        <time>2018-06-11T12:17:24.000Z</time>
      </trkpt>
      <trkpt lat="42.10621" lon="9.11684">
        <ele>1341</ele>
        <time>2018-06-11T12:17:45.000Z</time>
      </trkpt>
      <trkpt lat="42.1061" lon="9.11688">
        <ele>1341</ele>
        <time>2018-06-11T12:18:07.000Z</time>
      </trkpt>
      <trkpt lat="42.10601" lon="9.11697">
        <ele>1342</ele>
        <time>2018-06-11T12:18:24.000Z</time>
      </trkpt>
      <trkpt lat="42.10591" lon="9.11701">
        <ele>1343</ele>
        <time>2018-06-11T12:18:40.000Z</time>
      </trkpt>
      <trkpt lat="42.10581" lon="9.11708">
        <ele>1347</ele>
        <time>2018-06-11T12:19:06.000Z</time>
      </trkpt>
      <trkpt lat="42.10577" lon="9.1171">
        <ele>1347</ele>
        <time>2018-06-11T12:19:11.000Z</time>
      </trkpt>
      <trkpt lat="42.10574" lon="9.11712">
        <ele>1348</ele>
        <time>2018-06-11T12:19:16.000Z</time>
      </trkpt>
      <trkpt lat="42.10572" lon="9.11717">
        <ele>1349</ele>
        <time>2018-06-11T12:19:22.000Z</time>
      </trkpt>
      <trkpt lat="42.1057" lon="9.11732">
        <ele>1353</ele>
        <time>2018-06-11T12:19:40.000Z</time>
      </trkpt>
      <trkpt lat="42.10563" lon="9.11743">
        <ele>1354</ele>
        <time>2018-06-11T12:20:04.000Z</time>
      </trkpt>
      <trkpt lat="42.10561" lon="9.11757">
        <ele>1367</ele>
        <time>2018-06-11T12:20:26.000Z</time>
      </trkpt>
      <trkpt lat="42.10552" lon="9.11765">
        <ele>1368</ele>
        <time>2018-06-11T12:20:41.000Z</time>
      </trkpt>
      <trkpt lat="42.10547" lon="9.11778">
        <ele>1369</ele>
        <time>2018-06-11T12:21:01.000Z</time>
      </trkpt>
      <trkpt lat="42.10538" lon="9.11783">
        <ele>1369</ele>
        <time>2018-06-11T12:21:15.000Z</time>
      </trkpt>
      <trkpt lat="42.10528" lon="9.11789">
        <ele>1370</ele>
        <time>2018-06-11T12:21:32.000Z</time>
      </trkpt>
      <trkpt lat="42.10523" lon="9.11801">
        <ele>1371</ele>
        <time>2018-06-11T12:21:55.000Z</time>
      </trkpt>
      <trkpt lat="42.10525" lon="9.11816">
        <ele>1373</ele>
        <time>2018-06-11T12:22:12.000Z</time>
      </trkpt>
      <trkpt lat="42.10515" lon="9.11823">
        <ele>1373</ele>
        <time>2018-06-11T12:22:24.000Z</time>
      </trkpt>
      <trkpt lat="42.10512" lon="9.11829">
        <ele>1374</ele>
        <time>2018-06-11T12:22:32.000Z</time>
      </trkpt>
      <trkpt lat="42.10509" lon="9.11843">
        <ele>1382</ele>
        <time>2018-06-11T12:23:05.000Z</time>
      </trkpt>
      <trkpt lat="42.10507" lon="9.11858">
        <ele>1385</ele>
        <time>2018-06-11T12:23:22.000Z</time>
      </trkpt>
      <trkpt lat="42.10504" lon="9.11868">
        <ele>1387</ele>
        <time>2018-06-11T12:23:34.000Z</time>
      </trkpt>
      <trkpt lat="42.10501" lon="9.11881">
        <ele>1389</ele>
        <time>2018-06-11T12:23:49.000Z</time>
      </trkpt>
      <trkpt lat="42.10496" lon="9.11893">
        <ele>1386</ele>
        <time>2018-06-11T12:24:08.000Z</time>
      </trkpt>
      <trkpt lat="42.1049" lon="9.11893">
        <ele>1386</ele>
        <time>2018-06-11T12:24:12.000Z</time>
      </trkpt>
      <trkpt lat="42.10488" lon="9.119">
        <ele>1387</ele>
        <time>2018-06-11T12:24:20.000Z</time>
      </trkpt>
      <trkpt lat="42.10487" lon="9.11906">
        <ele>1387</ele>
        <time>2018-06-11T12:24:28.000Z</time>
      </trkpt>
      <trkpt lat="42.10484" lon="9.1191">
        <ele>1387</ele>
        <time>2018-06-11T12:24:34.000Z</time>
      </trkpt>
      <trkpt lat="42.10484" lon="9.11919">
        <ele>1396</ele>
        <time>2018-06-11T12:24:43.000Z</time>
      </trkpt>
      <trkpt lat="42.10481" lon="9.11924">
        <ele>1397</ele>
        <time>2018-06-11T12:24:50.000Z</time>
      </trkpt>
      <trkpt lat="42.10492" lon="9.11923">
        <ele>1395</ele>
        <time>2018-06-11T12:26:11.000Z</time>
      </trkpt>
      <trkpt lat="42.10502" lon="9.11928">
        <ele>1399</ele>
        <time>2018-06-11T12:26:34.000Z</time>
      </trkpt>
      <trkpt lat="42.10501" lon="9.11939">
        <ele>1404</ele>
        <time>2018-06-11T12:26:44.000Z</time>
      </trkpt>
      <trkpt lat="42.10499" lon="9.11944">
        <ele>1400</ele>
        <time>2018-06-11T12:26:53.000Z</time>
      </trkpt>
      <trkpt lat="42.10497" lon="9.11946">
        <ele>1400</ele>
        <time>2018-06-11T12:27:00.000Z</time>
      </trkpt>
      <trkpt lat="42.10496" lon="9.11952">
        <ele>1402</ele>
        <time>2018-06-11T12:27:10.000Z</time>
      </trkpt>
      <trkpt lat="42.10504" lon="9.11953">
        <ele>1408</ele>
        <time>2018-06-11T12:27:37.000Z</time>
      </trkpt>
      <trkpt lat="42.10512" lon="9.1195">
        <ele>1409</ele>
        <time>2018-06-11T12:27:57.000Z</time>
      </trkpt>
      <trkpt lat="42.10517" lon="9.11952">
        <ele>1410</ele>
        <time>2018-06-11T12:28:05.000Z</time>
      </trkpt>
      <trkpt lat="42.10521" lon="9.11954">
        <ele>1410</ele>
        <time>2018-06-11T12:28:18.000Z</time>
      </trkpt>
      <trkpt lat="42.10527" lon="9.11956">
        <ele>1412</ele>
        <time>2018-06-11T12:28:37.000Z</time>
      </trkpt>
      <trkpt lat="42.10532" lon="9.11954">
        <ele>1412</ele>
        <time>2018-06-11T12:28:48.000Z</time>
      </trkpt>
      <trkpt lat="42.10533" lon="9.11962">
        <ele>1413</ele>
        <time>2018-06-11T12:28:53.000Z</time>
      </trkpt>
      <trkpt lat="42.10535" lon="9.11967">
        <ele>1414</ele>
        <time>2018-06-11T12:28:59.000Z</time>
      </trkpt>
      <trkpt lat="42.10539" lon="9.11975">
        <ele>1416</ele>
        <time>2018-06-11T12:29:22.000Z</time>
      </trkpt>
      <trkpt lat="42.10538" lon="9.1198">
        <ele>1416</ele>
        <time>2018-06-11T12:29:27.000Z</time>
      </trkpt>
      <trkpt lat="42.10537" lon="9.11984">
        <ele>1416</ele>
        <time>2018-06-11T12:29:34.000Z</time>
      </trkpt>
      <trkpt lat="42.10538" lon="9.11991">
        <ele>1417</ele>
        <time>2018-06-11T12:29:56.000Z</time>
      </trkpt>
      <trkpt lat="42.10538" lon="9.11997">
        <ele>1418</ele>
        <time>2018-06-11T12:30:12.000Z</time>
      </trkpt>
      <trkpt lat="42.1054" lon="9.11999">
        <ele>1418</ele>
        <time>2018-06-11T12:30:31.000Z</time>
      </trkpt>
      <trkpt lat="42.10543" lon="9.12002">
        <ele>1435</ele>
        <time>2018-06-11T12:30:37.000Z</time>
      </trkpt>
      <trkpt lat="42.10547" lon="9.12001">
        <ele>1435</ele>
        <time>2018-06-11T12:30:59.000Z</time>
      </trkpt>
      <trkpt lat="42.10551" lon="9.12001">
        <ele>1436</ele>
        <time>2018-06-11T12:31:20.000Z</time>
      </trkpt>
      <trkpt lat="42.10559" lon="9.12003">
        <ele>1437</ele>
        <time>2018-06-11T12:31:37.000Z</time>
      </trkpt>
      <trkpt lat="42.10561" lon="9.12007">
        <ele>1437</ele>
        <time>2018-06-11T12:31:43.000Z</time>
      </trkpt>
      <trkpt lat="42.10563" lon="9.12011">
        <ele>1438</ele>
        <time>2018-06-11T12:31:51.000Z</time>
      </trkpt>
      <trkpt lat="42.10567" lon="9.12012">
        <ele>1438</ele>
        <time>2018-06-11T12:32:04.000Z</time>
      </trkpt>
      <trkpt lat="42.1057" lon="9.12015">
        <ele>1438</ele>
        <time>2018-06-11T12:32:13.000Z</time>
      </trkpt>
      <trkpt lat="42.10572" lon="9.12018">
        <ele>1439</ele>
        <time>2018-06-11T12:32:24.000Z</time>
      </trkpt>
      <trkpt lat="42.10575" lon="9.12021">
        <ele>1439</ele>
        <time>2018-06-11T12:32:31.000Z</time>
      </trkpt>
      <trkpt lat="42.10579" lon="9.12023">
        <ele>1439</ele>
        <time>2018-06-11T12:32:40.000Z</time>
      </trkpt>
      <trkpt lat="42.10582" lon="9.12024">
        <ele>1440</ele>
        <time>2018-06-11T12:32:53.000Z</time>
      </trkpt>
      <trkpt lat="42.10585" lon="9.12028">
        <ele>1449</ele>
        <time>2018-06-11T12:33:00.000Z</time>
      </trkpt>
      <trkpt lat="42.1059" lon="9.12029">
        <ele>1450</ele>
        <time>2018-06-11T12:33:12.000Z</time>
      </trkpt>
      <trkpt lat="42.10592" lon="9.12029">
        <ele>1450</ele>
        <time>2018-06-11T12:33:22.000Z</time>
      </trkpt>
      <trkpt lat="42.10593" lon="9.12039">
        <ele>1452</ele>
        <time>2018-06-11T12:33:30.000Z</time>
      </trkpt>
      <trkpt lat="42.10592" lon="9.12043">
        <ele>1453</ele>
        <time>2018-06-11T12:33:37.000Z</time>
      </trkpt>
      <trkpt lat="42.10594" lon="9.12047">
        <ele>1454</ele>
        <time>2018-06-11T12:34:16.000Z</time>
      </trkpt>
      <trkpt lat="42.10598" lon="9.12049">
        <ele>1454</ele>
        <time>2018-06-11T12:34:25.000Z</time>
      </trkpt>
      <trkpt lat="42.10602" lon="9.1205">
        <ele>1455</ele>
        <time>2018-06-11T12:34:33.000Z</time>
      </trkpt>
      <trkpt lat="42.10605" lon="9.12053">
        <ele>1455</ele>
        <time>2018-06-11T12:34:42.000Z</time>
      </trkpt>
      <trkpt lat="42.10606" lon="9.12057">
        <ele>1456</ele>
        <time>2018-06-11T12:34:48.000Z</time>
      </trkpt>
      <trkpt lat="42.10609" lon="9.1206">
        <ele>1456</ele>
        <time>2018-06-11T12:35:01.000Z</time>
      </trkpt>
      <trkpt lat="42.10612" lon="9.12062">
        <ele>1457</ele>
        <time>2018-06-11T12:35:10.000Z</time>
      </trkpt>
      <trkpt lat="42.10616" lon="9.12062">
        <ele>1457</ele>
        <time>2018-06-11T12:35:17.000Z</time>
      </trkpt>
      <trkpt lat="42.1062" lon="9.12064">
        <ele>1457</ele>
        <time>2018-06-11T12:35:24.000Z</time>
      </trkpt>
      <trkpt lat="42.10622" lon="9.12069">
        <ele>1458</ele>
        <time>2018-06-11T12:35:31.000Z</time>
      </trkpt>
      <trkpt lat="42.10623" lon="9.12074">
        <ele>1458</ele>
        <time>2018-06-11T12:35:37.000Z</time>
      </trkpt>
      <trkpt lat="42.10626" lon="9.12076">
        <ele>1459</ele>
        <time>2018-06-11T12:35:47.000Z</time>
      </trkpt>
      <trkpt lat="42.1063" lon="9.12076">
        <ele>1459</ele>
        <time>2018-06-11T12:35:55.000Z</time>
      </trkpt>
      <trkpt lat="42.10635" lon="9.12076">
        <ele>1460</ele>
        <time>2018-06-11T12:36:05.000Z</time>
      </trkpt>
      <trkpt lat="42.10634" lon="9.12082">
        <ele>1460</ele>
        <time>2018-06-11T12:36:13.000Z</time>
      </trkpt>
      <trkpt lat="42.10637" lon="9.12085">
        <ele>1472</ele>
        <time>2018-06-11T12:36:23.000Z</time>
      </trkpt>
      <trkpt lat="42.1064" lon="9.12087">
        <ele>1472</ele>
        <time>2018-06-11T12:36:30.000Z</time>
      </trkpt>
      <trkpt lat="42.10642" lon="9.12091">
        <ele>1472</ele>
        <time>2018-06-11T12:36:38.000Z</time>
      </trkpt>
      <trkpt lat="42.10642" lon="9.12097">
        <ele>1473</ele>
        <time>2018-06-11T12:36:48.000Z</time>
      </trkpt>
      <trkpt lat="42.10643" lon="9.12101">
        <ele>1473</ele>
        <time>2018-06-11T12:36:56.000Z</time>
      </trkpt>
      <trkpt lat="42.10643" lon="9.12106">
        <ele>1473</ele>
        <time>2018-06-11T12:37:03.000Z</time>
      </trkpt>
      <trkpt lat="42.10642" lon="9.12111">
        <ele>1474</ele>
        <time>2018-06-11T12:37:10.000Z</time>
      </trkpt>
      <trkpt lat="42.10644" lon="9.12115">
        <ele>1474</ele>
        <time>2018-06-11T12:37:17.000Z</time>
      </trkpt>
      <trkpt lat="42.10647" lon="9.12116">
        <ele>1474</ele>
        <time>2018-06-11T12:37:24.000Z</time>
      </trkpt>
      <trkpt lat="42.1065" lon="9.12119">
        <ele>1474</ele>
        <time>2018-06-11T12:37:32.000Z</time>
      </trkpt>
      <trkpt lat="42.10654" lon="9.12122">
        <ele>1475</ele>
        <time>2018-06-11T12:37:38.000Z</time>
      </trkpt>
      <trkpt lat="42.10654" lon="9.12127">
        <ele>1475</ele>
        <time>2018-06-11T12:37:44.000Z</time>
      </trkpt>
      <trkpt lat="42.10653" lon="9.12132">
        <ele>1476</ele>
        <time>2018-06-11T12:37:50.000Z</time>
      </trkpt>
      <trkpt lat="42.10653" lon="9.12137">
        <ele>1476</ele>
        <time>2018-06-11T12:37:55.000Z</time>
      </trkpt>
      <trkpt lat="42.1065" lon="9.12142">
        <ele>1476</ele>
        <time>2018-06-11T12:38:02.000Z</time>
      </trkpt>
      <trkpt lat="42.10649" lon="9.12145">
        <ele>1477</ele>
        <time>2018-06-11T12:38:06.000Z</time>
      </trkpt>
      <trkpt lat="42.10648" lon="9.1215">
        <ele>1477</ele>
        <time>2018-06-11T12:38:11.000Z</time>
      </trkpt>
      <trkpt lat="42.10649" lon="9.12155">
        <ele>1477</ele>
        <time>2018-06-11T12:38:18.000Z</time>
      </trkpt>
      <trkpt lat="42.10649" lon="9.1216">
        <ele>1478</ele>
        <time>2018-06-11T12:38:24.000Z</time>
      </trkpt>
      <trkpt lat="42.10651" lon="9.12165">
        <ele>1478</ele>
        <time>2018-06-11T12:38:30.000Z</time>
      </trkpt>
      <trkpt lat="42.10652" lon="9.1217">
        <ele>1484</ele>
        <time>2018-06-11T12:38:34.000Z</time>
      </trkpt>
      <trkpt lat="42.10651" lon="9.12175">
        <ele>1484</ele>
        <time>2018-06-11T12:38:39.000Z</time>
      </trkpt>
      <trkpt lat="42.10651" lon="9.12181">
        <ele>1485</ele>
        <time>2018-06-11T12:38:45.000Z</time>
      </trkpt>
      <trkpt lat="42.10651" lon="9.12185">
        <ele>1486</ele>
        <time>2018-06-11T12:38:49.000Z</time>
      </trkpt>
      <trkpt lat="42.10652" lon="9.1219">
        <ele>1486</ele>
        <time>2018-06-11T12:38:54.000Z</time>
      </trkpt>
      <trkpt lat="42.10652" lon="9.12195">
        <ele>1487</ele>
        <time>2018-06-11T12:38:59.000Z</time>
      </trkpt>
      <trkpt lat="42.10652" lon="9.122">
        <ele>1487</ele>
        <time>2018-06-11T12:39:04.000Z</time>
      </trkpt>
      <trkpt lat="42.10651" lon="9.12205">
        <ele>1488</ele>
        <time>2018-06-11T12:39:09.000Z</time>
      </trkpt>
      <trkpt lat="42.10649" lon="9.12209">
        <ele>1488</ele>
        <time>2018-06-11T12:39:14.000Z</time>
      </trkpt>
      <trkpt lat="42.10648" lon="9.12214">
        <ele>1488</ele>
        <time>2018-06-11T12:39:19.000Z</time>
      </trkpt>
      <trkpt lat="42.10648" lon="9.12218">
        <ele>1488</ele>
        <time>2018-06-11T12:39:24.000Z</time>
      </trkpt>
      <trkpt lat="42.10647" lon="9.12224">
        <ele>1489</ele>
        <time>2018-06-11T12:39:29.000Z</time>
      </trkpt>
      <trkpt lat="42.10646" lon="9.12229">
        <ele>1489</ele>
        <time>2018-06-11T12:39:36.000Z</time>
      </trkpt>
      <trkpt lat="42.10645" lon="9.12234">
        <ele>1489</ele>
        <time>2018-06-11T12:39:42.000Z</time>
      </trkpt>
      <trkpt lat="42.10644" lon="9.12239">
        <ele>1489</ele>
        <time>2018-06-11T12:39:48.000Z</time>
      </trkpt>
      <trkpt lat="42.10644" lon="9.12245">
        <ele>1489</ele>
        <time>2018-06-11T12:39:55.000Z</time>
      </trkpt>
      <trkpt lat="42.10643" lon="9.12248">
        <ele>1489</ele>
        <time>2018-06-11T12:40:05.000Z</time>
      </trkpt>
      <trkpt lat="42.10642" lon="9.12253">
        <ele>1496</ele>
        <time>2018-06-11T12:40:13.000Z</time>
      </trkpt>
      <trkpt lat="42.10642" lon="9.12258">
        <ele>1497</ele>
        <time>2018-06-11T12:40:19.000Z</time>
      </trkpt>
      <trkpt lat="42.10641" lon="9.12264">
        <ele>1498</ele>
        <time>2018-06-11T12:40:27.000Z</time>
      </trkpt>
      <trkpt lat="42.10645" lon="9.12272">
        <ele>1498</ele>
        <time>2018-06-11T12:40:37.000Z</time>
      </trkpt>
      <trkpt lat="42.10647" lon="9.12282">
        <ele>1499</ele>
        <time>2018-06-11T12:40:48.000Z</time>
      </trkpt>
      <trkpt lat="42.10645" lon="9.12294">
        <ele>1501</ele>
        <time>2018-06-11T12:41:03.000Z</time>
      </trkpt>
      <trkpt lat="42.10645" lon="9.12299">
        <ele>1501</ele>
        <time>2018-06-11T12:41:08.000Z</time>
      </trkpt>
      <trkpt lat="42.10647" lon="9.1231">
        <ele>1500</ele>
        <time>2018-06-11T12:41:21.000Z</time>
      </trkpt>
      <trkpt lat="42.10648" lon="9.12316">
        <ele>1500</ele>
        <time>2018-06-11T12:41:27.000Z</time>
      </trkpt>
      <trkpt lat="42.10642" lon="9.1232">
        <ele>1501</ele>
        <time>2018-06-11T12:41:33.000Z</time>
      </trkpt>
      <trkpt lat="42.1064" lon="9.12324">
        <ele>1502</ele>
        <time>2018-06-11T12:41:38.000Z</time>
      </trkpt>
      <trkpt lat="42.10641" lon="9.12333">
        <ele>1502</ele>
        <time>2018-06-11T12:41:54.000Z</time>
      </trkpt>
      <trkpt lat="42.1064" lon="9.12348">
        <ele>1512</ele>
        <time>2018-06-11T12:42:17.000Z</time>
      </trkpt>
      <trkpt lat="42.10638" lon="9.12352">
        <ele>1513</ele>
        <time>2018-06-11T12:42:25.000Z</time>
      </trkpt>
      <trkpt lat="42.10637" lon="9.12357">
        <ele>1514</ele>
        <time>2018-06-11T12:42:30.000Z</time>
      </trkpt>
      <trkpt lat="42.10639" lon="9.12362">
        <ele>1514</ele>
        <time>2018-06-11T12:42:37.000Z</time>
      </trkpt>
      <trkpt lat="42.1064" lon="9.12367">
        <ele>1515</ele>
        <time>2018-06-11T12:42:45.000Z</time>
      </trkpt>
      <trkpt lat="42.10641" lon="9.12372">
        <ele>1515</ele>
        <time>2018-06-11T12:42:54.000Z</time>
      </trkpt>
      <trkpt lat="42.10641" lon="9.12377">
        <ele>1516</ele>
        <time>2018-06-11T12:43:02.000Z</time>
      </trkpt>
      <trkpt lat="42.10642" lon="9.12382">
        <ele>1516</ele>
        <time>2018-06-11T12:43:08.000Z</time>
      </trkpt>
      <trkpt lat="42.10641" lon="9.12387">
        <ele>1516</ele>
        <time>2018-06-11T12:43:18.000Z</time>
      </trkpt>
      <trkpt lat="42.10643" lon="9.12392">
        <ele>1516</ele>
        <time>2018-06-11T12:43:25.000Z</time>
      </trkpt>
      <trkpt lat="42.10644" lon="9.12401">
        <ele>1516</ele>
        <time>2018-06-11T12:43:35.000Z</time>
      </trkpt>
      <trkpt lat="42.10646" lon="9.12414">
        <ele>1516</ele>
        <time>2018-06-11T12:43:53.000Z</time>
      </trkpt>
      <trkpt lat="42.10648" lon="9.12426">
        <ele>1525</ele>
        <time>2018-06-11T12:44:07.000Z</time>
      </trkpt>
      <trkpt lat="42.10649" lon="9.1243">
        <ele>1525</ele>
        <time>2018-06-11T12:44:14.000Z</time>
      </trkpt>
      <trkpt lat="42.1065" lon="9.12435">
        <ele>1526</ele>
        <time>2018-06-11T12:44:25.000Z</time>
      </trkpt>
      <trkpt lat="42.10648" lon="9.12439">
        <ele>1528</ele>
        <time>2018-06-11T12:44:33.000Z</time>
      </trkpt>
      <trkpt lat="42.10649" lon="9.12444">
        <ele>1529</ele>
        <time>2018-06-11T12:44:40.000Z</time>
      </trkpt>
      <trkpt lat="42.10651" lon="9.12449">
        <ele>1530</ele>
        <time>2018-06-11T12:44:45.000Z</time>
      </trkpt>
      <trkpt lat="42.10652" lon="9.12453">
        <ele>1530</ele>
        <time>2018-06-11T12:44:50.000Z</time>
      </trkpt>
      <trkpt lat="42.10653" lon="9.12458">
        <ele>1531</ele>
        <time>2018-06-11T12:45:00.000Z</time>
      </trkpt>
      <trkpt lat="42.10654" lon="9.12463">
        <ele>1532</ele>
        <time>2018-06-11T12:45:08.000Z</time>
      </trkpt>
      <trkpt lat="42.10655" lon="9.12467">
        <ele>1532</ele>
        <time>2018-06-11T12:45:12.000Z</time>
      </trkpt>
      <trkpt lat="42.10654" lon="9.12472">
        <ele>1533</ele>
        <time>2018-06-11T12:45:18.000Z</time>
      </trkpt>
      <trkpt lat="42.10653" lon="9.12477">
        <ele>1533</ele>
        <time>2018-06-11T12:45:24.000Z</time>
      </trkpt>
      <trkpt lat="42.10655" lon="9.12481">
        <ele>1533</ele>
        <time>2018-06-11T12:45:30.000Z</time>
      </trkpt>
      <trkpt lat="42.10657" lon="9.12485">
        <ele>1532</ele>
        <time>2018-06-11T12:45:36.000Z</time>
      </trkpt>
      <trkpt lat="42.10659" lon="9.12489">
        <ele>1532</ele>
        <time>2018-06-11T12:45:41.000Z</time>
      </trkpt>
      <trkpt lat="42.10661" lon="9.12494">
        <ele>1531</ele>
        <time>2018-06-11T12:45:49.000Z</time>
      </trkpt>
      <trkpt lat="42.10661" lon="9.12499">
        <ele>1531</ele>
        <time>2018-06-11T12:45:54.000Z</time>
      </trkpt>
      <trkpt lat="42.1066" lon="9.12504">
        <ele>1535</ele>
        <time>2018-06-11T12:45:59.000Z</time>
      </trkpt>
      <trkpt lat="42.10661" lon="9.12509">
        <ele>1536</ele>
        <time>2018-06-11T12:46:06.000Z</time>
      </trkpt>
      <trkpt lat="42.10663" lon="9.12512">
        <ele>1537</ele>
        <time>2018-06-11T12:46:11.000Z</time>
      </trkpt>
      <trkpt lat="42.10663" lon="9.12518">
        <ele>1540</ele>
        <time>2018-06-11T12:46:18.000Z</time>
      </trkpt>
      <trkpt lat="42.10664" lon="9.12523">
        <ele>1541</ele>
        <time>2018-06-11T12:46:25.000Z</time>
      </trkpt>
      <trkpt lat="42.10666" lon="9.12528">
        <ele>1542</ele>
        <time>2018-06-11T12:46:31.000Z</time>
      </trkpt>
      <trkpt lat="42.10667" lon="9.12533">
        <ele>1527</ele>
        <time>2018-06-11T12:46:36.000Z</time>
      </trkpt>
      <trkpt lat="42.10666" lon="9.12538">
        <ele>1544</ele>
        <time>2018-06-11T12:46:44.000Z</time>
      </trkpt>
      <trkpt lat="42.10667" lon="9.12542">
        <ele>1528</ele>
        <time>2018-06-11T12:46:52.000Z</time>
      </trkpt>
      <trkpt lat="42.10669" lon="9.12546">
        <ele>1528</ele>
        <time>2018-06-11T12:46:56.000Z</time>
      </trkpt>
      <trkpt lat="42.10671" lon="9.1255">
        <ele>1529</ele>
        <time>2018-06-11T12:47:00.000Z</time>
      </trkpt>
      <trkpt lat="42.10672" lon="9.12555">
        <ele>1530</ele>
        <time>2018-06-11T12:47:04.000Z</time>
      </trkpt>
      <trkpt lat="42.10673" lon="9.1256">
        <ele>1531</ele>
        <time>2018-06-11T12:47:09.000Z</time>
      </trkpt>
      <trkpt lat="42.10672" lon="9.12565">
        <ele>1533</ele>
        <time>2018-06-11T12:47:16.000Z</time>
      </trkpt>
      <trkpt lat="42.10673" lon="9.1257">
        <ele>1534</ele>
        <time>2018-06-11T12:47:22.000Z</time>
      </trkpt>
      <trkpt lat="42.10673" lon="9.12575">
        <ele>1536</ele>
        <time>2018-06-11T12:47:27.000Z</time>
      </trkpt>
      <trkpt lat="42.10673" lon="9.1258">
        <ele>1538</ele>
        <time>2018-06-11T12:47:33.000Z</time>
      </trkpt>
      <trkpt lat="42.10675" lon="9.12585">
        <ele>1540</ele>
        <time>2018-06-11T12:47:39.000Z</time>
      </trkpt>
      <trkpt lat="42.10676" lon="9.1259">
        <ele>1540</ele>
        <time>2018-06-11T12:47:45.000Z</time>
      </trkpt>
      <trkpt lat="42.10675" lon="9.12595">
        <ele>1539</ele>
        <time>2018-06-11T12:47:50.000Z</time>
      </trkpt>
      <trkpt lat="42.10674" lon="9.126">
        <ele>1539</ele>
        <time>2018-06-11T12:47:55.000Z</time>
      </trkpt>
      <trkpt lat="42.10673" lon="9.12605">
        <ele>1538</ele>
        <time>2018-06-11T12:48:01.000Z</time>
      </trkpt>
      <trkpt lat="42.10673" lon="9.1261">
        <ele>1537</ele>
        <time>2018-06-11T12:48:07.000Z</time>
      </trkpt>
      <trkpt lat="42.10673" lon="9.12615">
        <ele>1537</ele>
        <time>2018-06-11T12:48:13.000Z</time>
      </trkpt>
      <trkpt lat="42.10675" lon="9.1262">
        <ele>1537</ele>
        <time>2018-06-11T12:48:42.000Z</time>
      </trkpt>
      <trkpt lat="42.10679" lon="9.12622">
        <ele>1536</ele>
        <time>2018-06-11T12:48:47.000Z</time>
      </trkpt>
      <trkpt lat="42.10682" lon="9.12621">
        <ele>1536</ele>
        <time>2018-06-11T12:48:52.000Z</time>
      </trkpt>
      <trkpt lat="42.10685" lon="9.12624">
        <ele>1536</ele>
        <time>2018-06-11T12:49:03.000Z</time>
      </trkpt>
      <trkpt lat="42.10689" lon="9.12624">
        <ele>1536</ele>
        <time>2018-06-11T12:49:11.000Z</time>
      </trkpt>
      <trkpt lat="42.10685" lon="9.12625">
        <ele>1536</ele>
        <time>2018-06-11T12:50:15.000Z</time>
      </trkpt>
      <trkpt lat="42.10688" lon="9.12628">
        <ele>1536</ele>
        <time>2018-06-11T12:50:32.000Z</time>
      </trkpt>
      <trkpt lat="42.10692" lon="9.12627">
        <ele>1536</ele>
        <time>2018-06-11T12:52:55.000Z</time>
      </trkpt>
      <trkpt lat="42.10689" lon="9.12626">
        <ele>1536</ele>
        <time>2018-06-11T12:53:08.000Z</time>
      </trkpt>
      <trkpt lat="42.10685" lon="9.12625">
        <ele>1536</ele>
        <time>2018-06-11T12:53:12.000Z</time>
      </trkpt>
      <trkpt lat="42.10681" lon="9.12626">
        <ele>1536</ele>
        <time>2018-06-11T12:53:16.000Z</time>
      </trkpt>
      <trkpt lat="42.10677" lon="9.12628">
        <ele>1536</ele>
        <time>2018-06-11T12:53:20.000Z</time>
      </trkpt>
      <trkpt lat="42.10674" lon="9.1263">
        <ele>1536</ele>
        <time>2018-06-11T12:53:24.000Z</time>
      </trkpt>
      <trkpt lat="42.1067" lon="9.12631">
        <ele>1536</ele>
        <time>2018-06-11T12:53:29.000Z</time>
      </trkpt>
      <trkpt lat="42.10671" lon="9.12636">
        <ele>1536</ele>
        <time>2018-06-11T12:54:01.000Z</time>
      </trkpt>
      <trkpt lat="42.10674" lon="9.1264">
        <ele>1536</ele>
        <time>2018-06-11T12:54:07.000Z</time>
      </trkpt>
      <trkpt lat="42.10676" lon="9.12643">
        <ele>1536</ele>
        <time>2018-06-11T12:54:12.000Z</time>
      </trkpt>
      <trkpt lat="42.10679" lon="9.12646">
        <ele>1536</ele>
        <time>2018-06-11T12:54:18.000Z</time>
      </trkpt>
      <trkpt lat="42.1068" lon="9.12651">
        <ele>1536</ele>
        <time>2018-06-11T12:54:24.000Z</time>
      </trkpt>
      <trkpt lat="42.10676" lon="9.12653">
        <ele>1536</ele>
        <time>2018-06-11T12:54:29.000Z</time>
      </trkpt>
      <trkpt lat="42.10673" lon="9.12656">
        <ele>1536</ele>
        <time>2018-06-11T12:54:34.000Z</time>
      </trkpt>
      <trkpt lat="42.10671" lon="9.12661">
        <ele>1536</ele>
        <time>2018-06-11T12:54:41.000Z</time>
      </trkpt>
      <trkpt lat="42.10668" lon="9.12664">
        <ele>1536</ele>
        <time>2018-06-11T12:54:48.000Z</time>
      </trkpt>
      <trkpt lat="42.10664" lon="9.12666">
        <ele>1537</ele>
        <time>2018-06-11T12:54:51.000Z</time>
      </trkpt>
      <trkpt lat="42.10661" lon="9.12668">
        <ele>1533</ele>
        <time>2018-06-11T12:54:55.000Z</time>
      </trkpt>
      <trkpt lat="42.10662" lon="9.12672">
        <ele>1532</ele>
        <time>2018-06-11T12:55:07.000Z</time>
      </trkpt>
      <trkpt lat="42.1066" lon="9.12677">
        <ele>1531</ele>
        <time>2018-06-11T12:55:17.000Z</time>
      </trkpt>
      <trkpt lat="42.10661" lon="9.1268">
        <ele>1530</ele>
        <time>2018-06-11T12:55:24.000Z</time>
      </trkpt>
      <trkpt lat="42.10658" lon="9.12684">
        <ele>1528</ele>
        <time>2018-06-11T12:55:38.000Z</time>
      </trkpt>
      <trkpt lat="42.10657" lon="9.12689">
        <ele>1527</ele>
        <time>2018-06-11T12:56:07.000Z</time>
      </trkpt>
      <trkpt lat="42.10655" lon="9.12692">
        <ele>1526</ele>
        <time>2018-06-11T12:56:15.000Z</time>
      </trkpt>
      <trkpt lat="42.10665" lon="9.12696">
        <ele>1525</ele>
        <time>2018-06-11T12:56:35.000Z</time>
      </trkpt>
      <trkpt lat="42.10667" lon="9.12711">
        <ele>1526</ele>
        <time>2018-06-11T12:56:54.000Z</time>
      </trkpt>
      <trkpt lat="42.1066" lon="9.12721">
        <ele>1520</ele>
        <time>2018-06-11T12:57:02.000Z</time>
      </trkpt>
      <trkpt lat="42.10655" lon="9.12724">
        <ele>1520</ele>
        <time>2018-06-11T12:57:06.000Z</time>
      </trkpt>
      <trkpt lat="42.10651" lon="9.12726">
        <ele>1519</ele>
        <time>2018-06-11T12:57:12.000Z</time>
      </trkpt>
      <trkpt lat="42.10647" lon="9.12727">
        <ele>1519</ele>
        <time>2018-06-11T12:57:19.000Z</time>
      </trkpt>
      <trkpt lat="42.10643" lon="9.12727">
        <ele>1519</ele>
        <time>2018-06-11T12:57:25.000Z</time>
      </trkpt>
      <trkpt lat="42.10639" lon="9.12727">
        <ele>1519</ele>
        <time>2018-06-11T12:57:28.000Z</time>
      </trkpt>
      <trkpt lat="42.10635" lon="9.12728">
        <ele>1519</ele>
        <time>2018-06-11T12:57:31.000Z</time>
      </trkpt>
      <trkpt lat="42.10631" lon="9.12727">
        <ele>1519</ele>
        <time>2018-06-11T12:57:35.000Z</time>
      </trkpt>
      <trkpt lat="42.10628" lon="9.12728">
        <ele>1519</ele>
        <time>2018-06-11T12:57:42.000Z</time>
      </trkpt>
      <trkpt lat="42.10623" lon="9.12728">
        <ele>1518</ele>
        <time>2018-06-11T12:57:46.000Z</time>
      </trkpt>
      <trkpt lat="42.10619" lon="9.12724">
        <ele>1519</ele>
        <time>2018-06-11T12:57:48.000Z</time>
      </trkpt>
      <trkpt lat="42.10612" lon="9.12722">
        <ele>1518</ele>
        <time>2018-06-11T12:57:54.000Z</time>
      </trkpt>
      <trkpt lat="42.10609" lon="9.12723">
        <ele>1518</ele>
        <time>2018-06-11T12:57:57.000Z</time>
      </trkpt>
      <trkpt lat="42.10605" lon="9.12728">
        <ele>1516</ele>
        <time>2018-06-11T12:58:05.000Z</time>
      </trkpt>
      <trkpt lat="42.10602" lon="9.12729">
        <ele>1516</ele>
        <time>2018-06-11T12:58:09.000Z</time>
      </trkpt>
      <trkpt lat="42.10598" lon="9.12731">
        <ele>1515</ele>
        <time>2018-06-11T12:58:14.000Z</time>
      </trkpt>
      <trkpt lat="42.10595" lon="9.12734">
        <ele>1513</ele>
        <time>2018-06-11T12:58:18.000Z</time>
      </trkpt>
      <trkpt lat="42.1059" lon="9.12735">
        <ele>1512</ele>
        <time>2018-06-11T12:58:23.000Z</time>
      </trkpt>
      <trkpt lat="42.10586" lon="9.12732">
        <ele>1512</ele>
        <time>2018-06-11T12:58:27.000Z</time>
      </trkpt>
      <trkpt lat="42.10583" lon="9.12729">
        <ele>1512</ele>
        <time>2018-06-11T12:58:30.000Z</time>
      </trkpt>
      <trkpt lat="42.10579" lon="9.12729">
        <ele>1512</ele>
        <time>2018-06-11T12:58:37.000Z</time>
      </trkpt>
      <trkpt lat="42.10571" lon="9.1273">
        <ele>1512</ele>
        <time>2018-06-11T12:58:49.000Z</time>
      </trkpt>
      <trkpt lat="42.10576" lon="9.12733">
        <ele>1511</ele>
        <time>2018-06-11T12:59:08.000Z</time>
      </trkpt>
      <trkpt lat="42.10577" lon="9.12741">
        <ele>1508</ele>
        <time>2018-06-11T12:59:22.000Z</time>
      </trkpt>
      <trkpt lat="42.10571" lon="9.12754">
        <ele>1497</ele>
        <time>2018-06-11T13:00:27.000Z</time>
      </trkpt>
      <trkpt lat="42.1057" lon="9.12759">
        <ele>1496</ele>
        <time>2018-06-11T13:00:31.000Z</time>
      </trkpt>
      <trkpt lat="42.10569" lon="9.12763">
        <ele>1495</ele>
        <time>2018-06-11T13:00:39.000Z</time>
      </trkpt>
      <trkpt lat="42.10577" lon="9.12765">
        <ele>1495</ele>
        <time>2018-06-11T13:01:00.000Z</time>
      </trkpt>
      <trkpt lat="42.10586" lon="9.12765">
        <ele>1497</ele>
        <time>2018-06-11T13:01:13.000Z</time>
      </trkpt>
      <trkpt lat="42.10596" lon="9.12769">
        <ele>1495</ele>
        <time>2018-06-11T13:01:26.000Z</time>
      </trkpt>
      <trkpt lat="42.10606" lon="9.12774">
        <ele>1494</ele>
        <time>2018-06-11T13:01:35.000Z</time>
      </trkpt>
      <trkpt lat="42.1061" lon="9.12779">
        <ele>1493</ele>
        <time>2018-06-11T13:01:41.000Z</time>
      </trkpt>
      <trkpt lat="42.10611" lon="9.12785">
        <ele>1492</ele>
        <time>2018-06-11T13:01:49.000Z</time>
      </trkpt>
      <trkpt lat="42.1061" lon="9.12789">
        <ele>1491</ele>
        <time>2018-06-11T13:01:59.000Z</time>
      </trkpt>
      <trkpt lat="42.10613" lon="9.12803">
        <ele>1488</ele>
        <time>2018-06-11T13:02:11.000Z</time>
      </trkpt>
      <trkpt lat="42.10617" lon="9.12818">
        <ele>1486</ele>
        <time>2018-06-11T13:02:34.000Z</time>
      </trkpt>
      <trkpt lat="42.10615" lon="9.12822">
        <ele>1485</ele>
        <time>2018-06-11T13:02:36.000Z</time>
      </trkpt>
      <trkpt lat="42.1061" lon="9.1283">
        <ele>1483</ele>
        <time>2018-06-11T13:02:42.000Z</time>
      </trkpt>
      <trkpt lat="42.10606" lon="9.12831">
        <ele>1481</ele>
        <time>2018-06-11T13:02:49.000Z</time>
      </trkpt>
      <trkpt lat="42.10601" lon="9.12834">
        <ele>1464</ele>
        <time>2018-06-11T13:02:53.000Z</time>
      </trkpt>
      <trkpt lat="42.10589" lon="9.12829">
        <ele>1475</ele>
        <time>2018-06-11T13:03:04.000Z</time>
      </trkpt>
      <trkpt lat="42.10586" lon="9.12828">
        <ele>1474</ele>
        <time>2018-06-11T13:03:09.000Z</time>
      </trkpt>
      <trkpt lat="42.10577" lon="9.12817">
        <ele>1479</ele>
        <time>2018-06-11T13:03:16.000Z</time>
      </trkpt>
      <trkpt lat="42.10574" lon="9.12818">
        <ele>1480</ele>
        <time>2018-06-11T13:03:23.000Z</time>
      </trkpt>
      <trkpt lat="42.10571" lon="9.12822">
        <ele>1479</ele>
        <time>2018-06-11T13:03:33.000Z</time>
      </trkpt>
      <trkpt lat="42.10568" lon="9.12826">
        <ele>1479</ele>
        <time>2018-06-11T13:03:39.000Z</time>
      </trkpt>
      <trkpt lat="42.10565" lon="9.12828">
        <ele>1479</ele>
        <time>2018-06-11T13:03:43.000Z</time>
      </trkpt>
      <trkpt lat="42.10567" lon="9.12824">
        <ele>1479</ele>
        <time>2018-06-11T13:03:53.000Z</time>
      </trkpt>
      <trkpt lat="42.10578" lon="9.12823">
        <ele>1476</ele>
        <time>2018-06-11T13:04:06.000Z</time>
      </trkpt>
      <trkpt lat="42.1058" lon="9.12831">
        <ele>1472</ele>
        <time>2018-06-11T13:04:13.000Z</time>
      </trkpt>
      <trkpt lat="42.10577" lon="9.12836">
        <ele>1466</ele>
        <time>2018-06-11T13:04:18.000Z</time>
      </trkpt>
      <trkpt lat="42.10567" lon="9.1284">
        <ele>1464</ele>
        <time>2018-06-11T13:04:29.000Z</time>
      </trkpt>
      <trkpt lat="42.10577" lon="9.12837">
        <ele>1466</ele>
        <time>2018-06-11T13:04:51.000Z</time>
      </trkpt>
      <trkpt lat="42.10579" lon="9.12845">
        <ele>1464</ele>
        <time>2018-06-11T13:05:01.000Z</time>
      </trkpt>
      <trkpt lat="42.10585" lon="9.12856">
        <ele>1460</ele>
        <time>2018-06-11T13:05:18.000Z</time>
      </trkpt>
      <trkpt lat="42.10587" lon="9.1287">
        <ele>1456</ele>
        <time>2018-06-11T13:05:31.000Z</time>
      </trkpt>
      <trkpt lat="42.10589" lon="9.12875">
        <ele>1454</ele>
        <time>2018-06-11T13:05:36.000Z</time>
      </trkpt>
      <trkpt lat="42.10591" lon="9.12879">
        <ele>1453</ele>
        <time>2018-06-11T13:05:41.000Z</time>
      </trkpt>
      <trkpt lat="42.1059" lon="9.12885">
        <ele>1451</ele>
        <time>2018-06-11T13:05:46.000Z</time>
      </trkpt>
      <trkpt lat="42.10589" lon="9.12894">
        <ele>1447</ele>
        <time>2018-06-11T13:05:55.000Z</time>
      </trkpt>
      <trkpt lat="42.10584" lon="9.12908">
        <ele>1439</ele>
        <time>2018-06-11T13:06:09.000Z</time>
      </trkpt>
      <trkpt lat="42.10574" lon="9.12911">
        <ele>1441</ele>
        <time>2018-06-11T13:06:18.000Z</time>
      </trkpt>
      <trkpt lat="42.10563" lon="9.12911">
        <ele>1446</ele>
        <time>2018-06-11T13:06:34.000Z</time>
      </trkpt>
      <trkpt lat="42.1056" lon="9.12907">
        <ele>1448</ele>
        <time>2018-06-11T13:06:48.000Z</time>
      </trkpt>
      <trkpt lat="42.10556" lon="9.12909">
        <ele>1449</ele>
        <time>2018-06-11T13:06:57.000Z</time>
      </trkpt>
      <trkpt lat="42.10557" lon="9.12909">
        <ele>1448</ele>
        <time>2018-06-11T13:07:18.000Z</time>
      </trkpt>
      <trkpt lat="42.10568" lon="9.12914">
        <ele>1443</ele>
        <time>2018-06-11T13:07:33.000Z</time>
      </trkpt>
      <trkpt lat="42.1057" lon="9.12927">
        <ele>1432</ele>
        <time>2018-06-11T13:07:53.000Z</time>
      </trkpt>
      <trkpt lat="42.10574" lon="9.12941">
        <ele>1431</ele>
        <time>2018-06-11T13:08:10.000Z</time>
      </trkpt>
      <trkpt lat="42.10576" lon="9.12947">
        <ele>1430</ele>
        <time>2018-06-11T13:08:19.000Z</time>
      </trkpt>
      <trkpt lat="42.10578" lon="9.12951">
        <ele>1429</ele>
        <time>2018-06-11T13:08:25.000Z</time>
      </trkpt>
      <trkpt lat="42.10579" lon="9.12956">
        <ele>1428</ele>
        <time>2018-06-11T13:08:29.000Z</time>
      </trkpt>
      <trkpt lat="42.10583" lon="9.12959">
        <ele>1428</ele>
        <time>2018-06-11T13:08:32.000Z</time>
      </trkpt>
      <trkpt lat="42.10584" lon="9.12964">
        <ele>1422</ele>
        <time>2018-06-11T13:08:38.000Z</time>
      </trkpt>
      <trkpt lat="42.10582" lon="9.12978">
        <ele>1422</ele>
        <time>2018-06-11T13:08:55.000Z</time>
      </trkpt>
      <trkpt lat="42.10588" lon="9.1299">
        <ele>1415</ele>
        <time>2018-06-11T13:09:17.000Z</time>
      </trkpt>
      <trkpt lat="42.10599" lon="9.12993">
        <ele>1417</ele>
        <time>2018-06-11T13:09:30.000Z</time>
      </trkpt>
      <trkpt lat="42.1061" lon="9.12992">
        <ele>1420</ele>
        <time>2018-06-11T13:09:41.000Z</time>
      </trkpt>
      <trkpt lat="42.1062" lon="9.12998">
        <ele>1420</ele>
        <time>2018-06-11T13:09:55.000Z</time>
      </trkpt>
      <trkpt lat="42.10629" lon="9.13008">
        <ele>1409</ele>
        <time>2018-06-11T13:10:10.000Z</time>
      </trkpt>
      <trkpt lat="42.1064" lon="9.13005">
        <ele>1410</ele>
        <time>2018-06-11T13:10:35.000Z</time>
      </trkpt>
      <trkpt lat="42.10645" lon="9.13005">
        <ele>1411</ele>
        <time>2018-06-11T13:10:41.000Z</time>
      </trkpt>
      <trkpt lat="42.10653" lon="9.13015">
        <ele>1411</ele>
        <time>2018-06-11T13:10:48.000Z</time>
      </trkpt>
      <trkpt lat="42.10665" lon="9.13018">
        <ele>1411</ele>
        <time>2018-06-11T13:10:57.000Z</time>
      </trkpt>
      <trkpt lat="42.10675" lon="9.13023">
        <ele>1414</ele>
        <time>2018-06-11T13:11:03.000Z</time>
      </trkpt>
      <trkpt lat="42.10683" lon="9.13033">
        <ele>1412</ele>
        <time>2018-06-11T13:11:15.000Z</time>
      </trkpt>
      <trkpt lat="42.10682" lon="9.13048">
        <ele>1410</ele>
        <time>2018-06-11T13:11:23.000Z</time>
      </trkpt>
      <trkpt lat="42.10691" lon="9.13058">
        <ele>1409</ele>
        <time>2018-06-11T13:11:50.000Z</time>
      </trkpt>
      <trkpt lat="42.10698" lon="9.1307">
        <ele>1408</ele>
        <time>2018-06-11T13:12:04.000Z</time>
      </trkpt>
      <trkpt lat="42.10705" lon="9.13081">
        <ele>1408</ele>
        <time>2018-06-11T13:12:13.000Z</time>
      </trkpt>
      <trkpt lat="42.10701" lon="9.13089">
        <ele>1396</ele>
        <time>2018-06-11T13:12:17.000Z</time>
      </trkpt>
      <trkpt lat="42.10701" lon="9.13094">
        <ele>1395</ele>
        <time>2018-06-11T13:12:22.000Z</time>
      </trkpt>
      <trkpt lat="42.10703" lon="9.13101">
        <ele>1395</ele>
        <time>2018-06-11T13:12:27.000Z</time>
      </trkpt>
      <trkpt lat="42.1071" lon="9.13107">
        <ele>1395</ele>
        <time>2018-06-11T13:12:33.000Z</time>
      </trkpt>
      <trkpt lat="42.10712" lon="9.13111">
        <ele>1394</ele>
        <time>2018-06-11T13:12:36.000Z</time>
      </trkpt>
      <trkpt lat="42.10714" lon="9.13121">
        <ele>1393</ele>
        <time>2018-06-11T13:12:50.000Z</time>
      </trkpt>
      <trkpt lat="42.10703" lon="9.13123">
        <ele>1393</ele>
        <time>2018-06-11T13:13:15.000Z</time>
      </trkpt>
      <trkpt lat="42.10708" lon="9.1312">
        <ele>1393</ele>
        <time>2018-06-11T13:13:28.000Z</time>
      </trkpt>
      <trkpt lat="42.10706" lon="9.1311">
        <ele>1394</ele>
        <time>2018-06-11T13:13:35.000Z</time>
      </trkpt>
      <trkpt lat="42.10704" lon="9.13112">
        <ele>1394</ele>
        <time>2018-06-11T13:14:01.000Z</time>
      </trkpt>
      <trkpt lat="42.10701" lon="9.13111">
        <ele>1394</ele>
        <time>2018-06-11T13:15:46.000Z</time>
      </trkpt>
      <trkpt lat="42.10697" lon="9.13114">
        <ele>1393</ele>
        <time>2018-06-11T13:15:51.000Z</time>
      </trkpt>
      <trkpt lat="42.10693" lon="9.13113">
        <ele>1394</ele>
        <time>2018-06-11T13:16:07.000Z</time>
      </trkpt>
      <trkpt lat="42.10704" lon="9.13106">
        <ele>1394</ele>
        <time>2018-06-11T13:16:30.000Z</time>
      </trkpt>
      <trkpt lat="42.10709" lon="9.13104">
        <ele>1395</ele>
        <time>2018-06-11T13:16:45.000Z</time>
      </trkpt>
      <trkpt lat="42.1071" lon="9.13111">
        <ele>1394</ele>
        <time>2018-06-11T13:17:31.000Z</time>
      </trkpt>
      <trkpt lat="42.10718" lon="9.13101">
        <ele>1396</ele>
        <time>2018-06-11T13:18:24.000Z</time>
      </trkpt>
      <trkpt lat="42.10729" lon="9.13094">
        <ele>1398</ele>
        <time>2018-06-11T13:18:42.000Z</time>
      </trkpt>
      <trkpt lat="42.10738" lon="9.13084">
        <ele>1401</ele>
        <time>2018-06-11T13:18:48.000Z</time>
      </trkpt>
      <trkpt lat="42.10749" lon="9.13085">
        <ele>1405</ele>
        <time>2018-06-11T13:18:59.000Z</time>
      </trkpt>
      <trkpt lat="42.1076" lon="9.13082">
        <ele>1411</ele>
        <time>2018-06-11T13:19:13.000Z</time>
      </trkpt>
      <trkpt lat="42.10771" lon="9.13081">
        <ele>1415</ele>
        <time>2018-06-11T13:19:23.000Z</time>
      </trkpt>
      <trkpt lat="42.10782" lon="9.13087">
        <ele>1401</ele>
        <time>2018-06-11T13:19:29.000Z</time>
      </trkpt>
      <trkpt lat="42.10793" lon="9.1309">
        <ele>1402</ele>
        <time>2018-06-11T13:19:40.000Z</time>
      </trkpt>
      <trkpt lat="42.10802" lon="9.13098">
        <ele>1402</ele>
        <time>2018-06-11T13:19:54.000Z</time>
      </trkpt>
      <trkpt lat="42.10812" lon="9.13107">
        <ele>1401</ele>
        <time>2018-06-11T13:20:04.000Z</time>
      </trkpt>
      <trkpt lat="42.10821" lon="9.13116">
        <ele>1400</ele>
        <time>2018-06-11T13:20:11.000Z</time>
      </trkpt>
      <trkpt lat="42.10831" lon="9.13123">
        <ele>1399</ele>
        <time>2018-06-11T13:20:21.000Z</time>
      </trkpt>
      <trkpt lat="42.1084" lon="9.13132">
        <ele>1402</ele>
        <time>2018-06-11T13:20:31.000Z</time>
      </trkpt>
      <trkpt lat="42.10847" lon="9.13144">
        <ele>1399</ele>
        <time>2018-06-11T13:20:41.000Z</time>
      </trkpt>
      <trkpt lat="42.10854" lon="9.13156">
        <ele>1397</ele>
        <time>2018-06-11T13:20:52.000Z</time>
      </trkpt>
      <trkpt lat="42.10843" lon="9.13156">
        <ele>1394</ele>
        <time>2018-06-11T13:21:08.000Z</time>
      </trkpt>
      <trkpt lat="42.10831" lon="9.13158">
        <ele>1390</ele>
        <time>2018-06-11T13:21:16.000Z</time>
      </trkpt>
      <trkpt lat="42.1082" lon="9.13158">
        <ele>1391</ele>
        <time>2018-06-11T13:21:26.000Z</time>
      </trkpt>
      <trkpt lat="42.10808" lon="9.13156">
        <ele>1393</ele>
        <time>2018-06-11T13:21:39.000Z</time>
      </trkpt>
      <trkpt lat="42.10798" lon="9.13148">
        <ele>1394</ele>
        <time>2018-06-11T13:21:49.000Z</time>
      </trkpt>
      <trkpt lat="42.10787" lon="9.13144">
        <ele>1394</ele>
        <time>2018-06-11T13:21:59.000Z</time>
      </trkpt>
      <trkpt lat="42.10776" lon="9.13141">
        <ele>1394</ele>
        <time>2018-06-11T13:22:08.000Z</time>
      </trkpt>
      <trkpt lat="42.10785" lon="9.13133">
        <ele>1395</ele>
        <time>2018-06-11T13:22:22.000Z</time>
      </trkpt>
      <trkpt lat="42.10796" lon="9.13136">
        <ele>1395</ele>
        <time>2018-06-11T13:22:38.000Z</time>
      </trkpt>
      <trkpt lat="42.10797" lon="9.13151">
        <ele>1393</ele>
        <time>2018-06-11T13:22:51.000Z</time>
      </trkpt>
      <trkpt lat="42.10808" lon="9.13153">
        <ele>1393</ele>
        <time>2018-06-11T13:23:04.000Z</time>
      </trkpt>
      <trkpt lat="42.10818" lon="9.13159">
        <ele>1391</ele>
        <time>2018-06-11T13:23:19.000Z</time>
      </trkpt>
      <trkpt lat="42.10826" lon="9.13172">
        <ele>1381</ele>
        <time>2018-06-11T13:23:29.000Z</time>
      </trkpt>
      <trkpt lat="42.10833" lon="9.13184">
        <ele>1378</ele>
        <time>2018-06-11T13:23:41.000Z</time>
      </trkpt>
      <trkpt lat="42.10842" lon="9.13192">
        <ele>1378</ele>
        <time>2018-06-11T13:23:54.000Z</time>
      </trkpt>
      <trkpt lat="42.10847" lon="9.13205">
        <ele>1375</ele>
        <time>2018-06-11T13:24:03.000Z</time>
      </trkpt>
      <trkpt lat="42.10856" lon="9.13215">
        <ele>1373</ele>
        <time>2018-06-11T13:24:12.000Z</time>
      </trkpt>
      <trkpt lat="42.10867" lon="9.13215">
        <ele>1373</ele>
        <time>2018-06-11T13:24:23.000Z</time>
      </trkpt>
      <trkpt lat="42.10878" lon="9.13215">
        <ele>1374</ele>
        <time>2018-06-11T13:24:33.000Z</time>
      </trkpt>
      <trkpt lat="42.10889" lon="9.1322">
        <ele>1373</ele>
        <time>2018-06-11T13:24:50.000Z</time>
      </trkpt>
      <trkpt lat="42.10899" lon="9.13226">
        <ele>1371</ele>
        <time>2018-06-11T13:25:00.000Z</time>
      </trkpt>
      <trkpt lat="42.10903" lon="9.1324">
        <ele>1367</ele>
        <time>2018-06-11T13:25:07.000Z</time>
      </trkpt>
      <trkpt lat="42.10896" lon="9.13252">
        <ele>1350</ele>
        <time>2018-06-11T13:25:22.000Z</time>
      </trkpt>
      <trkpt lat="42.10885" lon="9.13257">
        <ele>1347</ele>
        <time>2018-06-11T13:25:39.000Z</time>
      </trkpt>
      <trkpt lat="42.10877" lon="9.13267">
        <ele>1345</ele>
        <time>2018-06-11T13:25:48.000Z</time>
      </trkpt>
      <trkpt lat="42.10866" lon="9.13273">
        <ele>1344</ele>
        <time>2018-06-11T13:25:58.000Z</time>
      </trkpt>
      <trkpt lat="42.10856" lon="9.13273">
        <ele>1345</ele>
        <time>2018-06-11T13:26:07.000Z</time>
      </trkpt>
      <trkpt lat="42.10844" lon="9.13269">
        <ele>1347</ele>
        <time>2018-06-11T13:26:15.000Z</time>
      </trkpt>
      <trkpt lat="42.10833" lon="9.13272">
        <ele>1347</ele>
        <time>2018-06-11T13:26:26.000Z</time>
      </trkpt>
      <trkpt lat="42.10822" lon="9.13278">
        <ele>1345</ele>
        <time>2018-06-11T13:26:34.000Z</time>
      </trkpt>
      <trkpt lat="42.10811" lon="9.13281">
        <ele>1344</ele>
        <time>2018-06-11T13:26:44.000Z</time>
      </trkpt>
      <trkpt lat="42.10799" lon="9.1328">
        <ele>1344</ele>
        <time>2018-06-11T13:26:55.000Z</time>
      </trkpt>
      <trkpt lat="42.10789" lon="9.13279">
        <ele>1344</ele>
        <time>2018-06-11T13:27:05.000Z</time>
      </trkpt>
      <trkpt lat="42.10795" lon="9.13266">
        <ele>1346</ele>
        <time>2018-06-11T13:27:22.000Z</time>
      </trkpt>
      <trkpt lat="42.10803" lon="9.13277">
        <ele>1344</ele>
        <time>2018-06-11T13:27:38.000Z</time>
      </trkpt>
      <trkpt lat="42.10813" lon="9.13283">
        <ele>1343</ele>
        <time>2018-06-11T13:27:54.000Z</time>
      </trkpt>
      <trkpt lat="42.10825" lon="9.13289">
        <ele>1342</ele>
        <time>2018-06-11T13:28:08.000Z</time>
      </trkpt>
      <trkpt lat="42.10836" lon="9.13288">
        <ele>1341</ele>
        <time>2018-06-11T13:28:17.000Z</time>
      </trkpt>
      <trkpt lat="42.10847" lon="9.13285">
        <ele>1342</ele>
        <time>2018-06-11T13:28:25.000Z</time>
      </trkpt>
      <trkpt lat="42.10858" lon="9.13288">
        <ele>1341</ele>
        <time>2018-06-11T13:28:39.000Z</time>
      </trkpt>
      <trkpt lat="42.10866" lon="9.13299">
        <ele>1338</ele>
        <time>2018-06-11T13:28:46.000Z</time>
      </trkpt>
      <trkpt lat="42.10877" lon="9.133">
        <ele>1338</ele>
        <time>2018-06-11T13:28:56.000Z</time>
      </trkpt>
      <trkpt lat="42.10887" lon="9.13307">
        <ele>1336</ele>
        <time>2018-06-11T13:29:06.000Z</time>
      </trkpt>
      <trkpt lat="42.10897" lon="9.13314">
        <ele>1333</ele>
        <time>2018-06-11T13:29:19.000Z</time>
      </trkpt>
      <trkpt lat="42.10892" lon="9.13327">
        <ele>1331</ele>
        <time>2018-06-11T13:29:33.000Z</time>
      </trkpt>
      <trkpt lat="42.10882" lon="9.13329">
        <ele>1333</ele>
        <time>2018-06-11T13:29:41.000Z</time>
      </trkpt>
      <trkpt lat="42.10873" lon="9.13337">
        <ele>1311</ele>
        <time>2018-06-11T13:30:12.000Z</time>
      </trkpt>
      <trkpt lat="42.10862" lon="9.13342">
        <ele>1312</ele>
        <time>2018-06-11T13:30:23.000Z</time>
      </trkpt>
      <trkpt lat="42.10873" lon="9.13336">
        <ele>1311</ele>
        <time>2018-06-11T13:30:50.000Z</time>
      </trkpt>
      <trkpt lat="42.10884" lon="9.13341">
        <ele>1311</ele>
        <time>2018-06-11T13:31:05.000Z</time>
      </trkpt>
      <trkpt lat="42.10894" lon="9.13346">
        <ele>1311</ele>
        <time>2018-06-11T13:31:23.000Z</time>
      </trkpt>
      <trkpt lat="42.10904" lon="9.13337">
        <ele>1314</ele>
        <time>2018-06-11T13:31:33.000Z</time>
      </trkpt>
      <trkpt lat="42.10912" lon="9.13349">
        <ele>1312</ele>
        <time>2018-06-11T13:31:51.000Z</time>
      </trkpt>
      <trkpt lat="42.10922" lon="9.13358">
        <ele>1309</ele>
        <time>2018-06-11T13:32:07.000Z</time>
      </trkpt>
      <trkpt lat="42.10924" lon="9.13373">
        <ele>1305</ele>
        <time>2018-06-11T13:32:21.000Z</time>
      </trkpt>
      <trkpt lat="42.10914" lon="9.1338">
        <ele>1303</ele>
        <time>2018-06-11T13:32:36.000Z</time>
      </trkpt>
      <trkpt lat="42.10904" lon="9.13387">
        <ele>1302</ele>
        <time>2018-06-11T13:32:46.000Z</time>
      </trkpt>
      <trkpt lat="42.10901" lon="9.13391">
        <ele>1301</ele>
        <time>2018-06-11T13:32:52.000Z</time>
      </trkpt>
      <trkpt lat="42.10892" lon="9.134">
        <ele>1300</ele>
        <time>2018-06-11T13:33:08.000Z</time>
      </trkpt>
      <trkpt lat="42.10897" lon="9.13388">
        <ele>1302</ele>
        <time>2018-06-11T13:33:49.000Z</time>
      </trkpt>
      <trkpt lat="42.10908" lon="9.13392">
        <ele>1300</ele>
        <time>2018-06-11T13:34:02.000Z</time>
      </trkpt>
      <trkpt lat="42.1092" lon="9.13395">
        <ele>1298</ele>
        <time>2018-06-11T13:34:15.000Z</time>
      </trkpt>
      <trkpt lat="42.10923" lon="9.13409">
        <ele>1293</ele>
        <time>2018-06-11T13:34:24.000Z</time>
      </trkpt>
      <trkpt lat="42.10922" lon="9.13424">
        <ele>1285</ele>
        <time>2018-06-11T13:34:38.000Z</time>
      </trkpt>
      <trkpt lat="42.10917" lon="9.13438">
        <ele>1282</ele>
        <time>2018-06-11T13:34:52.000Z</time>
      </trkpt>
      <trkpt lat="42.1091" lon="9.13448">
        <ele>1284</ele>
        <time>2018-06-11T13:35:05.000Z</time>
      </trkpt>
      <trkpt lat="42.10896" lon="9.13453">
        <ele>1284</ele>
        <time>2018-06-11T13:35:22.000Z</time>
      </trkpt>
      <trkpt lat="42.10896" lon="9.13438">
        <ele>1285</ele>
        <time>2018-06-11T13:35:36.000Z</time>
      </trkpt>
      <trkpt lat="42.10907" lon="9.1344">
        <ele>1285</ele>
        <time>2018-06-11T13:35:54.000Z</time>
      </trkpt>
      <trkpt lat="42.10919" lon="9.13435">
        <ele>1282</ele>
        <time>2018-06-11T13:36:12.000Z</time>
      </trkpt>
      <trkpt lat="42.10929" lon="9.13431">
        <ele>1282</ele>
        <time>2018-06-11T13:36:29.000Z</time>
      </trkpt>
      <trkpt lat="42.10938" lon="9.13441">
        <ele>1280</ele>
        <time>2018-06-11T13:36:37.000Z</time>
      </trkpt>
      <trkpt lat="42.10949" lon="9.13446">
        <ele>1279</ele>
        <time>2018-06-11T13:36:46.000Z</time>
      </trkpt>
      <trkpt lat="42.10959" lon="9.13446">
        <ele>1278</ele>
        <time>2018-06-11T13:36:57.000Z</time>
      </trkpt>
      <trkpt lat="42.1097" lon="9.13446">
        <ele>1279</ele>
        <time>2018-06-11T13:37:10.000Z</time>
      </trkpt>
      <trkpt lat="42.10975" lon="9.13447">
        <ele>1278</ele>
        <time>2018-06-11T13:37:16.000Z</time>
      </trkpt>
      <trkpt lat="42.10979" lon="9.13451">
        <ele>1278</ele>
        <time>2018-06-11T13:37:23.000Z</time>
      </trkpt>
      <trkpt lat="42.10985" lon="9.13455">
        <ele>1277</ele>
        <time>2018-06-11T13:37:28.000Z</time>
      </trkpt>
      <trkpt lat="42.10996" lon="9.13456">
        <ele>1277</ele>
        <time>2018-06-11T13:37:42.000Z</time>
      </trkpt>
      <trkpt lat="42.11007" lon="9.13462">
        <ele>1272</ele>
        <time>2018-06-11T13:37:55.000Z</time>
      </trkpt>
      <trkpt lat="42.11018" lon="9.1347">
        <ele>1270</ele>
        <time>2018-06-11T13:38:13.000Z</time>
      </trkpt>
      <trkpt lat="42.11019" lon="9.13486">
        <ele>1266</ele>
        <time>2018-06-11T13:38:19.000Z</time>
      </trkpt>
      <trkpt lat="42.1101" lon="9.13494">
        <ele>1264</ele>
        <time>2018-06-11T13:38:28.000Z</time>
      </trkpt>
      <trkpt lat="42.11001" lon="9.13504">
        <ele>1257</ele>
        <time>2018-06-11T13:38:37.000Z</time>
      </trkpt>
      <trkpt lat="42.1099" lon="9.13508">
        <ele>1259</ele>
        <time>2018-06-11T13:38:45.000Z</time>
      </trkpt>
      <trkpt lat="42.10982" lon="9.13517">
        <ele>1258</ele>
        <time>2018-06-11T13:38:54.000Z</time>
      </trkpt>
      <trkpt lat="42.10975" lon="9.13529">
        <ele>1258</ele>
        <time>2018-06-11T13:39:01.000Z</time>
      </trkpt>
      <trkpt lat="42.10975" lon="9.13511">
        <ele>1259</ele>
        <time>2018-06-11T13:39:25.000Z</time>
      </trkpt>
      <trkpt lat="42.10976" lon="9.13496">
        <ele>1270</ele>
        <time>2018-06-11T13:39:36.000Z</time>
      </trkpt>
      <trkpt lat="42.10987" lon="9.13492">
        <ele>1268</ele>
        <time>2018-06-11T13:39:48.000Z</time>
      </trkpt>
      <trkpt lat="42.10998" lon="9.1349">
        <ele>1266</ele>
        <time>2018-06-11T13:39:57.000Z</time>
      </trkpt>
      <trkpt lat="42.11009" lon="9.13494">
        <ele>1264</ele>
        <time>2018-06-11T13:40:08.000Z</time>
      </trkpt>
      <trkpt lat="42.11018" lon="9.135">
        <ele>1250</ele>
        <time>2018-06-11T13:40:20.000Z</time>
      </trkpt>
      <trkpt lat="42.1103" lon="9.13503">
        <ele>1247</ele>
        <time>2018-06-11T13:40:30.000Z</time>
      </trkpt>
      <trkpt lat="42.1104" lon="9.13508">
        <ele>1245</ele>
        <time>2018-06-11T13:40:42.000Z</time>
      </trkpt>
      <trkpt lat="42.11052" lon="9.13511">
        <ele>1243</ele>
        <time>2018-06-11T13:40:54.000Z</time>
      </trkpt>
      <trkpt lat="42.11063" lon="9.13516">
        <ele>1242</ele>
        <time>2018-06-11T13:41:06.000Z</time>
      </trkpt>
      <trkpt lat="42.11073" lon="9.13523">
        <ele>1241</ele>
        <time>2018-06-11T13:41:15.000Z</time>
      </trkpt>
      <trkpt lat="42.11083" lon="9.13515">
        <ele>1243</ele>
        <time>2018-06-11T13:41:31.000Z</time>
      </trkpt>
      <trkpt lat="42.11093" lon="9.13514">
        <ele>1233</ele>
        <time>2018-06-11T13:41:42.000Z</time>
      </trkpt>
      <trkpt lat="42.11104" lon="9.13507">
        <ele>1232</ele>
        <time>2018-06-11T13:41:51.000Z</time>
      </trkpt>
      <trkpt lat="42.11115" lon="9.13505">
        <ele>1228</ele>
        <time>2018-06-11T13:42:01.000Z</time>
      </trkpt>
      <trkpt lat="42.11126" lon="9.13503">
        <ele>1226</ele>
        <time>2018-06-11T13:42:13.000Z</time>
      </trkpt>
      <trkpt lat="42.11137" lon="9.135">
        <ele>1224</ele>
        <time>2018-06-11T13:42:24.000Z</time>
      </trkpt>
      <trkpt lat="42.11148" lon="9.13498">
        <ele>1241</ele>
        <time>2018-06-11T13:42:37.000Z</time>
      </trkpt>
      <trkpt lat="42.11158" lon="9.13501">
        <ele>1223</ele>
        <time>2018-06-11T13:42:47.000Z</time>
      </trkpt>
      <trkpt lat="42.11169" lon="9.13497">
        <ele>1225</ele>
        <time>2018-06-11T13:42:56.000Z</time>
      </trkpt>
      <trkpt lat="42.1118" lon="9.13493">
        <ele>1226</ele>
        <time>2018-06-11T13:43:06.000Z</time>
      </trkpt>
      <trkpt lat="42.11191" lon="9.1349">
        <ele>1226</ele>
        <time>2018-06-11T13:43:17.000Z</time>
      </trkpt>
      <trkpt lat="42.11201" lon="9.13485">
        <ele>1226</ele>
        <time>2018-06-11T13:43:28.000Z</time>
      </trkpt>
      <trkpt lat="42.11208" lon="9.13473">
        <ele>1226</ele>
        <time>2018-06-11T13:43:39.000Z</time>
      </trkpt>
      <trkpt lat="42.11218" lon="9.13467">
        <ele>1226</ele>
        <time>2018-06-11T13:43:47.000Z</time>
      </trkpt>
      <trkpt lat="42.11225" lon="9.13454">
        <ele>1227</ele>
        <time>2018-06-11T13:44:03.000Z</time>
      </trkpt>
      <trkpt lat="42.11232" lon="9.13443">
        <ele>1229</ele>
        <time>2018-06-11T13:44:11.000Z</time>
      </trkpt>
      <trkpt lat="42.11241" lon="9.13433">
        <ele>1229</ele>
        <time>2018-06-11T13:44:20.000Z</time>
      </trkpt>
      <trkpt lat="42.11243" lon="9.13416">
        <ele>1236</ele>
        <time>2018-06-11T13:44:40.000Z</time>
      </trkpt>
      <trkpt lat="42.11245" lon="9.134">
        <ele>1244</ele>
        <time>2018-06-11T13:44:46.000Z</time>
      </trkpt>
      <trkpt lat="42.1125" lon="9.13387">
        <ele>1229</ele>
        <time>2018-06-11T13:44:54.000Z</time>
      </trkpt>
      <trkpt lat="42.11254" lon="9.13373">
        <ele>1231</ele>
        <time>2018-06-11T13:45:01.000Z</time>
      </trkpt>
      <trkpt lat="42.11264" lon="9.13365">
        <ele>1232</ele>
        <time>2018-06-11T13:45:13.000Z</time>
      </trkpt>
      <trkpt lat="42.11272" lon="9.13353">
        <ele>1233</ele>
        <time>2018-06-11T13:45:23.000Z</time>
      </trkpt>
      <trkpt lat="42.11282" lon="9.13347">
        <ele>1231</ele>
        <time>2018-06-11T13:45:33.000Z</time>
      </trkpt>
      <trkpt lat="42.11292" lon="9.1334">
        <ele>1229</ele>
        <time>2018-06-11T13:45:44.000Z</time>
      </trkpt>
      <trkpt lat="42.11303" lon="9.13337">
        <ele>1227</ele>
        <time>2018-06-11T13:45:55.000Z</time>
      </trkpt>
      <trkpt lat="42.11313" lon="9.13349">
        <ele>1225</ele>
        <time>2018-06-11T13:45:59.000Z</time>
      </trkpt>
      <trkpt lat="42.11323" lon="9.13344">
        <ele>1224</ele>
        <time>2018-06-11T13:46:14.000Z</time>
      </trkpt>
      <trkpt lat="42.11331" lon="9.13333">
        <ele>1225</ele>
        <time>2018-06-11T13:46:35.000Z</time>
      </trkpt>
      <trkpt lat="42.1134" lon="9.13324">
        <ele>1220</ele>
        <time>2018-06-11T13:46:46.000Z</time>
      </trkpt>
      <trkpt lat="42.11345" lon="9.13309">
        <ele>1219</ele>
        <time>2018-06-11T13:46:58.000Z</time>
      </trkpt>
      <trkpt lat="42.11346" lon="9.13294">
        <ele>1221</ele>
        <time>2018-06-11T13:47:07.000Z</time>
      </trkpt>
      <trkpt lat="42.11356" lon="9.13288">
        <ele>1220</ele>
        <time>2018-06-11T13:47:17.000Z</time>
      </trkpt>
      <trkpt lat="42.11366" lon="9.1328">
        <ele>1219</ele>
        <time>2018-06-11T13:47:33.000Z</time>
      </trkpt>
      <trkpt lat="42.11375" lon="9.1327">
        <ele>1218</ele>
        <time>2018-06-11T13:47:39.000Z</time>
      </trkpt>
      <trkpt lat="42.11374" lon="9.13255">
        <ele>1220</ele>
        <time>2018-06-11T13:47:53.000Z</time>
      </trkpt>
      <trkpt lat="42.11381" lon="9.13243">
        <ele>1235</ele>
        <time>2018-06-11T13:48:05.000Z</time>
      </trkpt>
      <trkpt lat="42.11392" lon="9.1324">
        <ele>1231</ele>
        <time>2018-06-11T13:48:11.000Z</time>
      </trkpt>
      <trkpt lat="42.11402" lon="9.13234">
        <ele>1228</ele>
        <time>2018-06-11T13:48:23.000Z</time>
      </trkpt>
      <trkpt lat="42.11413" lon="9.13228">
        <ele>1228</ele>
        <time>2018-06-11T13:48:38.000Z</time>
      </trkpt>
      <trkpt lat="42.11424" lon="9.13226">
        <ele>1211</ele>
        <time>2018-06-11T13:48:48.000Z</time>
      </trkpt>
      <trkpt lat="42.11433" lon="9.13217">
        <ele>1212</ele>
        <time>2018-06-11T13:49:05.000Z</time>
      </trkpt>
      <trkpt lat="42.11443" lon="9.13211">
        <ele>1212</ele>
        <time>2018-06-11T13:49:21.000Z</time>
      </trkpt>
      <trkpt lat="42.11455" lon="9.13205">
        <ele>1212</ele>
        <time>2018-06-11T13:49:31.000Z</time>
      </trkpt>
      <trkpt lat="42.11465" lon="9.13196">
        <ele>1211</ele>
        <time>2018-06-11T13:49:39.000Z</time>
      </trkpt>
      <trkpt lat="42.11476" lon="9.13195">
        <ele>1210</ele>
        <time>2018-06-11T13:49:46.000Z</time>
      </trkpt>
      <trkpt lat="42.11487" lon="9.1319">
        <ele>1209</ele>
        <time>2018-06-11T13:50:00.000Z</time>
      </trkpt>
      <trkpt lat="42.11497" lon="9.13186">
        <ele>1208</ele>
        <time>2018-06-11T13:50:07.000Z</time>
      </trkpt>
      <trkpt lat="42.1151" lon="9.13186">
        <ele>1194</ele>
        <time>2018-06-11T13:50:13.000Z</time>
      </trkpt>
      <trkpt lat="42.11519" lon="9.13178">
        <ele>1194</ele>
        <time>2018-06-11T13:50:27.000Z</time>
      </trkpt>
      <trkpt lat="42.11528" lon="9.1317">
        <ele>1192</ele>
        <time>2018-06-11T13:50:40.000Z</time>
      </trkpt>
      <trkpt lat="42.11537" lon="9.1318">
        <ele>1189</ele>
        <time>2018-06-11T13:50:49.000Z</time>
      </trkpt>
      <trkpt lat="42.11531" lon="9.13194">
        <ele>1188</ele>
        <time>2018-06-11T13:50:57.000Z</time>
      </trkpt>
      <trkpt lat="42.11526" lon="9.13207">
        <ele>1187</ele>
        <time>2018-06-11T13:51:07.000Z</time>
      </trkpt>
      <trkpt lat="42.11517" lon="9.13198">
        <ele>1190</ele>
        <time>2018-06-11T13:51:37.000Z</time>
      </trkpt>
      <trkpt lat="42.11524" lon="9.13208">
        <ele>1187</ele>
        <time>2018-06-11T13:52:42.000Z</time>
      </trkpt>
      <trkpt lat="42.11526" lon="9.13201">
        <ele>1188</ele>
        <time>2018-06-11T13:55:05.000Z</time>
      </trkpt>
      <trkpt lat="42.1152" lon="9.132">
        <ele>1189</ele>
        <time>2018-06-11T13:55:34.000Z</time>
      </trkpt>
      <trkpt lat="42.11532" lon="9.13192">
        <ele>1189</ele>
        <time>2018-06-11T13:56:25.000Z</time>
      </trkpt>
      <trkpt lat="42.11541" lon="9.13183">
        <ele>1188</ele>
        <time>2018-06-11T13:56:34.000Z</time>
      </trkpt>
      <trkpt lat="42.11544" lon="9.13169">
        <ele>1188</ele>
        <time>2018-06-11T13:56:45.000Z</time>
      </trkpt>
      <trkpt lat="42.11541" lon="9.13153">
        <ele>1203</ele>
        <time>2018-06-11T13:56:57.000Z</time>
      </trkpt>
      <trkpt lat="42.11542" lon="9.13139">
        <ele>1205</ele>
        <time>2018-06-11T13:57:07.000Z</time>
      </trkpt>
      <trkpt lat="42.11546" lon="9.13123">
        <ele>1206</ele>
        <time>2018-06-11T13:57:14.000Z</time>
      </trkpt>
      <trkpt lat="42.11553" lon="9.13111">
        <ele>1207</ele>
        <time>2018-06-11T13:57:24.000Z</time>
      </trkpt>
      <trkpt lat="42.11562" lon="9.13102">
        <ele>1207</ele>
        <time>2018-06-11T13:57:36.000Z</time>
      </trkpt>
      <trkpt lat="42.11573" lon="9.13097">
        <ele>1206</ele>
        <time>2018-06-11T13:57:47.000Z</time>
      </trkpt>
      <trkpt lat="42.11584" lon="9.13098">
        <ele>1193</ele>
        <time>2018-06-11T13:57:55.000Z</time>
      </trkpt>
      <trkpt lat="42.11593" lon="9.13089">
        <ele>1195</ele>
        <time>2018-06-11T13:58:05.000Z</time>
      </trkpt>
      <trkpt lat="42.11604" lon="9.13085">
        <ele>1189</ele>
        <time>2018-06-11T13:58:17.000Z</time>
      </trkpt>
      <trkpt lat="42.11615" lon="9.13085">
        <ele>1184</ele>
        <time>2018-06-11T13:58:26.000Z</time>
      </trkpt>
      <trkpt lat="42.11626" lon="9.13086">
        <ele>1181</ele>
        <time>2018-06-11T13:58:34.000Z</time>
      </trkpt>
      <trkpt lat="42.11637" lon="9.13084">
        <ele>1177</ele>
        <time>2018-06-11T13:58:44.000Z</time>
      </trkpt>
      <trkpt lat="42.11646" lon="9.13074">
        <ele>1191</ele>
        <time>2018-06-11T13:58:57.000Z</time>
      </trkpt>
      <trkpt lat="42.11653" lon="9.13063">
        <ele>1192</ele>
        <time>2018-06-11T13:59:09.000Z</time>
      </trkpt>
      <trkpt lat="42.11655" lon="9.13049">
        <ele>1197</ele>
        <time>2018-06-11T13:59:18.000Z</time>
      </trkpt>
      <trkpt lat="42.11662" lon="9.13036">
        <ele>1200</ele>
        <time>2018-06-11T13:59:27.000Z</time>
      </trkpt>
      <trkpt lat="42.11672" lon="9.13027">
        <ele>1183</ele>
        <time>2018-06-11T13:59:35.000Z</time>
      </trkpt>
      <trkpt lat="42.11682" lon="9.1302">
        <ele>1184</ele>
        <time>2018-06-11T13:59:45.000Z</time>
      </trkpt>
      <trkpt lat="42.11691" lon="9.1301">
        <ele>1184</ele>
        <time>2018-06-11T13:59:55.000Z</time>
      </trkpt>
      <trkpt lat="42.11701" lon="9.13006">
        <ele>1180</ele>
        <time>2018-06-11T14:00:05.000Z</time>
      </trkpt>
      <trkpt lat="42.11713" lon="9.13002">
        <ele>1177</ele>
        <time>2018-06-11T14:00:14.000Z</time>
      </trkpt>
      <trkpt lat="42.11723" lon="9.12995">
        <ele>1191</ele>
        <time>2018-06-11T14:00:23.000Z</time>
      </trkpt>
      <trkpt lat="42.11734" lon="9.12991">
        <ele>1186</ele>
        <time>2018-06-11T14:00:35.000Z</time>
      </trkpt>
      <trkpt lat="42.11742" lon="9.1298">
        <ele>1187</ele>
        <time>2018-06-11T14:00:46.000Z</time>
      </trkpt>
      <trkpt lat="42.11754" lon="9.12975">
        <ele>1168</ele>
        <time>2018-06-11T14:00:55.000Z</time>
      </trkpt>
      <trkpt lat="42.11764" lon="9.12969">
        <ele>1167</ele>
        <time>2018-06-11T14:01:04.000Z</time>
      </trkpt>
      <trkpt lat="42.11775" lon="9.12964">
        <ele>1166</ele>
        <time>2018-06-11T14:01:14.000Z</time>
      </trkpt>
      <trkpt lat="42.11785" lon="9.12958">
        <ele>1165</ele>
        <time>2018-06-11T14:01:24.000Z</time>
      </trkpt>
      <trkpt lat="42.11791" lon="9.12946">
        <ele>1164</ele>
        <time>2018-06-11T14:01:32.000Z</time>
      </trkpt>
      <trkpt lat="42.11795" lon="9.1296">
        <ele>1163</ele>
        <time>2018-06-11T14:01:47.000Z</time>
      </trkpt>
      <trkpt lat="42.11805" lon="9.12956">
        <ele>1161</ele>
        <time>2018-06-11T14:02:05.000Z</time>
      </trkpt>
      <trkpt lat="42.11813" lon="9.12968">
        <ele>1159</ele>
        <time>2018-06-11T14:02:16.000Z</time>
      </trkpt>
      <trkpt lat="42.11817" lon="9.12956">
        <ele>1159</ele>
        <time>2018-06-11T14:02:37.000Z</time>
      </trkpt>
      <trkpt lat="42.11818" lon="9.1294">
        <ele>1159</ele>
        <time>2018-06-11T14:02:50.000Z</time>
      </trkpt>
      <trkpt lat="42.11812" lon="9.12922">
        <ele>1159</ele>
        <time>2018-06-11T14:03:07.000Z</time>
      </trkpt>
      <trkpt lat="42.1181" lon="9.12922">
        <ele>1160</ele>
        <time>2018-06-11T14:03:16.000Z</time>
      </trkpt>
      <trkpt lat="42.1181" lon="9.12922">
        <ele>1160</ele>
        <time>2018-06-11T14:03:19.000Z</time>
      </trkpt>
      <trkpt lat="42.11823" lon="9.12928">
        <ele>1156</ele>
        <time>2018-06-11T14:03:48.000Z</time>
      </trkpt>
      <trkpt lat="42.11831" lon="9.12939">
        <ele>1157</ele>
        <time>2018-06-11T14:03:57.000Z</time>
      </trkpt>
      <trkpt lat="42.11839" lon="9.1295">
        <ele>1133</ele>
        <time>2018-06-11T14:04:04.000Z</time>
      </trkpt>
      <trkpt lat="42.11846" lon="9.12964">
        <ele>1131</ele>
        <time>2018-06-11T14:04:16.000Z</time>
      </trkpt>
      <trkpt lat="42.11852" lon="9.12978">
        <ele>1130</ele>
        <time>2018-06-11T14:04:28.000Z</time>
      </trkpt>
      <trkpt lat="42.11858" lon="9.12991">
        <ele>1130</ele>
        <time>2018-06-11T14:04:36.000Z</time>
      </trkpt>
      <trkpt lat="42.11852" lon="9.13003">
        <ele>1128</ele>
        <time>2018-06-11T14:04:42.000Z</time>
      </trkpt>
      <trkpt lat="42.11846" lon="9.13016">
        <ele>1127</ele>
        <time>2018-06-11T14:04:51.000Z</time>
      </trkpt>
      <trkpt lat="42.11855" lon="9.1301">
        <ele>1125</ele>
        <time>2018-06-11T14:06:31.000Z</time>
      </trkpt>
      <trkpt lat="42.11863" lon="9.13002">
        <ele>1123</ele>
        <time>2018-06-11T14:07:05.000Z</time>
      </trkpt>
      <trkpt lat="42.11869" lon="9.12989">
        <ele>1126</ele>
        <time>2018-06-11T14:07:37.000Z</time>
      </trkpt>
      <trkpt lat="42.1187" lon="9.12975">
        <ele>1125</ele>
        <time>2018-06-11T14:08:10.000Z</time>
      </trkpt>
      <trkpt lat="42.11868" lon="9.12959">
        <ele>1126</ele>
        <time>2018-06-11T14:08:52.000Z</time>
      </trkpt>
      <trkpt lat="42.11877" lon="9.1297">
        <ele>1123</ele>
        <time>2018-06-11T14:09:04.000Z</time>
      </trkpt>
      <trkpt lat="42.11886" lon="9.1298">
        <ele>1121</ele>
        <time>2018-06-11T14:09:15.000Z</time>
      </trkpt>
      <trkpt lat="42.11895" lon="9.12989">
        <ele>1117</ele>
        <time>2018-06-11T14:09:29.000Z</time>
      </trkpt>
      <trkpt lat="42.119" lon="9.13003">
        <ele>1111</ele>
        <time>2018-06-11T14:09:42.000Z</time>
      </trkpt>
      <trkpt lat="42.11902" lon="9.13017">
        <ele>1111</ele>
        <time>2018-06-11T14:09:54.000Z</time>
      </trkpt>
      <trkpt lat="42.11897" lon="9.13031">
        <ele>1112</ele>
        <time>2018-06-11T14:10:02.000Z</time>
      </trkpt>
      <trkpt lat="42.119" lon="9.13016">
        <ele>1111</ele>
        <time>2018-06-11T14:10:17.000Z</time>
      </trkpt>
      <trkpt lat="42.11911" lon="9.13013">
        <ele>1109</ele>
        <time>2018-06-11T14:10:31.000Z</time>
      </trkpt>
      <trkpt lat="42.1191" lon="9.13027">
        <ele>1110</ele>
        <time>2018-06-11T14:10:41.000Z</time>
      </trkpt>
      <trkpt lat="42.11917" lon="9.13015">
        <ele>1109</ele>
        <time>2018-06-11T14:10:58.000Z</time>
      </trkpt>
      <trkpt lat="42.11923" lon="9.13005">
        <ele>1099</ele>
        <time>2018-06-11T14:11:15.000Z</time>
      </trkpt>
      <trkpt lat="42.11934" lon="9.13003">
        <ele>1093</ele>
        <time>2018-06-11T14:11:33.000Z</time>
      </trkpt>
      <trkpt lat="42.11943" lon="9.13009">
        <ele>1089</ele>
        <time>2018-06-11T14:11:45.000Z</time>
      </trkpt>
      <trkpt lat="42.11951" lon="9.13023">
        <ele>1085</ele>
        <time>2018-06-11T14:11:51.000Z</time>
      </trkpt>
      <trkpt lat="42.11948" lon="9.13009">
        <ele>1087</ele>
        <time>2018-06-11T14:12:22.000Z</time>
      </trkpt>
      <trkpt lat="42.11958" lon="9.13016">
        <ele>1084</ele>
        <time>2018-06-11T14:12:44.000Z</time>
      </trkpt>
      <trkpt lat="42.11965" lon="9.13027">
        <ele>1082</ele>
        <time>2018-06-11T14:12:55.000Z</time>
      </trkpt>
      <trkpt lat="42.11969" lon="9.13042">
        <ele>1081</ele>
        <time>2018-06-11T14:13:27.000Z</time>
      </trkpt>
      <trkpt lat="42.11963" lon="9.13054">
        <ele>1082</ele>
        <time>2018-06-11T14:13:37.000Z</time>
      </trkpt>
      <trkpt lat="42.11953" lon="9.13059">
        <ele>1084</ele>
        <time>2018-06-11T14:13:45.000Z</time>
      </trkpt>
      <trkpt lat="42.11942" lon="9.13062">
        <ele>1086</ele>
        <time>2018-06-11T14:13:52.000Z</time>
      </trkpt>
      <trkpt lat="42.11934" lon="9.13073">
        <ele>1089</ele>
        <time>2018-06-11T14:14:02.000Z</time>
      </trkpt>
      <trkpt lat="42.11926" lon="9.13083">
        <ele>1088</ele>
        <time>2018-06-11T14:14:14.000Z</time>
      </trkpt>
      <trkpt lat="42.11916" lon="9.13093">
        <ele>1095</ele>
        <time>2018-06-11T14:14:32.000Z</time>
      </trkpt>
      <trkpt lat="42.11905" lon="9.13089">
        <ele>1095</ele>
        <time>2018-06-11T14:14:56.000Z</time>
      </trkpt>
      <trkpt lat="42.11895" lon="9.13097">
        <ele>1094</ele>
        <time>2018-06-11T14:15:24.000Z</time>
      </trkpt>
      <trkpt lat="42.11885" lon="9.13102">
        <ele>1095</ele>
        <time>2018-06-11T14:15:59.000Z</time>
      </trkpt>
      <trkpt lat="42.11879" lon="9.13114">
        <ele>1094</ele>
        <time>2018-06-11T14:16:18.000Z</time>
      </trkpt>
      <trkpt lat="42.11875" lon="9.13116">
        <ele>1094</ele>
        <time>2018-06-11T14:16:24.000Z</time>
      </trkpt>
      <trkpt lat="42.11864" lon="9.13121">
        <ele>1094</ele>
        <time>2018-06-11T14:16:39.000Z</time>
      </trkpt>
      <trkpt lat="42.11854" lon="9.13128">
        <ele>1094</ele>
        <time>2018-06-11T14:17:00.000Z</time>
      </trkpt>
      <trkpt lat="42.11847" lon="9.13139">
        <ele>1092</ele>
        <time>2018-06-11T14:17:11.000Z</time>
      </trkpt>
      <trkpt lat="42.1184" lon="9.1315">
        <ele>1090</ele>
        <time>2018-06-11T14:17:23.000Z</time>
      </trkpt>
      <trkpt lat="42.11829" lon="9.13156">
        <ele>1097</ele>
        <time>2018-06-11T14:17:30.000Z</time>
      </trkpt>
      <trkpt lat="42.11819" lon="9.13161">
        <ele>1099</ele>
        <time>2018-06-11T14:17:37.000Z</time>
      </trkpt>
      <trkpt lat="42.1181" lon="9.13171">
        <ele>1091</ele>
        <time>2018-06-11T14:17:55.000Z</time>
      </trkpt>
      <trkpt lat="42.11798" lon="9.13174">
        <ele>1093</ele>
        <time>2018-06-11T14:18:07.000Z</time>
      </trkpt>
      <trkpt lat="42.1179" lon="9.13185">
        <ele>1094</ele>
        <time>2018-06-11T14:18:19.000Z</time>
      </trkpt>
      <trkpt lat="42.1178" lon="9.13193">
        <ele>1095</ele>
        <time>2018-06-11T14:18:29.000Z</time>
      </trkpt>
      <trkpt lat="42.11772" lon="9.13203">
        <ele>1095</ele>
        <time>2018-06-11T14:18:49.000Z</time>
      </trkpt>
      <trkpt lat="42.11771" lon="9.13219">
        <ele>1093</ele>
        <time>2018-06-11T14:19:01.000Z</time>
      </trkpt>
      <trkpt lat="42.11782" lon="9.13228">
        <ele>1091</ele>
        <time>2018-06-11T14:19:17.000Z</time>
      </trkpt>
      <trkpt lat="42.11789" lon="9.13242">
        <ele>1089</ele>
        <time>2018-06-11T14:19:21.000Z</time>
      </trkpt>
      <trkpt lat="42.11789" lon="9.13258">
        <ele>1079</ele>
        <time>2018-06-11T14:19:32.000Z</time>
      </trkpt>
      <trkpt lat="42.11782" lon="9.13271">
        <ele>1080</ele>
        <time>2018-06-11T14:19:39.000Z</time>
      </trkpt>
      <trkpt lat="42.11778" lon="9.13269">
        <ele>1081</ele>
        <time>2018-06-11T14:19:43.000Z</time>
      </trkpt>
      <trkpt lat="42.11773" lon="9.13281">
        <ele>1080</ele>
        <time>2018-06-11T14:20:08.000Z</time>
      </trkpt>
      <trkpt lat="42.11764" lon="9.1329">
        <ele>1080</ele>
        <time>2018-06-11T14:20:21.000Z</time>
      </trkpt>
      <trkpt lat="42.11753" lon="9.13292">
        <ele>1080</ele>
        <time>2018-06-11T14:20:32.000Z</time>
      </trkpt>
      <trkpt lat="42.11741" lon="9.13292">
        <ele>1099</ele>
        <time>2018-06-11T14:20:45.000Z</time>
      </trkpt>
      <trkpt lat="42.11733" lon="9.13303">
        <ele>1099</ele>
        <time>2018-06-11T14:21:06.000Z</time>
      </trkpt>
      <trkpt lat="42.11723" lon="9.13311">
        <ele>1099</ele>
        <time>2018-06-11T14:21:27.000Z</time>
      </trkpt>
      <trkpt lat="42.11723" lon="9.13326">
        <ele>1097</ele>
        <time>2018-06-11T14:21:36.000Z</time>
      </trkpt>
      <trkpt lat="42.1172" lon="9.1334">
        <ele>1091</ele>
        <time>2018-06-11T14:21:45.000Z</time>
      </trkpt>
      <trkpt lat="42.11723" lon="9.13355">
        <ele>1091</ele>
        <time>2018-06-11T14:21:57.000Z</time>
      </trkpt>
      <trkpt lat="42.11727" lon="9.13369">
        <ele>1090</ele>
        <time>2018-06-11T14:22:12.000Z</time>
      </trkpt>
      <trkpt lat="42.11731" lon="9.13356">
        <ele>1089</ele>
        <time>2018-06-11T14:22:35.000Z</time>
      </trkpt>
      <trkpt lat="42.11742" lon="9.13353">
        <ele>1087</ele>
        <time>2018-06-11T14:22:48.000Z</time>
      </trkpt>
      <trkpt lat="42.11747" lon="9.13338">
        <ele>1081</ele>
        <time>2018-06-11T14:23:00.000Z</time>
      </trkpt>
      <trkpt lat="42.11753" lon="9.13326">
        <ele>1078</ele>
        <time>2018-06-11T14:23:13.000Z</time>
      </trkpt>
      <trkpt lat="42.11763" lon="9.13316">
        <ele>1078</ele>
        <time>2018-06-11T14:23:26.000Z</time>
      </trkpt>
      <trkpt lat="42.1177" lon="9.13305">
        <ele>1078</ele>
        <time>2018-06-11T14:23:34.000Z</time>
      </trkpt>
      <trkpt lat="42.1178" lon="9.13298">
        <ele>1077</ele>
        <time>2018-06-11T14:23:46.000Z</time>
      </trkpt>
      <trkpt lat="42.11786" lon="9.13285">
        <ele>1078</ele>
        <time>2018-06-11T14:23:58.000Z</time>
      </trkpt>
      <trkpt lat="42.1179" lon="9.13271">
        <ele>1078</ele>
        <time>2018-06-11T14:24:09.000Z</time>
      </trkpt>
      <trkpt lat="42.11798" lon="9.1326">
        <ele>1077</ele>
        <time>2018-06-11T14:24:24.000Z</time>
      </trkpt>
      <trkpt lat="42.11805" lon="9.13248">
        <ele>1084</ele>
        <time>2018-06-11T14:24:39.000Z</time>
      </trkpt>
      <trkpt lat="42.11816" lon="9.13247">
        <ele>1080</ele>
        <time>2018-06-11T14:24:56.000Z</time>
      </trkpt>
      <trkpt lat="42.11825" lon="9.13237">
        <ele>1079</ele>
        <time>2018-06-11T14:25:07.000Z</time>
      </trkpt>
      <trkpt lat="42.11835" lon="9.13231">
        <ele>1069</ele>
        <time>2018-06-11T14:25:17.000Z</time>
      </trkpt>
      <trkpt lat="42.11845" lon="9.13221">
        <ele>1070</ele>
        <time>2018-06-11T14:25:28.000Z</time>
      </trkpt>
      <trkpt lat="42.11855" lon="9.13227">
        <ele>1069</ele>
        <time>2018-06-11T14:25:39.000Z</time>
      </trkpt>
      <trkpt lat="42.11867" lon="9.13229">
        <ele>1068</ele>
        <time>2018-06-11T14:25:47.000Z</time>
      </trkpt>
      <trkpt lat="42.11876" lon="9.13222">
        <ele>1068</ele>
        <time>2018-06-11T14:26:01.000Z</time>
      </trkpt>
      <trkpt lat="42.11886" lon="9.13218">
        <ele>1067</ele>
        <time>2018-06-11T14:26:24.000Z</time>
      </trkpt>
      <trkpt lat="42.11898" lon="9.13221">
        <ele>1065</ele>
        <time>2018-06-11T14:26:30.000Z</time>
      </trkpt>
      <trkpt lat="42.11908" lon="9.13215">
        <ele>1065</ele>
        <time>2018-06-11T14:26:46.000Z</time>
      </trkpt>
      <trkpt lat="42.11919" lon="9.13221">
        <ele>1053</ele>
        <time>2018-06-11T14:26:53.000Z</time>
      </trkpt>
      <trkpt lat="42.11925" lon="9.13234">
        <ele>1052</ele>
        <time>2018-06-11T14:27:01.000Z</time>
      </trkpt>
      <trkpt lat="42.11929" lon="9.13248">
        <ele>1051</ele>
        <time>2018-06-11T14:27:09.000Z</time>
      </trkpt>
      <trkpt lat="42.1193" lon="9.13263">
        <ele>1048</ele>
        <time>2018-06-11T14:27:23.000Z</time>
      </trkpt>
      <trkpt lat="42.11939" lon="9.13271">
        <ele>1047</ele>
        <time>2018-06-11T14:27:31.000Z</time>
      </trkpt>
      <trkpt lat="42.11945" lon="9.13284">
        <ele>1046</ele>
        <time>2018-06-11T14:27:40.000Z</time>
      </trkpt>
      <trkpt lat="42.11948" lon="9.13298">
        <ele>1046</ele>
        <time>2018-06-11T14:27:52.000Z</time>
      </trkpt>
      <trkpt lat="42.11953" lon="9.13312">
        <ele>1046</ele>
        <time>2018-06-11T14:28:01.000Z</time>
      </trkpt>
      <trkpt lat="42.11958" lon="9.13325">
        <ele>1046</ele>
        <time>2018-06-11T14:28:08.000Z</time>
      </trkpt>
      <trkpt lat="42.1197" lon="9.13331">
        <ele>1045</ele>
        <time>2018-06-11T14:28:18.000Z</time>
      </trkpt>
      <trkpt lat="42.1198" lon="9.13338">
        <ele>1049</ele>
        <time>2018-06-11T14:28:27.000Z</time>
      </trkpt>
      <trkpt lat="42.11993" lon="9.13336">
        <ele>1046</ele>
        <time>2018-06-11T14:28:40.000Z</time>
      </trkpt>
      <trkpt lat="42.12003" lon="9.13334">
        <ele>1044</ele>
        <time>2018-06-11T14:28:52.000Z</time>
      </trkpt>
      <trkpt lat="42.12015" lon="9.13333">
        <ele>1039</ele>
        <time>2018-06-11T14:29:03.000Z</time>
      </trkpt>
      <trkpt lat="42.12026" lon="9.1333">
        <ele>1038</ele>
        <time>2018-06-11T14:29:12.000Z</time>
      </trkpt>
      <trkpt lat="42.12037" lon="9.13328">
        <ele>1036</ele>
        <time>2018-06-11T14:29:21.000Z</time>
      </trkpt>
      <trkpt lat="42.12045" lon="9.13317">
        <ele>1035</ele>
        <time>2018-06-11T14:29:35.000Z</time>
      </trkpt>
      <trkpt lat="42.12054" lon="9.13307">
        <ele>1034</ele>
        <time>2018-06-11T14:29:52.000Z</time>
      </trkpt>
      <trkpt lat="42.12065" lon="9.13302">
        <ele>1034</ele>
        <time>2018-06-11T14:30:02.000Z</time>
      </trkpt>
      <trkpt lat="42.12073" lon="9.13291">
        <ele>1032</ele>
        <time>2018-06-11T14:30:13.000Z</time>
      </trkpt>
      <trkpt lat="42.12084" lon="9.13289">
        <ele>1025</ele>
        <time>2018-06-11T14:30:22.000Z</time>
      </trkpt>
      <trkpt lat="42.12087" lon="9.13275">
        <ele>1023</ele>
        <time>2018-06-11T14:30:33.000Z</time>
      </trkpt>
      <trkpt lat="42.12096" lon="9.13268">
        <ele>1023</ele>
        <time>2018-06-11T14:30:45.000Z</time>
      </trkpt>
      <trkpt lat="42.12107" lon="9.13272">
        <ele>1023</ele>
        <time>2018-06-11T14:30:51.000Z</time>
      </trkpt>
      <trkpt lat="42.12118" lon="9.13272">
        <ele>1022</ele>
        <time>2018-06-11T14:31:04.000Z</time>
      </trkpt>
      <trkpt lat="42.1213" lon="9.13275">
        <ele>1021</ele>
        <time>2018-06-11T14:31:13.000Z</time>
      </trkpt>
      <trkpt lat="42.1214" lon="9.13285">
        <ele>1022</ele>
        <time>2018-06-11T14:31:17.000Z</time>
      </trkpt>
      <trkpt lat="42.12151" lon="9.13286">
        <ele>1021</ele>
        <time>2018-06-11T14:31:33.000Z</time>
      </trkpt>
      <trkpt lat="42.12162" lon="9.13291">
        <ele>1021</ele>
        <time>2018-06-11T14:31:40.000Z</time>
      </trkpt>
      <trkpt lat="42.12173" lon="9.13299">
        <ele>1014</ele>
        <time>2018-06-11T14:31:47.000Z</time>
      </trkpt>
      <trkpt lat="42.1218" lon="9.13311">
        <ele>1016</ele>
        <time>2018-06-11T14:31:56.000Z</time>
      </trkpt>
      <trkpt lat="42.12188" lon="9.13323">
        <ele>1017</ele>
        <time>2018-06-11T14:32:02.000Z</time>
      </trkpt>
      <trkpt lat="42.12195" lon="9.13336">
        <ele>1025</ele>
        <time>2018-06-11T14:32:10.000Z</time>
      </trkpt>
      <trkpt lat="42.12207" lon="9.13341">
        <ele>1023</ele>
        <time>2018-06-11T14:32:32.000Z</time>
      </trkpt>
      <trkpt lat="42.12216" lon="9.13351">
        <ele>1023</ele>
        <time>2018-06-11T14:32:39.000Z</time>
      </trkpt>
      <trkpt lat="42.12227" lon="9.13352">
        <ele>1021</ele>
        <time>2018-06-11T14:32:50.000Z</time>
      </trkpt>
      <trkpt lat="42.12237" lon="9.13349">
        <ele>1019</ele>
        <time>2018-06-11T14:33:04.000Z</time>
      </trkpt>
      <trkpt lat="42.1225" lon="9.13347">
        <ele>1016</ele>
        <time>2018-06-11T14:33:13.000Z</time>
      </trkpt>
      <trkpt lat="42.12258" lon="9.13338">
        <ele>1011</ele>
        <time>2018-06-11T14:33:23.000Z</time>
      </trkpt>
      <trkpt lat="42.12267" lon="9.13328">
        <ele>1005</ele>
        <time>2018-06-11T14:33:43.000Z</time>
      </trkpt>
      <trkpt lat="42.12267" lon="9.13313">
        <ele>1004</ele>
        <time>2018-06-11T14:33:55.000Z</time>
      </trkpt>
      <trkpt lat="42.12267" lon="9.13298">
        <ele>1002</ele>
        <time>2018-06-11T14:34:05.000Z</time>
      </trkpt>
      <trkpt lat="42.12278" lon="9.13294">
        <ele>1002</ele>
        <time>2018-06-11T14:34:15.000Z</time>
      </trkpt>
      <trkpt lat="42.12291" lon="9.133">
        <ele>1002</ele>
        <time>2018-06-11T14:34:23.000Z</time>
      </trkpt>
      <trkpt lat="42.12302" lon="9.13304">
        <ele>1002</ele>
        <time>2018-06-11T14:34:29.000Z</time>
      </trkpt>
      <trkpt lat="42.12313" lon="9.13305">
        <ele>1002</ele>
        <time>2018-06-11T14:34:40.000Z</time>
      </trkpt>
      <trkpt lat="42.12325" lon="9.13305">
        <ele>1002</ele>
        <time>2018-06-11T14:34:50.000Z</time>
      </trkpt>
      <trkpt lat="42.12337" lon="9.13301">
        <ele>998</ele>
        <time>2018-06-11T14:35:02.000Z</time>
      </trkpt>
      <trkpt lat="42.12348" lon="9.13297">
        <ele>997</ele>
        <time>2018-06-11T14:35:10.000Z</time>
      </trkpt>
      <trkpt lat="42.12357" lon="9.13305">
        <ele>998</ele>
        <time>2018-06-11T14:35:20.000Z</time>
      </trkpt>
      <trkpt lat="42.12369" lon="9.13304">
        <ele>997</ele>
        <time>2018-06-11T14:35:30.000Z</time>
      </trkpt>
      <trkpt lat="42.12381" lon="9.1331">
        <ele>997</ele>
        <time>2018-06-11T14:35:36.000Z</time>
      </trkpt>
      <trkpt lat="42.12391" lon="9.13303">
        <ele>997</ele>
        <time>2018-06-11T14:35:48.000Z</time>
      </trkpt>
      <trkpt lat="42.12399" lon="9.13313">
        <ele>997</ele>
        <time>2018-06-11T14:36:12.000Z</time>
      </trkpt>
      <trkpt lat="42.12399" lon="9.13329">
        <ele>998</ele>
        <time>2018-06-11T14:36:21.000Z</time>
      </trkpt>
      <trkpt lat="42.12404" lon="9.13315">
        <ele>997</ele>
        <time>2018-06-11T14:37:03.000Z</time>
      </trkpt>
      <trkpt lat="42.12411" lon="9.13303">
        <ele>996</ele>
        <time>2018-06-11T14:37:13.000Z</time>
      </trkpt>
      <trkpt lat="42.12416" lon="9.1329">
        <ele>995</ele>
        <time>2018-06-11T14:37:26.000Z</time>
      </trkpt>
      <trkpt lat="42.12423" lon="9.13279">
        <ele>990</ele>
        <time>2018-06-11T14:37:35.000Z</time>
      </trkpt>
      <trkpt lat="42.1243" lon="9.13266">
        <ele>989</ele>
        <time>2018-06-11T14:37:41.000Z</time>
      </trkpt>
      <trkpt lat="42.12439" lon="9.13257">
        <ele>989</ele>
        <time>2018-06-11T14:37:51.000Z</time>
      </trkpt>
      <trkpt lat="42.12447" lon="9.13245">
        <ele>983</ele>
        <time>2018-06-11T14:38:01.000Z</time>
      </trkpt>
      <trkpt lat="42.12453" lon="9.13233">
        <ele>982</ele>
        <time>2018-06-11T14:38:14.000Z</time>
      </trkpt>
      <trkpt lat="42.12448" lon="9.13246">
        <ele>983</ele>
        <time>2018-06-11T14:38:26.000Z</time>
      </trkpt>
      <trkpt lat="42.12438" lon="9.1324">
        <ele>984</ele>
        <time>2018-06-11T14:38:34.000Z</time>
      </trkpt>
      <trkpt lat="42.12436" lon="9.13225">
        <ele>983</ele>
        <time>2018-06-11T14:38:46.000Z</time>
      </trkpt>
      <trkpt lat="42.12439" lon="9.1321">
        <ele>982</ele>
        <time>2018-06-11T14:38:54.000Z</time>
      </trkpt>
      <trkpt lat="42.12444" lon="9.13197">
        <ele>981</ele>
        <time>2018-06-11T14:39:00.000Z</time>
      </trkpt>
      <trkpt lat="42.12448" lon="9.13184">
        <ele>980</ele>
        <time>2018-06-11T14:39:10.000Z</time>
      </trkpt>
      <trkpt lat="42.1246" lon="9.13188">
        <ele>980</ele>
        <time>2018-06-11T14:39:17.000Z</time>
      </trkpt>
      <trkpt lat="42.12467" lon="9.13178">
        <ele>979</ele>
        <time>2018-06-11T14:39:31.000Z</time>
      </trkpt>
      <trkpt lat="42.1247" lon="9.13164">
        <ele>977</ele>
        <time>2018-06-11T14:39:39.000Z</time>
      </trkpt>
      <trkpt lat="42.12481" lon="9.13162">
        <ele>976</ele>
        <time>2018-06-11T14:39:44.000Z</time>
      </trkpt>
      <trkpt lat="42.12495" lon="9.13175">
        <ele>976</ele>
        <time>2018-06-11T14:39:48.000Z</time>
      </trkpt>
      <trkpt lat="42.12506" lon="9.1318">
        <ele>975</ele>
        <time>2018-06-11T14:39:58.000Z</time>
      </trkpt>
      <trkpt lat="42.12517" lon="9.13181">
        <ele>975</ele>
        <time>2018-06-11T14:40:09.000Z</time>
      </trkpt>
      <trkpt lat="42.12526" lon="9.13172">
        <ele>974</ele>
        <time>2018-06-11T14:40:16.000Z</time>
      </trkpt>
      <trkpt lat="42.12537" lon="9.13174">
        <ele>974</ele>
        <time>2018-06-11T14:40:26.000Z</time>
      </trkpt>
      <trkpt lat="42.12548" lon="9.13168">
        <ele>974</ele>
        <time>2018-06-11T14:40:37.000Z</time>
      </trkpt>
      <trkpt lat="42.12556" lon="9.13158">
        <ele>971</ele>
        <time>2018-06-11T14:40:49.000Z</time>
      </trkpt>
      <trkpt lat="42.12567" lon="9.13153">
        <ele>970</ele>
        <time>2018-06-11T14:41:01.000Z</time>
      </trkpt>
      <trkpt lat="42.12572" lon="9.13139">
        <ele>970</ele>
        <time>2018-06-11T14:41:19.000Z</time>
      </trkpt>
      <trkpt lat="42.12578" lon="9.1313">
        <ele>970</ele>
        <time>2018-06-11T14:41:48.000Z</time>
      </trkpt>
      <trkpt lat="42.12568" lon="9.13131">
        <ele>970</ele>
        <time>2018-06-11T14:42:13.000Z</time>
      </trkpt>
      <trkpt lat="42.12563" lon="9.13118">
        <ele>970</ele>
        <time>2018-06-11T14:42:36.000Z</time>
      </trkpt>
      <trkpt lat="42.12558" lon="9.13105">
        <ele>969</ele>
        <time>2018-06-11T14:42:49.000Z</time>
      </trkpt>
      <trkpt lat="42.1257" lon="9.13105">
        <ele>968</ele>
        <time>2018-06-11T14:43:52.000Z</time>
      </trkpt>
      <trkpt lat="42.12579" lon="9.13096">
        <ele>967</ele>
        <time>2018-06-11T14:45:10.000Z</time>
      </trkpt>
      <trkpt lat="42.12566" lon="9.13097">
        <ele>968</ele>
        <time>2018-06-11T14:45:28.000Z</time>
      </trkpt>
      <trkpt lat="42.12555" lon="9.13095">
        <ele>969</ele>
        <time>2018-06-11T14:46:53.000Z</time>
      </trkpt>
      <trkpt lat="42.12548" lon="9.13083">
        <ele>969</ele>
        <time>2018-06-11T14:47:06.000Z</time>
      </trkpt>
      <trkpt lat="42.12557" lon="9.13073">
        <ele>968</ele>
        <time>2018-06-11T14:47:22.000Z</time>
      </trkpt>
      <trkpt lat="42.12568" lon="9.13067">
        <ele>967</ele>
        <time>2018-06-11T14:47:29.000Z</time>
      </trkpt>
      <trkpt lat="42.12578" lon="9.13063">
        <ele>967</ele>
        <time>2018-06-11T14:47:37.000Z</time>
      </trkpt>
      <trkpt lat="42.12589" lon="9.13063">
        <ele>960</ele>
        <time>2018-06-11T14:47:47.000Z</time>
      </trkpt>
      <trkpt lat="42.12598" lon="9.13053">
        <ele>958</ele>
        <time>2018-06-11T14:48:05.000Z</time>
      </trkpt>
      <trkpt lat="42.12606" lon="9.13043">
        <ele>958</ele>
        <time>2018-06-11T14:48:15.000Z</time>
      </trkpt>
      <trkpt lat="42.12618" lon="9.13037">
        <ele>957</ele>
        <time>2018-06-11T14:48:24.000Z</time>
      </trkpt>
      <trkpt lat="42.12628" lon="9.13031">
        <ele>956</ele>
        <time>2018-06-11T14:48:32.000Z</time>
      </trkpt>
      <trkpt lat="42.12637" lon="9.13021">
        <ele>955</ele>
        <time>2018-06-11T14:48:41.000Z</time>
      </trkpt>
      <trkpt lat="42.12647" lon="9.13015">
        <ele>953</ele>
        <time>2018-06-11T14:48:53.000Z</time>
      </trkpt>
      <trkpt lat="42.12645" lon="9.12999">
        <ele>954</ele>
        <time>2018-06-11T14:49:11.000Z</time>
      </trkpt>
      <trkpt lat="42.12637" lon="9.12989">
        <ele>956</ele>
        <time>2018-06-11T14:49:27.000Z</time>
      </trkpt>
      <trkpt lat="42.12626" lon="9.12981">
        <ele>957</ele>
        <time>2018-06-11T14:49:35.000Z</time>
      </trkpt>
      <trkpt lat="42.1262" lon="9.12967">
        <ele>957</ele>
        <time>2018-06-11T14:49:43.000Z</time>
      </trkpt>
      <trkpt lat="42.12622" lon="9.12951">
        <ele>958</ele>
        <time>2018-06-11T14:49:53.000Z</time>
      </trkpt>
      <trkpt lat="42.1263" lon="9.12942">
        <ele>957</ele>
        <time>2018-06-11T14:50:15.000Z</time>
      </trkpt>
      <trkpt lat="42.12637" lon="9.1293">
        <ele>957</ele>
        <time>2018-06-11T14:50:32.000Z</time>
      </trkpt>
      <trkpt lat="42.1264" lon="9.12916">
        <ele>961</ele>
        <time>2018-06-11T14:50:49.000Z</time>
      </trkpt>
      <trkpt lat="42.12648" lon="9.12904">
        <ele>961</ele>
        <time>2018-06-11T14:51:01.000Z</time>
      </trkpt>
      <trkpt lat="42.12637" lon="9.12913">
        <ele>962</ele>
        <time>2018-06-11T14:51:27.000Z</time>
      </trkpt>
      <trkpt lat="42.12625" lon="9.12912">
        <ele>963</ele>
        <time>2018-06-11T14:52:46.000Z</time>
      </trkpt>
      <trkpt lat="42.12614" lon="9.12911">
        <ele>963</ele>
        <time>2018-06-11T14:52:55.000Z</time>
      </trkpt>
      <trkpt lat="42.12602" lon="9.12912">
        <ele>963</ele>
        <time>2018-06-11T14:53:05.000Z</time>
      </trkpt>
      <trkpt lat="42.1259" lon="9.12911">
        <ele>963</ele>
        <time>2018-06-11T14:53:15.000Z</time>
      </trkpt>
      <trkpt lat="42.12579" lon="9.12906">
        <ele>965</ele>
        <time>2018-06-11T14:53:24.000Z</time>
      </trkpt>
      <trkpt lat="42.12569" lon="9.12902">
        <ele>966</ele>
        <time>2018-06-11T14:53:37.000Z</time>
      </trkpt>
      <trkpt lat="42.12558" lon="9.129">
        <ele>967</ele>
        <time>2018-06-11T14:53:47.000Z</time>
      </trkpt>
      <trkpt lat="42.12547" lon="9.12896">
        <ele>968</ele>
        <time>2018-06-11T14:53:58.000Z</time>
      </trkpt>
      <trkpt lat="42.12537" lon="9.1289">
        <ele>968</ele>
        <time>2018-06-11T14:54:06.000Z</time>
      </trkpt>
      <trkpt lat="42.12527" lon="9.12896">
        <ele>969</ele>
        <time>2018-06-11T14:54:28.000Z</time>
      </trkpt>
      <trkpt lat="42.12519" lon="9.12885">
        <ele>969</ele>
        <time>2018-06-11T14:54:36.000Z</time>
      </trkpt>
      <trkpt lat="42.12508" lon="9.12886">
        <ele>969</ele>
        <time>2018-06-11T14:54:47.000Z</time>
      </trkpt>
      <trkpt lat="42.12497" lon="9.12883">
        <ele>972</ele>
        <time>2018-06-11T14:54:57.000Z</time>
      </trkpt>
      <trkpt lat="42.12486" lon="9.12875">
        <ele>972</ele>
        <time>2018-06-11T14:55:12.000Z</time>
      </trkpt>
      <trkpt lat="42.12476" lon="9.12869">
        <ele>973</ele>
        <time>2018-06-11T14:55:19.000Z</time>
      </trkpt>
      <trkpt lat="42.12466" lon="9.12861">
        <ele>973</ele>
        <time>2018-06-11T14:55:27.000Z</time>
      </trkpt>
      <trkpt lat="42.12456" lon="9.12856">
        <ele>973</ele>
        <time>2018-06-11T14:55:36.000Z</time>
      </trkpt>
      <trkpt lat="42.12445" lon="9.12856">
        <ele>974</ele>
        <time>2018-06-11T14:55:46.000Z</time>
      </trkpt>
      <trkpt lat="42.12433" lon="9.12852">
        <ele>974</ele>
        <time>2018-06-11T14:55:57.000Z</time>
      </trkpt>
      <trkpt lat="42.12424" lon="9.12843">
        <ele>975</ele>
        <time>2018-06-11T14:56:06.000Z</time>
      </trkpt>
      <trkpt lat="42.12416" lon="9.12834">
        <ele>977</ele>
        <time>2018-06-11T14:56:18.000Z</time>
      </trkpt>
      <trkpt lat="42.12406" lon="9.12825">
        <ele>981</ele>
        <time>2018-06-11T14:56:28.000Z</time>
      </trkpt>
      <trkpt lat="42.12394" lon="9.12822">
        <ele>982</ele>
        <time>2018-06-11T14:56:37.000Z</time>
      </trkpt>
      <trkpt lat="42.12383" lon="9.12823">
        <ele>983</ele>
        <time>2018-06-11T14:56:51.000Z</time>
      </trkpt>
      <trkpt lat="42.12372" lon="9.12827">
        <ele>983</ele>
        <time>2018-06-11T14:57:02.000Z</time>
      </trkpt>
      <trkpt lat="42.12361" lon="9.12834">
        <ele>977</ele>
        <time>2018-06-11T14:57:11.000Z</time>
      </trkpt>
      <trkpt lat="42.12351" lon="9.12842">
        <ele>978</ele>
        <time>2018-06-11T14:57:19.000Z</time>
      </trkpt>
      <trkpt lat="42.12341" lon="9.12849">
        <ele>978</ele>
        <time>2018-06-11T14:57:28.000Z</time>
      </trkpt>
      <trkpt lat="42.1233" lon="9.12853">
        <ele>979</ele>
        <time>2018-06-11T14:57:41.000Z</time>
      </trkpt>
      <trkpt lat="42.12319" lon="9.1286">
        <ele>978</ele>
        <time>2018-06-11T14:57:57.000Z</time>
      </trkpt>
      <trkpt lat="42.12309" lon="9.12861">
        <ele>978</ele>
        <time>2018-06-11T14:58:06.000Z</time>
      </trkpt>
      <trkpt lat="42.12298" lon="9.12866">
        <ele>977</ele>
        <time>2018-06-11T14:58:18.000Z</time>
      </trkpt>
      <trkpt lat="42.12287" lon="9.1287">
        <ele>977</ele>
        <time>2018-06-11T14:58:26.000Z</time>
      </trkpt>
      <trkpt lat="42.12276" lon="9.12876">
        <ele>977</ele>
        <time>2018-06-11T14:58:36.000Z</time>
      </trkpt>
      <trkpt lat="42.12266" lon="9.12871">
        <ele>977</ele>
        <time>2018-06-11T14:58:46.000Z</time>
      </trkpt>
      <trkpt lat="42.12262" lon="9.12867">
        <ele>977</ele>
        <time>2018-06-11T14:59:01.000Z</time>
      </trkpt>
      <trkpt lat="42.12264" lon="9.12863">
        <ele>977</ele>
        <time>2018-06-11T14:59:07.000Z</time>
      </trkpt>
      <trkpt lat="42.12262" lon="9.12859">
        <ele>977</ele>
        <time>2018-06-11T14:59:40.000Z</time>
      </trkpt>
      <trkpt lat="42.12258" lon="9.12859">
        <ele>977</ele>
        <time>2018-06-11T14:59:44.000Z</time>
      </trkpt>
      <trkpt lat="42.12247" lon="9.12858">
        <ele>979</ele>
        <time>2018-06-11T14:59:54.000Z</time>
      </trkpt>
      <trkpt lat="42.12236" lon="9.12861">
        <ele>979</ele>
        <time>2018-06-11T15:00:02.000Z</time>
      </trkpt>
      <trkpt lat="42.12225" lon="9.12859">
        <ele>980</ele>
        <time>2018-06-11T15:00:11.000Z</time>
      </trkpt>
      <trkpt lat="42.12214" lon="9.12859">
        <ele>980</ele>
        <time>2018-06-11T15:00:23.000Z</time>
      </trkpt>
      <trkpt lat="42.12203" lon="9.12854">
        <ele>980</ele>
        <time>2018-06-11T15:00:33.000Z</time>
      </trkpt>
      <trkpt lat="42.12195" lon="9.12842">
        <ele>981</ele>
        <time>2018-06-11T15:00:42.000Z</time>
      </trkpt>
      <trkpt lat="42.12187" lon="9.12832">
        <ele>983</ele>
        <time>2018-06-11T15:00:56.000Z</time>
      </trkpt>
      <trkpt lat="42.12178" lon="9.1282">
        <ele>983</ele>
        <time>2018-06-11T15:01:06.000Z</time>
      </trkpt>
      <trkpt lat="42.1217" lon="9.12809">
        <ele>984</ele>
        <time>2018-06-11T15:01:15.000Z</time>
      </trkpt>
      <trkpt lat="42.12164" lon="9.12795">
        <ele>987</ele>
        <time>2018-06-11T15:01:28.000Z</time>
      </trkpt>
      <trkpt lat="42.12153" lon="9.12792">
        <ele>988</ele>
        <time>2018-06-11T15:01:40.000Z</time>
      </trkpt>
      <trkpt lat="42.12142" lon="9.1279">
        <ele>988</ele>
        <time>2018-06-11T15:01:48.000Z</time>
      </trkpt>
      <trkpt lat="42.12132" lon="9.12784">
        <ele>988</ele>
        <time>2018-06-11T15:02:01.000Z</time>
      </trkpt>
      <trkpt lat="42.12122" lon="9.12775">
        <ele>989</ele>
        <time>2018-06-11T15:02:12.000Z</time>
      </trkpt>
      <trkpt lat="42.12112" lon="9.12768">
        <ele>989</ele>
        <time>2018-06-11T15:02:24.000Z</time>
      </trkpt>
      <trkpt lat="42.12106" lon="9.12756">
        <ele>990</ele>
        <time>2018-06-11T15:02:35.000Z</time>
      </trkpt>
      <trkpt lat="42.121" lon="9.12742">
        <ele>992</ele>
        <time>2018-06-11T15:02:47.000Z</time>
      </trkpt>
      <trkpt lat="42.12094" lon="9.12728">
        <ele>992</ele>
        <time>2018-06-11T15:02:56.000Z</time>
      </trkpt>
      <trkpt lat="42.12088" lon="9.12715">
        <ele>993</ele>
        <time>2018-06-11T15:03:07.000Z</time>
      </trkpt>
      <trkpt lat="42.12086" lon="9.12701">
        <ele>993</ele>
        <time>2018-06-11T15:03:15.000Z</time>
      </trkpt>
      <trkpt lat="42.12078" lon="9.12688">
        <ele>998</ele>
        <time>2018-06-11T15:03:26.000Z</time>
      </trkpt>
      <trkpt lat="42.12072" lon="9.12676">
        <ele>997</ele>
        <time>2018-06-11T15:03:37.000Z</time>
      </trkpt>
      <trkpt lat="42.12071" lon="9.12661">
        <ele>998</ele>
        <time>2018-06-11T15:03:50.000Z</time>
      </trkpt>
      <trkpt lat="42.12069" lon="9.12647">
        <ele>999</ele>
        <time>2018-06-11T15:03:59.000Z</time>
      </trkpt>
      <trkpt lat="42.12067" lon="9.12633">
        <ele>1000</ele>
        <time>2018-06-11T15:04:08.000Z</time>
      </trkpt>
      <trkpt lat="42.12057" lon="9.12623">
        <ele>1001</ele>
        <time>2018-06-11T15:04:27.000Z</time>
      </trkpt>
      <trkpt lat="42.12052" lon="9.1261">
        <ele>1001</ele>
        <time>2018-06-11T15:04:39.000Z</time>
      </trkpt>
      <trkpt lat="42.12051" lon="9.12594">
        <ele>1002</ele>
        <time>2018-06-11T15:04:54.000Z</time>
      </trkpt>
      <trkpt lat="42.12047" lon="9.1258">
        <ele>1006</ele>
        <time>2018-06-11T15:05:01.000Z</time>
      </trkpt>
      <trkpt lat="42.12045" lon="9.12565">
        <ele>1006</ele>
        <time>2018-06-11T15:05:13.000Z</time>
      </trkpt>
      <trkpt lat="42.12047" lon="9.1255">
        <ele>1007</ele>
        <time>2018-06-11T15:05:20.000Z</time>
      </trkpt>
      <trkpt lat="42.1205" lon="9.12536">
        <ele>1007</ele>
        <time>2018-06-11T15:05:35.000Z</time>
      </trkpt>
      <trkpt lat="42.12056" lon="9.12522">
        <ele>1008</ele>
        <time>2018-06-11T15:05:44.000Z</time>
      </trkpt>
      <trkpt lat="42.12066" lon="9.12514">
        <ele>1009</ele>
        <time>2018-06-11T15:05:53.000Z</time>
      </trkpt>
      <trkpt lat="42.12078" lon="9.12514">
        <ele>1010</ele>
        <time>2018-06-11T15:06:05.000Z</time>
      </trkpt>
      <trkpt lat="42.12075" lon="9.125">
        <ele>1014</ele>
        <time>2018-06-11T15:06:33.000Z</time>
      </trkpt>
      <trkpt lat="42.12072" lon="9.12485">
        <ele>1015</ele>
        <time>2018-06-11T15:06:44.000Z</time>
      </trkpt>
      <trkpt lat="42.12067" lon="9.12472">
        <ele>1017</ele>
        <time>2018-06-11T15:06:53.000Z</time>
      </trkpt>
      <trkpt lat="42.12064" lon="9.12457">
        <ele>1018</ele>
        <time>2018-06-11T15:07:04.000Z</time>
      </trkpt>
      <trkpt lat="42.12061" lon="9.12441">
        <ele>1020</ele>
        <time>2018-06-11T15:07:16.000Z</time>
      </trkpt>
      <trkpt lat="42.12061" lon="9.12426">
        <ele>1021</ele>
        <time>2018-06-11T15:07:28.000Z</time>
      </trkpt>
      <trkpt lat="42.12055" lon="9.12414">
        <ele>1029</ele>
        <time>2018-06-11T15:07:40.000Z</time>
      </trkpt>
      <trkpt lat="42.12046" lon="9.12405">
        <ele>1029</ele>
        <time>2018-06-11T15:07:51.000Z</time>
      </trkpt>
      <trkpt lat="42.1204" lon="9.12393">
        <ele>1030</ele>
        <time>2018-06-11T15:08:06.000Z</time>
      </trkpt>
      <trkpt lat="42.12034" lon="9.12379">
        <ele>1030</ele>
        <time>2018-06-11T15:08:17.000Z</time>
      </trkpt>
      <trkpt lat="42.12027" lon="9.12369">
        <ele>1031</ele>
        <time>2018-06-11T15:08:35.000Z</time>
      </trkpt>
      <trkpt lat="42.12017" lon="9.12358">
        <ele>1032</ele>
        <time>2018-06-11T15:08:50.000Z</time>
      </trkpt>
      <trkpt lat="42.12008" lon="9.12349">
        <ele>1032</ele>
        <time>2018-06-11T15:08:58.000Z</time>
      </trkpt>
      <trkpt lat="42.12001" lon="9.12338">
        <ele>1034</ele>
        <time>2018-06-11T15:09:10.000Z</time>
      </trkpt>
      <trkpt lat="42.11992" lon="9.12328">
        <ele>1035</ele>
        <time>2018-06-11T15:09:24.000Z</time>
      </trkpt>
      <trkpt lat="42.11983" lon="9.1232">
        <ele>1036</ele>
        <time>2018-06-11T15:09:40.000Z</time>
      </trkpt>
      <trkpt lat="42.11972" lon="9.12315">
        <ele>1036</ele>
        <time>2018-06-11T15:09:53.000Z</time>
      </trkpt>
      <trkpt lat="42.1196" lon="9.12313">
        <ele>1035</ele>
        <time>2018-06-11T15:10:01.000Z</time>
      </trkpt>
      <trkpt lat="42.11952" lon="9.12303">
        <ele>1036</ele>
        <time>2018-06-11T15:10:12.000Z</time>
      </trkpt>
      <trkpt lat="42.11942" lon="9.12297">
        <ele>1035</ele>
        <time>2018-06-11T15:10:29.000Z</time>
      </trkpt>
      <trkpt lat="42.11935" lon="9.12285">
        <ele>1036</ele>
        <time>2018-06-11T15:10:39.000Z</time>
      </trkpt>
      <trkpt lat="42.11928" lon="9.12273">
        <ele>1036</ele>
        <time>2018-06-11T15:10:49.000Z</time>
      </trkpt>
      <trkpt lat="42.11922" lon="9.1226">
        <ele>1036</ele>
        <time>2018-06-11T15:10:58.000Z</time>
      </trkpt>
      <trkpt lat="42.1192" lon="9.12244">
        <ele>1039</ele>
        <time>2018-06-11T15:11:07.000Z</time>
      </trkpt>
      <trkpt lat="42.11915" lon="9.12231">
        <ele>1039</ele>
        <time>2018-06-11T15:11:16.000Z</time>
      </trkpt>
      <trkpt lat="42.11913" lon="9.12217">
        <ele>1041</ele>
        <time>2018-06-11T15:11:29.000Z</time>
      </trkpt>
      <trkpt lat="42.11912" lon="9.12201">
        <ele>1043</ele>
        <time>2018-06-11T15:11:36.000Z</time>
      </trkpt>
      <trkpt lat="42.11906" lon="9.12189">
        <ele>1045</ele>
        <time>2018-06-11T15:11:51.000Z</time>
      </trkpt>
      <trkpt lat="42.11901" lon="9.12175">
        <ele>1046</ele>
        <time>2018-06-11T15:12:02.000Z</time>
      </trkpt>
      <trkpt lat="42.11896" lon="9.12163">
        <ele>1052</ele>
        <time>2018-06-11T15:12:12.000Z</time>
      </trkpt>
      <trkpt lat="42.11893" lon="9.12146">
        <ele>1053</ele>
        <time>2018-06-11T15:12:23.000Z</time>
      </trkpt>
      <trkpt lat="42.1189" lon="9.12132">
        <ele>1054</ele>
        <time>2018-06-11T15:12:36.000Z</time>
      </trkpt>
      <trkpt lat="42.11886" lon="9.12118">
        <ele>1055</ele>
        <time>2018-06-11T15:12:46.000Z</time>
      </trkpt>
      <trkpt lat="42.11877" lon="9.12109">
        <ele>1055</ele>
        <time>2018-06-11T15:13:02.000Z</time>
      </trkpt>
      <trkpt lat="42.11867" lon="9.12104">
        <ele>1055</ele>
        <time>2018-06-11T15:13:18.000Z</time>
      </trkpt>
      <trkpt lat="42.11857" lon="9.12096">
        <ele>1055</ele>
        <time>2018-06-11T15:13:28.000Z</time>
      </trkpt>
      <trkpt lat="42.11847" lon="9.12089">
        <ele>1055</ele>
        <time>2018-06-11T15:13:37.000Z</time>
      </trkpt>
      <trkpt lat="42.11841" lon="9.12076">
        <ele>1060</ele>
        <time>2018-06-11T15:13:46.000Z</time>
      </trkpt>
      <trkpt lat="42.11833" lon="9.12067">
        <ele>1061</ele>
        <time>2018-06-11T15:13:59.000Z</time>
      </trkpt>
      <trkpt lat="42.11824" lon="9.12057">
        <ele>1063</ele>
        <time>2018-06-11T15:14:12.000Z</time>
      </trkpt>
      <trkpt lat="42.11811" lon="9.12053">
        <ele>1065</ele>
        <time>2018-06-11T15:14:27.000Z</time>
      </trkpt>
      <trkpt lat="42.118" lon="9.12048">
        <ele>1066</ele>
        <time>2018-06-11T15:14:34.000Z</time>
      </trkpt>
      <trkpt lat="42.1179" lon="9.12043">
        <ele>1067</ele>
        <time>2018-06-11T15:14:43.000Z</time>
      </trkpt>
      <trkpt lat="42.11784" lon="9.1203">
        <ele>1067</ele>
        <time>2018-06-11T15:14:53.000Z</time>
      </trkpt>
      <trkpt lat="42.11779" lon="9.12016">
        <ele>1068</ele>
        <time>2018-06-11T15:15:02.000Z</time>
      </trkpt>
      <trkpt lat="42.11775" lon="9.12001">
        <ele>1069</ele>
        <time>2018-06-11T15:15:12.000Z</time>
      </trkpt>
      <trkpt lat="42.11776" lon="9.11995">
        <ele>1073</ele>
        <time>2018-06-11T15:15:15.000Z</time>
      </trkpt>
      <trkpt lat="42.11771" lon="9.11981">
        <ele>1073</ele>
        <time>2018-06-11T15:15:24.000Z</time>
      </trkpt>
      <trkpt lat="42.11766" lon="9.11967">
        <ele>1074</ele>
        <time>2018-06-11T15:15:34.000Z</time>
      </trkpt>
      <trkpt lat="42.11758" lon="9.11956">
        <ele>1074</ele>
        <time>2018-06-11T15:15:48.000Z</time>
      </trkpt>
      <trkpt lat="42.11755" lon="9.11941">
        <ele>1074</ele>
        <time>2018-06-11T15:15:56.000Z</time>
      </trkpt>
      <trkpt lat="42.11748" lon="9.11927">
        <ele>1077</ele>
        <time>2018-06-11T15:16:08.000Z</time>
      </trkpt>
      <trkpt lat="42.11742" lon="9.11914">
        <ele>1076</ele>
        <time>2018-06-11T15:16:18.000Z</time>
      </trkpt>
      <trkpt lat="42.11747" lon="9.11899">
        <ele>1078</ele>
        <time>2018-06-11T15:16:27.000Z</time>
      </trkpt>
      <trkpt lat="42.11758" lon="9.11902">
        <ele>1076</ele>
        <time>2018-06-11T15:18:05.000Z</time>
      </trkpt>
      <trkpt lat="42.11766" lon="9.11892">
        <ele>1077</ele>
        <time>2018-06-11T15:18:25.000Z</time>
      </trkpt>
      <trkpt lat="42.11754" lon="9.11886">
        <ele>1077</ele>
        <time>2018-06-11T15:21:09.000Z</time>
      </trkpt>
      <trkpt lat="42.11743" lon="9.11887">
        <ele>1080</ele>
        <time>2018-06-11T15:21:19.000Z</time>
      </trkpt>
      <trkpt lat="42.1174" lon="9.11872">
        <ele>1080</ele>
        <time>2018-06-11T15:21:35.000Z</time>
      </trkpt>
      <trkpt lat="42.1174" lon="9.11862">
        <ele>1080</ele>
        <time>2018-06-11T15:21:45.000Z</time>
      </trkpt>
      <trkpt lat="42.1174" lon="9.11857">
        <ele>1080</ele>
        <time>2018-06-11T15:21:56.000Z</time>
      </trkpt>
      <trkpt lat="42.1174" lon="9.11851">
        <ele>1079</ele>
        <time>2018-06-11T15:22:03.000Z</time>
      </trkpt>
      <trkpt lat="42.11736" lon="9.11838">
        <ele>1079</ele>
        <time>2018-06-11T15:22:17.000Z</time>
      </trkpt>
      <trkpt lat="42.11732" lon="9.11824">
        <ele>1080</ele>
        <time>2018-06-11T15:22:24.000Z</time>
      </trkpt>
      <trkpt lat="42.11732" lon="9.1181">
        <ele>1081</ele>
        <time>2018-06-11T15:22:45.000Z</time>
      </trkpt>
      <trkpt lat="42.11731" lon="9.11794">
        <ele>1082</ele>
        <time>2018-06-11T15:22:54.000Z</time>
      </trkpt>
      <trkpt lat="42.11729" lon="9.11779">
        <ele>1082</ele>
        <time>2018-06-11T15:23:04.000Z</time>
      </trkpt>
      <trkpt lat="42.11731" lon="9.11764">
        <ele>1082</ele>
        <time>2018-06-11T15:23:15.000Z</time>
      </trkpt>
      <trkpt lat="42.11731" lon="9.11748">
        <ele>1082</ele>
        <time>2018-06-11T15:23:28.000Z</time>
      </trkpt>
      <trkpt lat="42.11729" lon="9.11734">
        <ele>1083</ele>
        <time>2018-06-11T15:23:39.000Z</time>
      </trkpt>
      <trkpt lat="42.1172" lon="9.11725">
        <ele>1083</ele>
        <time>2018-06-11T15:23:56.000Z</time>
      </trkpt>
      <trkpt lat="42.11711" lon="9.11721">
        <ele>1084</ele>
        <time>2018-06-11T15:24:04.000Z</time>
      </trkpt>
      <trkpt lat="42.11703" lon="9.11711">
        <ele>1084</ele>
        <time>2018-06-11T15:24:14.000Z</time>
      </trkpt>
      <trkpt lat="42.11701" lon="9.11704">
        <ele>1084</ele>
        <time>2018-06-11T15:24:18.000Z</time>
      </trkpt>
      <trkpt lat="42.117" lon="9.117">
        <ele>1084</ele>
        <time>2018-06-11T15:24:21.000Z</time>
      </trkpt>
      <trkpt lat="42.11697" lon="9.11694">
        <ele>1084</ele>
        <time>2018-06-11T15:24:30.000Z</time>
      </trkpt>
      <trkpt lat="42.11693" lon="9.11685">
        <ele>1085</ele>
        <time>2018-06-11T15:24:41.000Z</time>
      </trkpt>
      <trkpt lat="42.11691" lon="9.11682">
        <ele>1085</ele>
        <time>2018-06-11T15:24:46.000Z</time>
      </trkpt>
      <trkpt lat="42.1169" lon="9.11675">
        <ele>1085</ele>
        <time>2018-06-11T15:24:50.000Z</time>
      </trkpt>
      <trkpt lat="42.11691" lon="9.11669">
        <ele>1085</ele>
        <time>2018-06-11T15:24:53.000Z</time>
      </trkpt>
      <trkpt lat="42.11696" lon="9.11655">
        <ele>1085</ele>
        <time>2018-06-11T15:25:00.000Z</time>
      </trkpt>
      <trkpt lat="42.11703" lon="9.11644">
        <ele>1085</ele>
        <time>2018-06-11T15:25:11.000Z</time>
      </trkpt>
      <trkpt lat="42.11714" lon="9.11644">
        <ele>1085</ele>
        <time>2018-06-11T15:25:23.000Z</time>
      </trkpt>
      <trkpt lat="42.1172" lon="9.11631">
        <ele>1085</ele>
        <time>2018-06-11T15:25:40.000Z</time>
      </trkpt>
      <trkpt lat="42.11719" lon="9.11618">
        <ele>1085</ele>
        <time>2018-06-11T15:25:57.000Z</time>
      </trkpt>
      <trkpt lat="42.11719" lon="9.11603">
        <ele>1086</ele>
        <time>2018-06-11T15:26:13.000Z</time>
      </trkpt>
      <trkpt lat="42.11723" lon="9.11587">
        <ele>1086</ele>
        <time>2018-06-11T15:26:28.000Z</time>
      </trkpt>
      <trkpt lat="42.11726" lon="9.11573">
        <ele>1088</ele>
        <time>2018-06-11T15:26:39.000Z</time>
      </trkpt>
      <trkpt lat="42.11726" lon="9.11557">
        <ele>1088</ele>
        <time>2018-06-11T15:26:54.000Z</time>
      </trkpt>
      <trkpt lat="42.11727" lon="9.11543">
        <ele>1089</ele>
        <time>2018-06-11T15:27:07.000Z</time>
      </trkpt>
      <trkpt lat="42.11731" lon="9.11528">
        <ele>1090</ele>
        <time>2018-06-11T15:27:14.000Z</time>
      </trkpt>
      <trkpt lat="42.11729" lon="9.11513">
        <ele>1090</ele>
        <time>2018-06-11T15:27:27.000Z</time>
      </trkpt>
      <trkpt lat="42.1174" lon="9.11516">
        <ele>1091</ele>
        <time>2018-06-11T15:27:49.000Z</time>
      </trkpt>
      <trkpt lat="42.11732" lon="9.11505">
        <ele>1091</ele>
        <time>2018-06-11T15:29:00.000Z</time>
      </trkpt>
      <trkpt lat="42.11731" lon="9.1149">
        <ele>1094</ele>
        <time>2018-06-11T15:29:08.000Z</time>
      </trkpt>
      <trkpt lat="42.11729" lon="9.11473">
        <ele>1095</ele>
        <time>2018-06-11T15:29:17.000Z</time>
      </trkpt>
      <trkpt lat="42.11725" lon="9.1146">
        <ele>1096</ele>
        <time>2018-06-11T15:29:27.000Z</time>
      </trkpt>
      <trkpt lat="42.11719" lon="9.11447">
        <ele>1097</ele>
        <time>2018-06-11T15:29:44.000Z</time>
      </trkpt>
      <trkpt lat="42.11714" lon="9.11434">
        <ele>1097</ele>
        <time>2018-06-11T15:29:57.000Z</time>
      </trkpt>
      <trkpt lat="42.11712" lon="9.11418">
        <ele>1097</ele>
        <time>2018-06-11T15:30:07.000Z</time>
      </trkpt>
      <trkpt lat="42.11708" lon="9.11405">
        <ele>1102</ele>
        <time>2018-06-11T15:30:17.000Z</time>
      </trkpt>
      <trkpt lat="42.11699" lon="9.11395">
        <ele>1101</ele>
        <time>2018-06-11T15:30:34.000Z</time>
      </trkpt>
      <trkpt lat="42.11694" lon="9.11382">
        <ele>1102</ele>
        <time>2018-06-11T15:30:43.000Z</time>
      </trkpt>
      <trkpt lat="42.11695" lon="9.11366">
        <ele>1102</ele>
        <time>2018-06-11T15:30:58.000Z</time>
      </trkpt>
      <trkpt lat="42.11693" lon="9.11352">
        <ele>1102</ele>
        <time>2018-06-11T15:31:10.000Z</time>
      </trkpt>
      <trkpt lat="42.11685" lon="9.1134">
        <ele>1101</ele>
        <time>2018-06-11T15:31:19.000Z</time>
      </trkpt>
      <trkpt lat="42.11678" lon="9.11329">
        <ele>1102</ele>
        <time>2018-06-11T15:31:32.000Z</time>
      </trkpt>
      <trkpt lat="42.11671" lon="9.11322">
        <ele>1102</ele>
        <time>2018-06-11T15:31:40.000Z</time>
      </trkpt>
      <trkpt lat="42.11667" lon="9.11321">
        <ele>1102</ele>
        <time>2018-06-11T15:31:44.000Z</time>
      </trkpt>
      <trkpt lat="42.11665" lon="9.11317">
        <ele>1101</ele>
        <time>2018-06-11T15:31:48.000Z</time>
      </trkpt>
      <trkpt lat="42.11665" lon="9.11302">
        <ele>1103</ele>
        <time>2018-06-11T15:31:56.000Z</time>
      </trkpt>
      <trkpt lat="42.11664" lon="9.11295">
        <ele>1103</ele>
        <time>2018-06-11T15:31:59.000Z</time>
      </trkpt>
      <trkpt lat="42.11664" lon="9.1129">
        <ele>1103</ele>
        <time>2018-06-11T15:32:01.000Z</time>
      </trkpt>
      <trkpt lat="42.11662" lon="9.11286">
        <ele>1103</ele>
        <time>2018-06-11T15:32:03.000Z</time>
      </trkpt>
      <trkpt lat="42.1166" lon="9.11281">
        <ele>1103</ele>
        <time>2018-06-11T15:32:06.000Z</time>
      </trkpt>
      <trkpt lat="42.11656" lon="9.11277">
        <ele>1103</ele>
        <time>2018-06-11T15:32:10.000Z</time>
      </trkpt>
      <trkpt lat="42.11656" lon="9.11272">
        <ele>1103</ele>
        <time>2018-06-11T15:32:13.000Z</time>
      </trkpt>
      <trkpt lat="42.11655" lon="9.11266">
        <ele>1103</ele>
        <time>2018-06-11T15:32:19.000Z</time>
      </trkpt>
      <trkpt lat="42.11652" lon="9.11261">
        <ele>1103</ele>
        <time>2018-06-11T15:32:23.000Z</time>
      </trkpt>
      <trkpt lat="42.11649" lon="9.11257">
        <ele>1103</ele>
        <time>2018-06-11T15:32:27.000Z</time>
      </trkpt>
      <trkpt lat="42.11646" lon="9.11255">
        <ele>1104</ele>
        <time>2018-06-11T15:32:33.000Z</time>
      </trkpt>
      <trkpt lat="42.11641" lon="9.11256">
        <ele>1104</ele>
        <time>2018-06-11T15:32:42.000Z</time>
      </trkpt>
      <trkpt lat="42.11637" lon="9.11252">
        <ele>1105</ele>
        <time>2018-06-11T15:32:52.000Z</time>
      </trkpt>
      <trkpt lat="42.11634" lon="9.1125">
        <ele>1107</ele>
        <time>2018-06-11T15:32:57.000Z</time>
      </trkpt>
      <trkpt lat="42.11632" lon="9.11246">
        <ele>1108</ele>
        <time>2018-06-11T15:33:10.000Z</time>
      </trkpt>
      <trkpt lat="42.11628" lon="9.11244">
        <ele>1108</ele>
        <time>2018-06-11T15:33:17.000Z</time>
      </trkpt>
      <trkpt lat="42.11624" lon="9.11245">
        <ele>1109</ele>
        <time>2018-06-11T15:33:22.000Z</time>
      </trkpt>
      <trkpt lat="42.11621" lon="9.1125">
        <ele>1109</ele>
        <time>2018-06-11T15:34:08.000Z</time>
      </trkpt>
      <trkpt lat="42.11617" lon="9.11235">
        <ele>1110</ele>
        <time>2018-06-11T15:34:28.000Z</time>
      </trkpt>
      <trkpt lat="42.11615" lon="9.11229">
        <ele>1110</ele>
        <time>2018-06-11T15:34:32.000Z</time>
      </trkpt>
      <trkpt lat="42.11609" lon="9.11216">
        <ele>1110</ele>
        <time>2018-06-11T15:34:43.000Z</time>
      </trkpt>
      <trkpt lat="42.11609" lon="9.11201">
        <ele>1111</ele>
        <time>2018-06-11T15:34:54.000Z</time>
      </trkpt>
      <trkpt lat="42.11604" lon="9.11188">
        <ele>1112</ele>
        <time>2018-06-11T15:35:10.000Z</time>
      </trkpt>
      <trkpt lat="42.11602" lon="9.11181">
        <ele>1113</ele>
        <time>2018-06-11T15:35:18.000Z</time>
      </trkpt>
      <trkpt lat="42.116" lon="9.11176">
        <ele>1113</ele>
        <time>2018-06-11T15:35:23.000Z</time>
      </trkpt>
      <trkpt lat="42.11598" lon="9.11164">
        <ele>1117</ele>
        <time>2018-06-11T15:35:35.000Z</time>
      </trkpt>
      <trkpt lat="42.11595" lon="9.1115">
        <ele>1117</ele>
        <time>2018-06-11T15:35:49.000Z</time>
      </trkpt>
      <trkpt lat="42.11594" lon="9.11136">
        <ele>1117</ele>
        <time>2018-06-11T15:36:04.000Z</time>
      </trkpt>
      <trkpt lat="42.11598" lon="9.1112">
        <ele>1118</ele>
        <time>2018-06-11T15:36:17.000Z</time>
      </trkpt>
      <trkpt lat="42.11601" lon="9.11106">
        <ele>1120</ele>
        <time>2018-06-11T15:36:26.000Z</time>
      </trkpt>
      <trkpt lat="42.11609" lon="9.11095">
        <ele>1119</ele>
        <time>2018-06-11T15:36:38.000Z</time>
      </trkpt>
      <trkpt lat="42.11617" lon="9.11084">
        <ele>1118</ele>
        <time>2018-06-11T15:36:49.000Z</time>
      </trkpt>
      <trkpt lat="42.1162" lon="9.11077">
        <ele>1125</ele>
        <time>2018-06-11T15:37:03.000Z</time>
      </trkpt>
      <trkpt lat="42.11625" lon="9.1107">
        <ele>1124</ele>
        <time>2018-06-11T15:37:15.000Z</time>
      </trkpt>
      <trkpt lat="42.11633" lon="9.11059">
        <ele>1123</ele>
        <time>2018-06-11T15:37:29.000Z</time>
      </trkpt>
      <trkpt lat="42.11641" lon="9.11049">
        <ele>1123</ele>
        <time>2018-06-11T15:37:53.000Z</time>
      </trkpt>
      <trkpt lat="42.11651" lon="9.11042">
        <ele>1123</ele>
        <time>2018-06-11T15:38:06.000Z</time>
      </trkpt>
      <trkpt lat="42.11661" lon="9.11046">
        <ele>1122</ele>
        <time>2018-06-11T15:38:19.000Z</time>
      </trkpt>
      <trkpt lat="42.11661" lon="9.11051">
        <ele>1121</ele>
        <time>2018-06-11T15:38:27.000Z</time>
      </trkpt>
      <trkpt lat="42.11657" lon="9.11047">
        <ele>1122</ele>
        <time>2018-06-11T15:38:37.000Z</time>
      </trkpt>
      <trkpt lat="42.11657" lon="9.11042">
        <ele>1123</ele>
        <time>2018-06-11T15:38:50.000Z</time>
      </trkpt>
      <trkpt lat="42.11656" lon="9.11038">
        <ele>1123</ele>
        <time>2018-06-11T15:38:55.000Z</time>
      </trkpt>
      <trkpt lat="42.11654" lon="9.11032">
        <ele>1124</ele>
        <time>2018-06-11T15:39:01.000Z</time>
      </trkpt>
      <trkpt lat="42.11656" lon="9.11028">
        <ele>1124</ele>
        <time>2018-06-11T15:39:05.000Z</time>
      </trkpt>
      <trkpt lat="42.11659" lon="9.11021">
        <ele>1124</ele>
        <time>2018-06-11T15:39:11.000Z</time>
      </trkpt>
      <trkpt lat="42.11666" lon="9.1101">
        <ele>1124</ele>
        <time>2018-06-11T15:39:24.000Z</time>
      </trkpt>
      <trkpt lat="42.11675" lon="9.11001">
        <ele>1123</ele>
        <time>2018-06-11T15:39:40.000Z</time>
      </trkpt>
      <trkpt lat="42.11685" lon="9.10994">
        <ele>1130</ele>
        <time>2018-06-11T15:39:57.000Z</time>
      </trkpt>
      <trkpt lat="42.11693" lon="9.10985">
        <ele>1132</ele>
        <time>2018-06-11T15:40:07.000Z</time>
      </trkpt>
      <trkpt lat="42.117" lon="9.10973">
        <ele>1134</ele>
        <time>2018-06-11T15:40:22.000Z</time>
      </trkpt>
      <trkpt lat="42.11705" lon="9.1097">
        <ele>1135</ele>
        <time>2018-06-11T15:40:34.000Z</time>
      </trkpt>
      <trkpt lat="42.11714" lon="9.10962">
        <ele>1136</ele>
        <time>2018-06-11T15:40:58.000Z</time>
      </trkpt>
      <trkpt lat="42.11724" lon="9.1097">
        <ele>1135</ele>
        <time>2018-06-11T15:41:08.000Z</time>
      </trkpt>
      <trkpt lat="42.11732" lon="9.10983">
        <ele>1133</ele>
        <time>2018-06-11T15:41:13.000Z</time>
      </trkpt>
      <trkpt lat="42.11733" lon="9.10979">
        <ele>1134</ele>
        <time>2018-06-11T15:42:20.000Z</time>
      </trkpt>
      <trkpt lat="42.11735" lon="9.10973">
        <ele>1134</ele>
        <time>2018-06-11T15:42:24.000Z</time>
      </trkpt>
      <trkpt lat="42.11739" lon="9.10971">
        <ele>1134</ele>
        <time>2018-06-11T15:42:45.000Z</time>
      </trkpt>
      <trkpt lat="42.11741" lon="9.10966">
        <ele>1135</ele>
        <time>2018-06-11T15:42:52.000Z</time>
      </trkpt>
      <trkpt lat="42.11743" lon="9.10963">
        <ele>1135</ele>
        <time>2018-06-11T15:42:56.000Z</time>
      </trkpt>
      <trkpt lat="42.11745" lon="9.10957">
        <ele>1136</ele>
        <time>2018-06-11T15:43:08.000Z</time>
      </trkpt>
      <trkpt lat="42.11747" lon="9.10954">
        <ele>1136</ele>
        <time>2018-06-11T15:43:33.000Z</time>
      </trkpt>
      <trkpt lat="42.11758" lon="9.10956">
        <ele>1146</ele>
        <time>2018-06-11T15:44:03.000Z</time>
      </trkpt>
      <trkpt lat="42.11749" lon="9.10958">
        <ele>1136</ele>
        <time>2018-06-11T15:44:16.000Z</time>
      </trkpt>
      <trkpt lat="42.11739" lon="9.10959">
        <ele>1136</ele>
        <time>2018-06-11T15:44:30.000Z</time>
      </trkpt>
      <trkpt lat="42.11736" lon="9.10962">
        <ele>1135</ele>
        <time>2018-06-11T15:44:40.000Z</time>
      </trkpt>
      <trkpt lat="42.1173" lon="9.10965">
        <ele>1135</ele>
        <time>2018-06-11T15:44:47.000Z</time>
      </trkpt>
      <trkpt lat="42.11726" lon="9.10963">
        <ele>1135</ele>
        <time>2018-06-11T15:44:53.000Z</time>
      </trkpt>
      <trkpt lat="42.11722" lon="9.10962">
        <ele>1136</ele>
        <time>2018-06-11T15:44:58.000Z</time>
      </trkpt>
      <trkpt lat="42.1172" lon="9.10958">
        <ele>1136</ele>
        <time>2018-06-11T15:45:03.000Z</time>
      </trkpt>
      <trkpt lat="42.11717" lon="9.10955">
        <ele>1137</ele>
        <time>2018-06-11T15:45:09.000Z</time>
      </trkpt>
      <trkpt lat="42.11716" lon="9.1095">
        <ele>1137</ele>
        <time>2018-06-11T15:45:13.000Z</time>
      </trkpt>
      <trkpt lat="42.11719" lon="9.10946">
        <ele>1137</ele>
        <time>2018-06-11T15:45:18.000Z</time>
      </trkpt>
      <trkpt lat="42.11724" lon="9.10942">
        <ele>1138</ele>
        <time>2018-06-11T15:45:25.000Z</time>
      </trkpt>
      <trkpt lat="42.1173" lon="9.1093">
        <ele>1139</ele>
        <time>2018-06-11T15:45:42.000Z</time>
      </trkpt>
      <trkpt lat="42.11735" lon="9.10925">
        <ele>1139</ele>
        <time>2018-06-11T15:45:55.000Z</time>
      </trkpt>
      <trkpt lat="42.11736" lon="9.1092">
        <ele>1139</ele>
        <time>2018-06-11T15:46:08.000Z</time>
      </trkpt>
      <trkpt lat="42.11744" lon="9.1091">
        <ele>1148</ele>
        <time>2018-06-11T15:46:24.000Z</time>
      </trkpt>
      <trkpt lat="42.11748" lon="9.10903">
        <ele>1151</ele>
        <time>2018-06-11T15:46:37.000Z</time>
      </trkpt>
      <trkpt lat="42.1175" lon="9.10897">
        <ele>1154</ele>
        <time>2018-06-11T15:46:51.000Z</time>
      </trkpt>
      <trkpt lat="42.1176" lon="9.1089">
        <ele>1157</ele>
        <time>2018-06-11T15:47:05.000Z</time>
      </trkpt>
      <trkpt lat="42.11768" lon="9.10891">
        <ele>1158</ele>
        <time>2018-06-11T15:47:13.000Z</time>
      </trkpt>
      <trkpt lat="42.11775" lon="9.10898">
        <ele>1158</ele>
        <time>2018-06-11T15:47:24.000Z</time>
      </trkpt>
      <trkpt lat="42.1177" lon="9.10893">
        <ele>1158</ele>
        <time>2018-06-11T15:47:50.000Z</time>
      </trkpt>
      <trkpt lat="42.11772" lon="9.10885">
        <ele>1160</ele>
        <time>2018-06-11T15:48:06.000Z</time>
      </trkpt>
      <trkpt lat="42.11775" lon="9.10873">
        <ele>1163</ele>
        <time>2018-06-11T15:48:18.000Z</time>
      </trkpt>
      <trkpt lat="42.11775" lon="9.10868">
        <ele>1164</ele>
        <time>2018-06-11T15:48:24.000Z</time>
      </trkpt>
      <trkpt lat="42.11775" lon="9.10874">
        <ele>1162</ele>
        <time>2018-06-11T15:48:34.000Z</time>
      </trkpt>
      <trkpt lat="42.1178" lon="9.10876">
        <ele>1162</ele>
        <time>2018-06-11T15:49:18.000Z</time>
      </trkpt>
      <trkpt lat="42.11778" lon="9.10872">
        <ele>1163</ele>
        <time>2018-06-11T15:49:31.000Z</time>
      </trkpt>
      <trkpt lat="42.11775" lon="9.1087">
        <ele>1163</ele>
        <time>2018-06-11T15:49:38.000Z</time>
      </trkpt>
      <trkpt lat="42.1177" lon="9.10866">
        <ele>1164</ele>
        <time>2018-06-11T15:49:45.000Z</time>
      </trkpt>
      <trkpt lat="42.11766" lon="9.10855">
        <ele>1166</ele>
        <time>2018-06-11T15:50:01.000Z</time>
      </trkpt>
      <trkpt lat="42.11762" lon="9.10849">
        <ele>1168</ele>
        <time>2018-06-11T15:50:08.000Z</time>
      </trkpt>
      <trkpt lat="42.11757" lon="9.10848">
        <ele>1169</ele>
        <time>2018-06-11T15:50:29.000Z</time>
      </trkpt>
      <trkpt lat="42.11753" lon="9.10848">
        <ele>1169</ele>
        <time>2018-06-11T15:50:34.000Z</time>
      </trkpt>
      <trkpt lat="42.11743" lon="9.10855">
        <ele>1167</ele>
        <time>2018-06-11T15:50:48.000Z</time>
      </trkpt>
      <trkpt lat="42.11737" lon="9.10857">
        <ele>1167</ele>
        <time>2018-06-11T15:51:00.000Z</time>
      </trkpt>
      <trkpt lat="42.11733" lon="9.10856">
        <ele>1167</ele>
        <time>2018-06-11T15:51:09.000Z</time>
      </trkpt>
      <trkpt lat="42.1173" lon="9.10859">
        <ele>1166</ele>
        <time>2018-06-11T15:51:20.000Z</time>
      </trkpt>
      <trkpt lat="42.11727" lon="9.10862">
        <ele>1165</ele>
        <time>2018-06-11T15:51:24.000Z</time>
      </trkpt>
      <trkpt lat="42.11723" lon="9.10866">
        <ele>1164</ele>
        <time>2018-06-11T15:51:28.000Z</time>
      </trkpt>
      <trkpt lat="42.11721" lon="9.1087">
        <ele>1164</ele>
        <time>2018-06-11T15:51:31.000Z</time>
      </trkpt>
      <trkpt lat="42.11717" lon="9.10871">
        <ele>1164</ele>
        <time>2018-06-11T15:51:36.000Z</time>
      </trkpt>
      <trkpt lat="42.11714" lon="9.10869">
        <ele>1164</ele>
        <time>2018-06-11T15:51:44.000Z</time>
      </trkpt>
      <trkpt lat="42.1171" lon="9.1087">
        <ele>1164</ele>
        <time>2018-06-11T15:51:50.000Z</time>
      </trkpt>
      <trkpt lat="42.11706" lon="9.1087">
        <ele>1165</ele>
        <time>2018-06-11T15:51:55.000Z</time>
      </trkpt>
      <trkpt lat="42.11703" lon="9.10872">
        <ele>1165</ele>
        <time>2018-06-11T15:51:59.000Z</time>
      </trkpt>
      <trkpt lat="42.11699" lon="9.10872">
        <ele>1165</ele>
        <time>2018-06-11T15:52:04.000Z</time>
      </trkpt>
      <trkpt lat="42.11696" lon="9.10875">
        <ele>1164</ele>
        <time>2018-06-11T15:52:09.000Z</time>
      </trkpt>
      <trkpt lat="42.11692" lon="9.10876">
        <ele>1164</ele>
        <time>2018-06-11T15:52:15.000Z</time>
      </trkpt>
      <trkpt lat="42.11693" lon="9.10871">
        <ele>1166</ele>
        <time>2018-06-11T15:52:23.000Z</time>
      </trkpt>
      <trkpt lat="42.11689" lon="9.10873">
        <ele>1165</ele>
        <time>2018-06-11T15:52:37.000Z</time>
      </trkpt>
      <trkpt lat="42.11686" lon="9.10876">
        <ele>1165</ele>
        <time>2018-06-11T15:52:41.000Z</time>
      </trkpt>
      <trkpt lat="42.11677" lon="9.10881">
        <ele>1164</ele>
        <time>2018-06-11T15:52:50.000Z</time>
      </trkpt>
      <trkpt lat="42.11667" lon="9.10884">
        <ele>1174</ele>
        <time>2018-06-11T15:53:00.000Z</time>
      </trkpt>
      <trkpt lat="42.11663" lon="9.10884">
        <ele>1174</ele>
        <time>2018-06-11T15:53:04.000Z</time>
      </trkpt>
      <trkpt lat="42.11659" lon="9.10885">
        <ele>1174</ele>
        <time>2018-06-11T15:53:09.000Z</time>
      </trkpt>
      <trkpt lat="42.11648" lon="9.1088">
        <ele>1177</ele>
        <time>2018-06-11T15:53:23.000Z</time>
      </trkpt>
      <trkpt lat="42.11637" lon="9.10877">
        <ele>1179</ele>
        <time>2018-06-11T15:53:35.000Z</time>
      </trkpt>
      <trkpt lat="42.11632" lon="9.10879">
        <ele>1180</ele>
        <time>2018-06-11T15:53:42.000Z</time>
      </trkpt>
      <trkpt lat="42.11626" lon="9.10883">
        <ele>1180</ele>
        <time>2018-06-11T15:53:52.000Z</time>
      </trkpt>
      <trkpt lat="42.11623" lon="9.10885">
        <ele>1180</ele>
        <time>2018-06-11T15:53:57.000Z</time>
      </trkpt>
      <trkpt lat="42.11619" lon="9.10886">
        <ele>1180</ele>
        <time>2018-06-11T15:54:05.000Z</time>
      </trkpt>
      <trkpt lat="42.11615" lon="9.10889">
        <ele>1180</ele>
        <time>2018-06-11T15:54:13.000Z</time>
      </trkpt>
      <trkpt lat="42.11612" lon="9.10892">
        <ele>1180</ele>
        <time>2018-06-11T15:54:19.000Z</time>
      </trkpt>
      <trkpt lat="42.11609" lon="9.10895">
        <ele>1179</ele>
        <time>2018-06-11T15:54:23.000Z</time>
      </trkpt>
      <trkpt lat="42.11606" lon="9.10899">
        <ele>1179</ele>
        <time>2018-06-11T15:54:27.000Z</time>
      </trkpt>
      <trkpt lat="42.11602" lon="9.10901">
        <ele>1178</ele>
        <time>2018-06-11T15:54:33.000Z</time>
      </trkpt>
      <trkpt lat="42.11598" lon="9.10901">
        <ele>1178</ele>
        <time>2018-06-11T15:54:36.000Z</time>
      </trkpt>
      <trkpt lat="42.11595" lon="9.10903">
        <ele>1178</ele>
        <time>2018-06-11T15:54:39.000Z</time>
      </trkpt>
      <trkpt lat="42.11591" lon="9.10905">
        <ele>1177</ele>
        <time>2018-06-11T15:54:43.000Z</time>
      </trkpt>
      <trkpt lat="42.11587" lon="9.10907">
        <ele>1176</ele>
        <time>2018-06-11T15:54:47.000Z</time>
      </trkpt>
      <trkpt lat="42.11583" lon="9.10909">
        <ele>1176</ele>
        <time>2018-06-11T15:54:55.000Z</time>
      </trkpt>
      <trkpt lat="42.1158" lon="9.1091">
        <ele>1183</ele>
        <time>2018-06-11T15:55:02.000Z</time>
      </trkpt>
      <trkpt lat="42.11577" lon="9.10913">
        <ele>1184</ele>
        <time>2018-06-11T15:55:06.000Z</time>
      </trkpt>
      <trkpt lat="42.11574" lon="9.10916">
        <ele>1185</ele>
        <time>2018-06-11T15:55:10.000Z</time>
      </trkpt>
      <trkpt lat="42.11571" lon="9.10919">
        <ele>1176</ele>
        <time>2018-06-11T15:55:17.000Z</time>
      </trkpt>
      <trkpt lat="42.11569" lon="9.10924">
        <ele>1177</ele>
        <time>2018-06-11T15:55:26.000Z</time>
      </trkpt>
      <trkpt lat="42.11567" lon="9.10928">
        <ele>1177</ele>
        <time>2018-06-11T15:55:30.000Z</time>
      </trkpt>
      <trkpt lat="42.11569" lon="9.10923">
        <ele>1177</ele>
        <time>2018-06-11T15:55:38.000Z</time>
      </trkpt>
      <trkpt lat="42.11564" lon="9.10929">
        <ele>1178</ele>
        <time>2018-06-11T15:55:49.000Z</time>
      </trkpt>
      <trkpt lat="42.1156" lon="9.10931">
        <ele>1178</ele>
        <time>2018-06-11T15:55:53.000Z</time>
      </trkpt>
      <trkpt lat="42.11556" lon="9.10935">
        <ele>1179</ele>
        <time>2018-06-11T15:55:56.000Z</time>
      </trkpt>
      <trkpt lat="42.11553" lon="9.10938">
        <ele>1180</ele>
        <time>2018-06-11T15:56:00.000Z</time>
      </trkpt>
      <trkpt lat="42.11551" lon="9.10943">
        <ele>1180</ele>
        <time>2018-06-11T15:56:04.000Z</time>
      </trkpt>
      <trkpt lat="42.11548" lon="9.10947">
        <ele>1180</ele>
        <time>2018-06-11T15:56:09.000Z</time>
      </trkpt>
      <trkpt lat="42.11545" lon="9.10952">
        <ele>1180</ele>
        <time>2018-06-11T15:56:13.000Z</time>
      </trkpt>
      <trkpt lat="42.11542" lon="9.10956">
        <ele>1180</ele>
        <time>2018-06-11T15:56:16.000Z</time>
      </trkpt>
      <trkpt lat="42.1154" lon="9.10961">
        <ele>1180</ele>
        <time>2018-06-11T15:56:21.000Z</time>
      </trkpt>
      <trkpt lat="42.11537" lon="9.10964">
        <ele>1180</ele>
        <time>2018-06-11T15:56:25.000Z</time>
      </trkpt>
      <trkpt lat="42.11534" lon="9.10967">
        <ele>1180</ele>
        <time>2018-06-11T15:56:30.000Z</time>
      </trkpt>
      <trkpt lat="42.11532" lon="9.10972">
        <ele>1180</ele>
        <time>2018-06-11T15:56:38.000Z</time>
      </trkpt>
      <trkpt lat="42.1153" lon="9.10976">
        <ele>1180</ele>
        <time>2018-06-11T15:56:41.000Z</time>
      </trkpt>
      <trkpt lat="42.11526" lon="9.10979">
        <ele>1181</ele>
        <time>2018-06-11T15:56:45.000Z</time>
      </trkpt>
      <trkpt lat="42.11522" lon="9.10981">
        <ele>1182</ele>
        <time>2018-06-11T15:56:49.000Z</time>
      </trkpt>
      <trkpt lat="42.11517" lon="9.10981">
        <ele>1183</ele>
        <time>2018-06-11T15:56:54.000Z</time>
      </trkpt>
      <trkpt lat="42.11513" lon="9.10981">
        <ele>1184</ele>
        <time>2018-06-11T15:56:57.000Z</time>
      </trkpt>
      <trkpt lat="42.11509" lon="9.10986">
        <ele>1185</ele>
        <time>2018-06-11T15:57:03.000Z</time>
      </trkpt>
      <trkpt lat="42.115" lon="9.10995">
        <ele>1187</ele>
        <time>2018-06-11T15:57:17.000Z</time>
      </trkpt>
      <trkpt lat="42.11498" lon="9.10999">
        <ele>1191</ele>
        <time>2018-06-11T15:57:23.000Z</time>
      </trkpt>
      <trkpt lat="42.11496" lon="9.11005">
        <ele>1191</ele>
        <time>2018-06-11T15:57:30.000Z</time>
      </trkpt>
      <trkpt lat="42.11493" lon="9.11008">
        <ele>1193</ele>
        <time>2018-06-11T15:57:34.000Z</time>
      </trkpt>
      <trkpt lat="42.1149" lon="9.11011">
        <ele>1194</ele>
        <time>2018-06-11T15:57:43.000Z</time>
      </trkpt>
      <trkpt lat="42.11487" lon="9.11015">
        <ele>1194</ele>
        <time>2018-06-11T15:57:46.000Z</time>
      </trkpt>
      <trkpt lat="42.11484" lon="9.11017">
        <ele>1195</ele>
        <time>2018-06-11T15:57:52.000Z</time>
      </trkpt>
      <trkpt lat="42.11481" lon="9.1102">
        <ele>1196</ele>
        <time>2018-06-11T15:57:58.000Z</time>
      </trkpt>
      <trkpt lat="42.11479" lon="9.11024">
        <ele>1196</ele>
        <time>2018-06-11T15:58:03.000Z</time>
      </trkpt>
      <trkpt lat="42.11477" lon="9.1103">
        <ele>1196</ele>
        <time>2018-06-11T15:58:09.000Z</time>
      </trkpt>
      <trkpt lat="42.11477" lon="9.11035">
        <ele>1196</ele>
        <time>2018-06-11T15:58:12.000Z</time>
      </trkpt>
      <trkpt lat="42.11475" lon="9.1104">
        <ele>1196</ele>
        <time>2018-06-11T15:58:16.000Z</time>
      </trkpt>
      <trkpt lat="42.1147" lon="9.11054">
        <ele>1196</ele>
        <time>2018-06-11T15:58:29.000Z</time>
      </trkpt>
      <trkpt lat="42.11464" lon="9.1106">
        <ele>1197</ele>
        <time>2018-06-11T15:58:35.000Z</time>
      </trkpt>
      <trkpt lat="42.11462" lon="9.11065">
        <ele>1198</ele>
        <time>2018-06-11T15:58:43.000Z</time>
      </trkpt>
      <trkpt lat="42.1146" lon="9.11069">
        <ele>1198</ele>
        <time>2018-06-11T15:58:48.000Z</time>
      </trkpt>
      <trkpt lat="42.11457" lon="9.11072">
        <ele>1199</ele>
        <time>2018-06-11T15:58:52.000Z</time>
      </trkpt>
      <trkpt lat="42.11455" lon="9.11077">
        <ele>1199</ele>
        <time>2018-06-11T15:58:56.000Z</time>
      </trkpt>
      <trkpt lat="42.11452" lon="9.1108">
        <ele>1200</ele>
        <time>2018-06-11T15:59:01.000Z</time>
      </trkpt>
      <trkpt lat="42.11449" lon="9.11086">
        <ele>1195</ele>
        <time>2018-06-11T15:59:05.000Z</time>
      </trkpt>
      <trkpt lat="42.11447" lon="9.11091">
        <ele>1196</ele>
        <time>2018-06-11T15:59:08.000Z</time>
      </trkpt>
      <trkpt lat="42.11445" lon="9.11095">
        <ele>1196</ele>
        <time>2018-06-11T15:59:19.000Z</time>
      </trkpt>
      <trkpt lat="42.11441" lon="9.11106">
        <ele>1196</ele>
        <time>2018-06-11T15:59:27.000Z</time>
      </trkpt>
      <trkpt lat="42.11437" lon="9.11109">
        <ele>1197</ele>
        <time>2018-06-11T15:59:31.000Z</time>
      </trkpt>
      <trkpt lat="42.11435" lon="9.11113">
        <ele>1197</ele>
        <time>2018-06-11T15:59:40.000Z</time>
      </trkpt>
      <trkpt lat="42.11433" lon="9.11117">
        <ele>1196</ele>
        <time>2018-06-11T15:59:50.000Z</time>
      </trkpt>
      <trkpt lat="42.1143" lon="9.11121">
        <ele>1196</ele>
        <time>2018-06-11T15:59:59.000Z</time>
      </trkpt>
      <trkpt lat="42.11427" lon="9.11125">
        <ele>1196</ele>
        <time>2018-06-11T16:00:04.000Z</time>
      </trkpt>
      <trkpt lat="42.11424" lon="9.11128">
        <ele>1197</ele>
        <time>2018-06-11T16:00:10.000Z</time>
      </trkpt>
      <trkpt lat="42.11421" lon="9.11131">
        <ele>1197</ele>
        <time>2018-06-11T16:00:14.000Z</time>
      </trkpt>
      <trkpt lat="42.11418" lon="9.11135">
        <ele>1197</ele>
        <time>2018-06-11T16:00:17.000Z</time>
      </trkpt>
      <trkpt lat="42.11417" lon="9.1114">
        <ele>1198</ele>
        <time>2018-06-11T16:00:22.000Z</time>
      </trkpt>
      <trkpt lat="42.11416" lon="9.11144">
        <ele>1205</ele>
        <time>2018-06-11T16:00:29.000Z</time>
      </trkpt>
      <trkpt lat="42.11415" lon="9.11149">
        <ele>1205</ele>
        <time>2018-06-11T16:00:34.000Z</time>
      </trkpt>
      <trkpt lat="42.11412" lon="9.11152">
        <ele>1205</ele>
        <time>2018-06-11T16:00:38.000Z</time>
      </trkpt>
      <trkpt lat="42.11408" lon="9.11155">
        <ele>1205</ele>
        <time>2018-06-11T16:00:42.000Z</time>
      </trkpt>
      <trkpt lat="42.11409" lon="9.1116">
        <ele>1205</ele>
        <time>2018-06-11T16:00:48.000Z</time>
      </trkpt>
      <trkpt lat="42.11409" lon="9.11165">
        <ele>1205</ele>
        <time>2018-06-11T16:00:54.000Z</time>
      </trkpt>
      <trkpt lat="42.11409" lon="9.11171">
        <ele>1204</ele>
        <time>2018-06-11T16:01:03.000Z</time>
      </trkpt>
      <trkpt lat="42.11405" lon="9.11171">
        <ele>1203</ele>
        <time>2018-06-11T16:01:33.000Z</time>
      </trkpt>
      <trkpt lat="42.11406" lon="9.11177">
        <ele>1202</ele>
        <time>2018-06-11T16:01:42.000Z</time>
      </trkpt>
      <trkpt lat="42.11406" lon="9.11182">
        <ele>1202</ele>
        <time>2018-06-11T16:01:46.000Z</time>
      </trkpt>
      <trkpt lat="42.11405" lon="9.11188">
        <ele>1201</ele>
        <time>2018-06-11T16:01:49.000Z</time>
      </trkpt>
      <trkpt lat="42.11403" lon="9.11193">
        <ele>1201</ele>
        <time>2018-06-11T16:01:53.000Z</time>
      </trkpt>
      <trkpt lat="42.11402" lon="9.11199">
        <ele>1200</ele>
        <time>2018-06-11T16:01:56.000Z</time>
      </trkpt>
      <trkpt lat="42.114" lon="9.11204">
        <ele>1200</ele>
        <time>2018-06-11T16:01:59.000Z</time>
      </trkpt>
      <trkpt lat="42.11398" lon="9.11209">
        <ele>1199</ele>
        <time>2018-06-11T16:02:02.000Z</time>
      </trkpt>
      <trkpt lat="42.11396" lon="9.11215">
        <ele>1199</ele>
        <time>2018-06-11T16:02:06.000Z</time>
      </trkpt>
      <trkpt lat="42.11395" lon="9.1122">
        <ele>1199</ele>
        <time>2018-06-11T16:02:10.000Z</time>
      </trkpt>
      <trkpt lat="42.11393" lon="9.11227">
        <ele>1198</ele>
        <time>2018-06-11T16:02:14.000Z</time>
      </trkpt>
      <trkpt lat="42.11392" lon="9.11232">
        <ele>1198</ele>
        <time>2018-06-11T16:02:19.000Z</time>
      </trkpt>
      <trkpt lat="42.11391" lon="9.11241">
        <ele>1198</ele>
        <time>2018-06-11T16:02:24.000Z</time>
      </trkpt>
      <trkpt lat="42.1139" lon="9.11245">
        <ele>1198</ele>
        <time>2018-06-11T16:02:29.000Z</time>
      </trkpt>
      <trkpt lat="42.11386" lon="9.11248">
        <ele>1198</ele>
        <time>2018-06-11T16:02:33.000Z</time>
      </trkpt>
      <trkpt lat="42.11382" lon="9.11248">
        <ele>1198</ele>
        <time>2018-06-11T16:02:36.000Z</time>
      </trkpt>
      <trkpt lat="42.11378" lon="9.11246">
        <ele>1197</ele>
        <time>2018-06-11T16:02:39.000Z</time>
      </trkpt>
      <trkpt lat="42.11376" lon="9.11241">
        <ele>1198</ele>
        <time>2018-06-11T16:02:43.000Z</time>
      </trkpt>
      <trkpt lat="42.11373" lon="9.11239">
        <ele>1198</ele>
        <time>2018-06-11T16:02:47.000Z</time>
      </trkpt>
      <trkpt lat="42.1137" lon="9.1124">
        <ele>1197</ele>
        <time>2018-06-11T16:02:52.000Z</time>
      </trkpt>
      <trkpt lat="42.11367" lon="9.11241">
        <ele>1197</ele>
        <time>2018-06-11T16:08:22.000Z</time>
      </trkpt>
      <trkpt lat="42.11365" lon="9.11245">
        <ele>1197</ele>
        <time>2018-06-11T16:11:41.000Z</time>
      </trkpt>
      <trkpt lat="42.11364" lon="9.1125">
        <ele>1194</ele>
        <time>2018-06-11T16:11:45.000Z</time>
      </trkpt>
      <trkpt lat="42.11364" lon="9.11255">
        <ele>1194</ele>
        <time>2018-06-11T16:11:50.000Z</time>
      </trkpt>
      <trkpt lat="42.11364" lon="9.11259">
        <ele>1194</ele>
        <time>2018-06-11T16:11:58.000Z</time>
      </trkpt>
      <trkpt lat="42.11363" lon="9.11264">
        <ele>1194</ele>
        <time>2018-06-11T16:12:09.000Z</time>
      </trkpt>
      <trkpt lat="42.11359" lon="9.11267">
        <ele>1194</ele>
        <time>2018-06-11T16:12:15.000Z</time>
      </trkpt>
      <trkpt lat="42.11356" lon="9.11269">
        <ele>1194</ele>
        <time>2018-06-11T16:12:20.000Z</time>
      </trkpt>
      <trkpt lat="42.11352" lon="9.11269">
        <ele>1194</ele>
        <time>2018-06-11T16:12:25.000Z</time>
      </trkpt>
      <trkpt lat="42.11348" lon="9.11269">
        <ele>1194</ele>
        <time>2018-06-11T16:12:29.000Z</time>
      </trkpt>
      <trkpt lat="42.11344" lon="9.11269">
        <ele>1194</ele>
        <time>2018-06-11T16:12:35.000Z</time>
      </trkpt>
      <trkpt lat="42.11343" lon="9.11272">
        <ele>1194</ele>
        <time>2018-06-11T16:12:44.000Z</time>
      </trkpt>
      <trkpt lat="42.11343" lon="9.11277">
        <ele>1193</ele>
        <time>2018-06-11T16:12:51.000Z</time>
      </trkpt>
      <trkpt lat="42.1134" lon="9.11281">
        <ele>1193</ele>
        <time>2018-06-11T16:12:58.000Z</time>
      </trkpt>
      <trkpt lat="42.11338" lon="9.11286">
        <ele>1193</ele>
        <time>2018-06-11T16:13:05.000Z</time>
      </trkpt>
      <trkpt lat="42.11337" lon="9.11291">
        <ele>1193</ele>
        <time>2018-06-11T16:13:13.000Z</time>
      </trkpt>
      <trkpt lat="42.11334" lon="9.11291">
        <ele>1193</ele>
        <time>2018-06-11T16:13:19.000Z</time>
      </trkpt>
      <trkpt lat="42.1133" lon="9.1129">
        <ele>1184</ele>
        <time>2018-06-11T16:13:25.000Z</time>
      </trkpt>
      <trkpt lat="42.11327" lon="9.1129">
        <ele>1184</ele>
        <time>2018-06-11T16:13:28.000Z</time>
      </trkpt>
      <trkpt lat="42.11323" lon="9.11289">
        <ele>1184</ele>
        <time>2018-06-11T16:13:33.000Z</time>
      </trkpt>
      <trkpt lat="42.11319" lon="9.11289">
        <ele>1183</ele>
        <time>2018-06-11T16:13:38.000Z</time>
      </trkpt>
      <trkpt lat="42.11316" lon="9.11288">
        <ele>1183</ele>
        <time>2018-06-11T16:13:43.000Z</time>
      </trkpt>
      <trkpt lat="42.11312" lon="9.11287">
        <ele>1183</ele>
        <time>2018-06-11T16:13:50.000Z</time>
      </trkpt>
      <trkpt lat="42.11308" lon="9.11286">
        <ele>1182</ele>
        <time>2018-06-11T16:13:59.000Z</time>
      </trkpt>
      <trkpt lat="42.11305" lon="9.11287">
        <ele>1182</ele>
        <time>2018-06-11T16:14:07.000Z</time>
      </trkpt>
      <trkpt lat="42.11301" lon="9.11288">
        <ele>1181</ele>
        <time>2018-06-11T16:14:12.000Z</time>
      </trkpt>
      <trkpt lat="42.11299" lon="9.11284">
        <ele>1181</ele>
        <time>2018-06-11T16:14:18.000Z</time>
      </trkpt>
      <trkpt lat="42.11296" lon="9.11283">
        <ele>1180</ele>
        <time>2018-06-11T16:14:24.000Z</time>
      </trkpt>
      <trkpt lat="42.11292" lon="9.1128">
        <ele>1180</ele>
        <time>2018-06-11T16:14:30.000Z</time>
      </trkpt>
      <trkpt lat="42.11288" lon="9.11278">
        <ele>1179</ele>
        <time>2018-06-11T16:14:34.000Z</time>
      </trkpt>
      <trkpt lat="42.11286" lon="9.11274">
        <ele>1179</ele>
        <time>2018-06-11T16:14:38.000Z</time>
      </trkpt>
      <trkpt lat="42.11285" lon="9.1127">
        <ele>1179</ele>
        <time>2018-06-11T16:14:41.000Z</time>
      </trkpt>
      <trkpt lat="42.11282" lon="9.11264">
        <ele>1178</ele>
        <time>2018-06-11T16:14:45.000Z</time>
      </trkpt>
      <trkpt lat="42.11281" lon="9.1126">
        <ele>1178</ele>
        <time>2018-06-11T16:14:49.000Z</time>
      </trkpt>
      <trkpt lat="42.11277" lon="9.11258">
        <ele>1177</ele>
        <time>2018-06-11T16:14:55.000Z</time>
      </trkpt>
      <trkpt lat="42.11273" lon="9.11255">
        <ele>1176</ele>
        <time>2018-06-11T16:15:01.000Z</time>
      </trkpt>
      <trkpt lat="42.1127" lon="9.11252">
        <ele>1175</ele>
        <time>2018-06-11T16:15:07.000Z</time>
      </trkpt>
      <trkpt lat="42.11267" lon="9.11252">
        <ele>1174</ele>
        <time>2018-06-11T16:15:12.000Z</time>
      </trkpt>
      <trkpt lat="42.11263" lon="9.11249">
        <ele>1174</ele>
        <time>2018-06-11T16:15:16.000Z</time>
      </trkpt>
      <trkpt lat="42.11258" lon="9.11247">
        <ele>1172</ele>
        <time>2018-06-11T16:15:20.000Z</time>
      </trkpt>
      <trkpt lat="42.11255" lon="9.11247">
        <ele>1171</ele>
        <time>2018-06-11T16:15:24.000Z</time>
      </trkpt>
      <trkpt lat="42.1125" lon="9.11249">
        <ele>1169</ele>
        <time>2018-06-11T16:15:30.000Z</time>
      </trkpt>
      <trkpt lat="42.11246" lon="9.11249">
        <ele>1168</ele>
        <time>2018-06-11T16:15:34.000Z</time>
      </trkpt>
      <trkpt lat="42.11243" lon="9.11253">
        <ele>1168</ele>
        <time>2018-06-11T16:15:40.000Z</time>
      </trkpt>
      <trkpt lat="42.11243" lon="9.11258">
        <ele>1168</ele>
        <time>2018-06-11T16:15:46.000Z</time>
      </trkpt>
      <trkpt lat="42.11242" lon="9.11264">
        <ele>1168</ele>
        <time>2018-06-11T16:15:51.000Z</time>
      </trkpt>
      <trkpt lat="42.11241" lon="9.11268">
        <ele>1168</ele>
        <time>2018-06-11T16:15:57.000Z</time>
      </trkpt>
      <trkpt lat="42.1124" lon="9.11271">
        <ele>1168</ele>
        <time>2018-06-11T16:16:07.000Z</time>
      </trkpt>
      <trkpt lat="42.11235" lon="9.11282">
        <ele>1168</ele>
        <time>2018-06-11T16:16:16.000Z</time>
      </trkpt>
      <trkpt lat="42.11231" lon="9.11284">
        <ele>1168</ele>
        <time>2018-06-11T16:16:19.000Z</time>
      </trkpt>
      <trkpt lat="42.11229" lon="9.11288">
        <ele>1168</ele>
        <time>2018-06-11T16:16:43.000Z</time>
      </trkpt>
      <trkpt lat="42.11226" lon="9.11293">
        <ele>1168</ele>
        <time>2018-06-11T16:16:47.000Z</time>
      </trkpt>
      <trkpt lat="42.11224" lon="9.11294">
        <ele>1168</ele>
        <time>2018-06-11T16:16:48.000Z</time>
      </trkpt>
    </trkseg>
  </trk>
</gpx>